<?xml version='1.0' encoding='UTF-8'?><gpx version="1.1" creator="JPX - https://github.com/jenetics/jpx" xmlns="http://www.topografix.com/GPX/1/1"><trk><trkseg><trkpt lat="43.94761780770026" lon="2.15179143584114"><ele>166.0</ele><time>2026-04-29T18:07:49Z</time></trkpt><trkpt lat="43.94758872632336" lon="2.1518699058720205"><ele>166.0</ele><time>2026-04-29T18:07:51Z</time></trkpt><trkpt lat="43.947518743896865" lon="2.1519224359028164"><ele>166.0</ele><time>2026-04-29T18:07:54Z</time></trkpt><trkpt lat="43.94740638794351" lon="2.1518714162166455"><ele>166.0</ele><time>2026-04-29T18:07:56Z</time></trkpt><trkpt lat="43.94733512990272" lon="2.151831635948097"><ele>166.0</ele><time>2026-04-29T18:07:57Z</time></trkpt><trkpt lat="43.947264468135636" lon="2.1517892924951996"><ele>166.0</ele><time>2026-04-29T18:07:58Z</time></trkpt><trkpt lat="43.94718217678837" lon="2.151743195241242"><ele>165.83333333333334</ele><time>2026-04-29T18:07:59Z</time></trkpt><trkpt lat="43.94709505021084" lon="2.1516980827510426"><ele>165.66666666666669</ele><time>2026-04-29T18:08:00Z</time></trkpt><trkpt lat="43.94701357745359" lon="2.1516622948962105"><ele>165.5</ele><time>2026-04-29T18:08:01Z</time></trkpt><trkpt lat="43.94694013756673" lon="2.151626068928879"><ele>165.33333333333334</ele><time>2026-04-29T18:08:02Z</time></trkpt><trkpt lat="43.946866457261336" lon="2.1515883544278775"><ele>165.16666666666666</ele><time>2026-04-29T18:08:03Z</time></trkpt><trkpt lat="43.94679033716918" lon="2.1515507552813196"><ele>165.0</ele><time>2026-04-29T18:08:04Z</time></trkpt><trkpt lat="43.94671118083401" lon="2.1515076819702315"><ele>165.0</ele><time>2026-04-29T18:08:05Z</time></trkpt><trkpt lat="43.94663038154778" lon="2.151462625825191"><ele>165.0</ele><time>2026-04-29T18:08:06Z</time></trkpt><trkpt lat="43.94654547466203" lon="2.1514183158660893"><ele>165.0</ele><time>2026-04-29T18:08:07Z</time></trkpt><trkpt lat="43.946462518988966" lon="2.151379323608186"><ele>165.0</ele><time>2026-04-29T18:08:08Z</time></trkpt><trkpt lat="43.94639390041348" lon="2.1513465692671194"><ele>165.0</ele><time>2026-04-29T18:08:09Z</time></trkpt><trkpt lat="43.946329573167795" lon="2.151317327041244"><ele>165.0</ele><time>2026-04-29T18:08:10Z</time></trkpt><trkpt lat="43.94623380477207" lon="2.1513067610555305"><ele>165.0</ele><time>2026-04-29T18:08:12Z</time></trkpt><trkpt lat="43.94619119194887" lon="2.1513999128182966"><ele>165.0</ele><time>2026-04-29T18:08:14Z</time></trkpt><trkpt lat="43.94618176230523" lon="2.151489362404156"><ele>165.0</ele><time>2026-04-29T18:08:19Z</time></trkpt><trkpt lat="43.946199835608994" lon="2.151581918795091"><ele>165.0</ele><time>2026-04-29T18:08:21Z</time></trkpt><trkpt lat="43.946270308309686" lon="2.1516238570499144"><ele>165.0</ele><time>2026-04-29T18:08:22Z</time></trkpt><trkpt lat="43.94635836182497" lon="2.151652337613326"><ele>165.0</ele><time>2026-04-29T18:08:23Z</time></trkpt><trkpt lat="43.94643849868599" lon="2.1516837241632047"><ele>165.0</ele><time>2026-04-29T18:08:24Z</time></trkpt><trkpt lat="43.946532365194685" lon="2.1517246242621906"><ele>165.0</ele><time>2026-04-29T18:08:25Z</time></trkpt><trkpt lat="43.9466439755309" lon="2.151777155667221"><ele>165.0</ele><time>2026-04-29T18:08:26Z</time></trkpt><trkpt lat="43.94675207957135" lon="2.151827705800299"><ele>165.0</ele><time>2026-04-29T18:08:27Z</time></trkpt><trkpt lat="43.94686133031291" lon="2.1518788843300034"><ele>165.0</ele><time>2026-04-29T18:08:28Z</time></trkpt><trkpt lat="43.94698321811592" lon="2.1519397851383717"><ele>165.0</ele><time>2026-04-29T18:08:29Z</time></trkpt><trkpt lat="43.94711899187559" lon="2.152005828564621"><ele>165.0</ele><time>2026-04-29T18:08:30Z</time></trkpt><trkpt lat="43.94725311746235" lon="2.1520661709376103"><ele>165.0</ele><time>2026-04-29T18:08:31Z</time></trkpt><trkpt lat="43.94737282532078" lon="2.1521279017760326"><ele>165.0</ele><time>2026-04-29T18:08:32Z</time></trkpt><trkpt lat="43.94748610754672" lon="2.152183006350194"><ele>165.25</ele><time>2026-04-29T18:08:33Z</time></trkpt><trkpt lat="43.9475928618277" lon="2.152238019627047"><ele>165.5</ele><time>2026-04-29T18:08:34Z</time></trkpt><trkpt lat="43.94769889810238" lon="2.152293341845629"><ele>165.75</ele><time>2026-04-29T18:08:35Z</time></trkpt><trkpt lat="43.94780504759683" lon="2.1523483324141255"><ele>166.0</ele><time>2026-04-29T18:08:36Z</time></trkpt><trkpt lat="43.947910965886784" lon="2.1524002811283145"><ele>166.0</ele><time>2026-04-29T18:08:37Z</time></trkpt><trkpt lat="43.94802080139386" lon="2.152451640562812"><ele>166.0</ele><time>2026-04-29T18:08:38Z</time></trkpt><trkpt lat="43.94813457279292" lon="2.1525079267345757"><ele>166.0</ele><time>2026-04-29T18:08:39Z</time></trkpt><trkpt lat="43.94825784602749" lon="2.1525692749124437"><ele>166.0</ele><time>2026-04-29T18:08:40Z</time></trkpt><trkpt lat="43.94838045490989" lon="2.1526350417933777"><ele>166.0</ele><time>2026-04-29T18:08:41Z</time></trkpt><trkpt lat="43.9485082855682" lon="2.1526996098604583"><ele>166.0</ele><time>2026-04-29T18:08:42Z</time></trkpt><trkpt lat="43.94863865766517" lon="2.1527699598024594"><ele>166.0</ele><time>2026-04-29T18:08:43Z</time></trkpt><trkpt lat="43.94876930798941" lon="2.152830397972334"><ele>166.0</ele><time>2026-04-29T18:08:44Z</time></trkpt><trkpt lat="43.94890097775138" lon="2.1528910552705653"><ele>166.0</ele><time>2026-04-29T18:08:45Z</time></trkpt><trkpt lat="43.94903168855054" lon="2.152958351522824"><ele>166.0</ele><time>2026-04-29T18:08:46Z</time></trkpt><trkpt lat="43.94916266620346" lon="2.1530274004779946"><ele>166.0</ele><time>2026-04-29T18:08:47Z</time></trkpt><trkpt lat="43.94928853450389" lon="2.153088172443933"><ele>166.0</ele><time>2026-04-29T18:08:48Z</time></trkpt><trkpt lat="43.949401636002996" lon="2.1531450082910366"><ele>165.83333333333334</ele><time>2026-04-29T18:08:49Z</time></trkpt><trkpt lat="43.94950666052541" lon="2.15319446321428"><ele>165.66666666666669</ele><time>2026-04-29T18:08:50Z</time></trkpt><trkpt lat="43.94960744092224" lon="2.1532299979092757"><ele>165.5</ele><time>2026-04-29T18:08:51Z</time></trkpt><trkpt lat="43.94968812586023" lon="2.1532678270912844"><ele>165.33333333333334</ele><time>2026-04-29T18:08:52Z</time></trkpt><trkpt lat="43.94976350900779" lon="2.153295446390433"><ele>165.16666666666666</ele><time>2026-04-29T18:08:53Z</time></trkpt><trkpt lat="43.949829479839984" lon="2.153326674042099"><ele>165.0</ele><time>2026-04-29T18:08:54Z</time></trkpt><trkpt lat="43.94988784206697" lon="2.153362512459986"><ele>165.0</ele><time>2026-04-29T18:08:55Z</time></trkpt><trkpt lat="43.94995532194861" lon="2.1534257189313086"><ele>165.0</ele><time>2026-04-29T18:08:56Z</time></trkpt><trkpt lat="43.950040614923246" lon="2.1534986758811865"><ele>165.0</ele><time>2026-04-29T18:08:57Z</time></trkpt><trkpt lat="43.950150320955125" lon="2.153569704790098"><ele>165.0</ele><time>2026-04-29T18:08:58Z</time></trkpt><trkpt lat="43.95028395025016" lon="2.1536186960508554"><ele>165.0</ele><time>2026-04-29T18:08:59Z</time></trkpt><trkpt lat="43.95041927833148" lon="2.1536589490446474"><ele>165.0</ele><time>2026-04-29T18:09:00Z</time></trkpt><trkpt lat="43.95052401871947" lon="2.1537022102003727"><ele>165.0</ele><time>2026-04-29T18:09:01Z</time></trkpt><trkpt lat="43.950611130347504" lon="2.1537548519210543"><ele>165.0</ele><time>2026-04-29T18:09:02Z</time></trkpt><trkpt lat="43.950692738188714" lon="2.1537981050007917"><ele>165.0</ele><time>2026-04-29T18:09:03Z</time></trkpt><trkpt lat="43.95077359486094" lon="2.153838147200285"><ele>165.0</ele><time>2026-04-29T18:09:04Z</time></trkpt><trkpt lat="43.95084926644062" lon="2.1538779404465562"><ele>165.0</ele><time>2026-04-29T18:09:05Z</time></trkpt><trkpt lat="43.95091568652447" lon="2.1539098207162373"><ele>165.0</ele><time>2026-04-29T18:09:06Z</time></trkpt><trkpt lat="43.95102595979052" lon="2.153977040796165"><ele>165.0</ele><time>2026-04-29T18:09:08Z</time></trkpt><trkpt lat="43.95108925326549" lon="2.1540228440114086"><ele>165.0</ele><time>2026-04-29T18:09:09Z</time></trkpt><trkpt lat="43.95115575252046" lon="2.1540790621436994"><ele>165.0</ele><time>2026-04-29T18:09:10Z</time></trkpt><trkpt lat="43.95121415255979" lon="2.1541499448332817"><ele>165.0</ele><time>2026-04-29T18:09:11Z</time></trkpt><trkpt lat="43.951258730340946" lon="2.154238119401717"><ele>165.16666666666666</ele><time>2026-04-29T18:09:12Z</time></trkpt><trkpt lat="43.951270965800624" lon="2.154349622498065"><ele>165.33333333333334</ele><time>2026-04-29T18:09:13Z</time></trkpt><trkpt lat="43.95129689595853" lon="2.154465054789552"><ele>165.5</ele><time>2026-04-29T18:09:14Z</time></trkpt><trkpt lat="43.95132851567352" lon="2.1545561283083248"><ele>165.66666666666669</ele><time>2026-04-29T18:09:15Z</time></trkpt><trkpt lat="43.95133187476129" lon="2.154667298037289"><ele>165.83333333333334</ele><time>2026-04-29T18:09:16Z</time></trkpt><trkpt lat="43.95132495059931" lon="2.1547836887568317"><ele>166.0</ele><time>2026-04-29T18:09:17Z</time></trkpt><trkpt lat="43.95133790706879" lon="2.1548988430955003"><ele>166.0</ele><time>2026-04-29T18:09:18Z</time></trkpt><trkpt lat="43.95138212605218" lon="2.1549985812413923"><ele>166.0</ele><time>2026-04-29T18:09:19Z</time></trkpt><trkpt lat="43.951447291743584" lon="2.1550832659679453"><ele>166.0</ele><time>2026-04-29T18:09:20Z</time></trkpt><trkpt lat="43.951525724584535" lon="2.155135116282153"><ele>166.0</ele><time>2026-04-29T18:09:21Z</time></trkpt><trkpt lat="43.95160905721073" lon="2.1551546087470452"><ele>166.0</ele><time>2026-04-29T18:09:22Z</time></trkpt><trkpt lat="43.951693631842346" lon="2.155149342494075"><ele>166.0</ele><time>2026-04-29T18:09:23Z</time></trkpt><trkpt lat="43.95177158728823" lon="2.155109378469664"><ele>166.0</ele><time>2026-04-29T18:09:24Z</time></trkpt><trkpt lat="43.95184034331281" lon="2.1550328731203074"><ele>166.0</ele><time>2026-04-29T18:09:25Z</time></trkpt><trkpt lat="43.951900801272934" lon="2.1549305151711127"><ele>166.0</ele><time>2026-04-29T18:09:26Z</time></trkpt><trkpt lat="43.95196627507107" lon="2.154819315395177"><ele>166.0</ele><time>2026-04-29T18:09:27Z</time></trkpt><trkpt lat="43.9520563705884" lon="2.154747980033611"><ele>166.0</ele><time>2026-04-29T18:09:28Z</time></trkpt><trkpt lat="43.95216735390678" lon="2.1547198280560775"><ele>166.0</ele><time>2026-04-29T18:09:29Z</time></trkpt><trkpt lat="43.952290234305714" lon="2.1547136030820164"><ele>166.0</ele><time>2026-04-29T18:09:30Z</time></trkpt><trkpt lat="43.952434332371666" lon="2.154715544635571"><ele>166.0</ele><time>2026-04-29T18:09:31Z</time></trkpt><trkpt lat="43.952592850031856" lon="2.154734562249681"><ele>166.0</ele><time>2026-04-29T18:09:32Z</time></trkpt><trkpt lat="43.95276808681338" lon="2.1547787376667693"><ele>166.0</ele><time>2026-04-29T18:09:33Z</time></trkpt><trkpt lat="43.95295212750341" lon="2.154847411414594"><ele>166.0</ele><time>2026-04-29T18:09:34Z</time></trkpt><trkpt lat="43.95315072666236" lon="2.1549491544858523"><ele>166.0</ele><time>2026-04-29T18:09:35Z</time></trkpt><trkpt lat="43.95335936746635" lon="2.155065047795297"><ele>166.0</ele><time>2026-04-29T18:09:36Z</time></trkpt><trkpt lat="43.953574195156975" lon="2.155184959286466"><ele>166.0</ele><time>2026-04-29T18:09:37Z</time></trkpt><trkpt lat="43.95380203050018" lon="2.1553017446133786"><ele>166.0</ele><time>2026-04-29T18:09:38Z</time></trkpt><trkpt lat="43.954028691309645" lon="2.155420037146349"><ele>166.0</ele><time>2026-04-29T18:09:39Z</time></trkpt><trkpt lat="43.954246214949336" lon="2.1555325332662694"><ele>166.0</ele><time>2026-04-29T18:09:40Z</time></trkpt><trkpt lat="43.954453330952084" lon="2.1556431768459183"><ele>166.0</ele><time>2026-04-29T18:09:41Z</time></trkpt><trkpt lat="43.95465035700287" lon="2.155770439787857"><ele>166.0</ele><time>2026-04-29T18:09:42Z</time></trkpt><trkpt lat="43.954836393748636" lon="2.155913157577545"><ele>165.66666666666669</ele><time>2026-04-29T18:09:43Z</time></trkpt><trkpt lat="43.955018624545204" lon="2.1560611424254157"><ele>165.33333333333334</ele><time>2026-04-29T18:09:44Z</time></trkpt><trkpt lat="43.95519305235254" lon="2.156210743511098"><ele>165.0</ele><time>2026-04-29T18:09:45Z</time></trkpt><trkpt lat="43.95536255769307" lon="2.15636987962109"><ele>165.66666666666666</ele><time>2026-04-29T18:09:46Z</time></trkpt><trkpt lat="43.95552684911089" lon="2.1565355278760823"><ele>166.33333333333331</ele><time>2026-04-29T18:09:47Z</time></trkpt><trkpt lat="43.955686212006185" lon="2.1567056194429006"><ele>167.0</ele><time>2026-04-29T18:09:48Z</time></trkpt><trkpt lat="43.95583859791805" lon="2.1568869508876305"><ele>167.0</ele><time>2026-04-29T18:09:49Z</time></trkpt><trkpt lat="43.95598267644003" lon="2.157078563285044"><ele>167.0</ele><time>2026-04-29T18:09:50Z</time></trkpt><trkpt lat="43.95612208225855" lon="2.157272024479553"><ele>167.0</ele><time>2026-04-29T18:09:51Z</time></trkpt><trkpt lat="43.95626364471067" lon="2.1574636172978057"><ele>166.66666666666666</ele><time>2026-04-29T18:09:52Z</time></trkpt><trkpt lat="43.95639576611506" lon="2.157661396950023"><ele>166.33333333333334</ele><time>2026-04-29T18:09:53Z</time></trkpt><trkpt lat="43.95652551536977" lon="2.157861048128994"><ele>166.0</ele><time>2026-04-29T18:09:54Z</time></trkpt><trkpt lat="43.956655159146486" lon="2.1580582021244092"><ele>166.66666666666669</ele><time>2026-04-29T18:09:55Z</time></trkpt><trkpt lat="43.95678473503429" lon="2.158254340767378"><ele>167.33333333333334</ele><time>2026-04-29T18:09:56Z</time></trkpt><trkpt lat="43.95691334765468" lon="2.158449586643687"><ele>168.0</ele><time>2026-04-29T18:09:57Z</time></trkpt><trkpt lat="43.95703718639322" lon="2.158642467994893"><ele>168.0</ele><time>2026-04-29T18:09:58Z</time></trkpt><trkpt lat="43.957148391069" lon="2.158817616723691"><ele>168.0</ele><time>2026-04-29T18:09:59Z</time></trkpt><trkpt lat="43.957251966676594" lon="2.158981374389853"><ele>168.0</ele><time>2026-04-29T18:10:00Z</time></trkpt><trkpt lat="43.95735441461995" lon="2.1591370449674745"><ele>167.75</ele><time>2026-04-29T18:10:01Z</time></trkpt><trkpt lat="43.95744621030071" lon="2.159282154843262"><ele>167.5</ele><time>2026-04-29T18:10:02Z</time></trkpt><trkpt lat="43.957536016045985" lon="2.159417127629946"><ele>167.25</ele><time>2026-04-29T18:10:03Z</time></trkpt><trkpt lat="43.957626367242256" lon="2.1595378587539393"><ele>167.0</ele><time>2026-04-29T18:10:04Z</time></trkpt><trkpt lat="43.957713365680924" lon="2.1596436733999407"><ele>167.0</ele><time>2026-04-29T18:10:05Z</time></trkpt><trkpt lat="43.9577897566343" lon="2.1597389413420345"><ele>167.0</ele><time>2026-04-29T18:10:06Z</time></trkpt><trkpt lat="43.9578565506142" lon="2.1598287050694567"><ele>167.0</ele><time>2026-04-29T18:10:07Z</time></trkpt><trkpt lat="43.95790973083805" lon="2.159904222228229"><ele>167.0</ele><time>2026-04-29T18:10:08Z</time></trkpt><trkpt lat="43.95796485587632" lon="2.160023059888192"><ele>167.0</ele><time>2026-04-29T18:10:10Z</time></trkpt><trkpt lat="43.957945123919856" lon="2.1601816951939457"><ele>166.8</ele><time>2026-04-29T18:10:12Z</time></trkpt><trkpt lat="43.9579265062816" lon="2.1602940678729388"><ele>166.6</ele><time>2026-04-29T18:10:13Z</time></trkpt><trkpt lat="43.95793453614683" lon="2.1604236028927564"><ele>166.4</ele><time>2026-04-29T18:10:14Z</time></trkpt><trkpt lat="43.95796785160024" lon="2.1605535026091562"><ele>166.20000000000002</ele><time>2026-04-29T18:10:15Z</time></trkpt><trkpt lat="43.95802765688331" lon="2.160663867620932"><ele>166.0</ele><time>2026-04-29T18:10:16Z</time></trkpt><trkpt lat="43.95810544809161" lon="2.160745999750396"><ele>166.0</ele><time>2026-04-29T18:10:17Z</time></trkpt><trkpt lat="43.95819049081296" lon="2.16079428650409"><ele>166.0</ele><time>2026-04-29T18:10:18Z</time></trkpt><trkpt lat="43.958266378923135" lon="2.160841541926463"><ele>166.0</ele><time>2026-04-29T18:10:19Z</time></trkpt><trkpt lat="43.95832825456364" lon="2.1609328955751934"><ele>166.0</ele><time>2026-04-29T18:10:20Z</time></trkpt><trkpt lat="43.958363629298994" lon="2.1610624761689934"><ele>166.0</ele><time>2026-04-29T18:10:21Z</time></trkpt><trkpt lat="43.95838607807447" lon="2.161224206342188"><ele>166.0</ele><time>2026-04-29T18:10:22Z</time></trkpt><trkpt lat="43.9584198020079" lon="2.1614180020248996"><ele>166.0</ele><time>2026-04-29T18:10:23Z</time></trkpt><trkpt lat="43.95847507122989" lon="2.161630141677945"><ele>166.0</ele><time>2026-04-29T18:10:24Z</time></trkpt><trkpt lat="43.958539720520825" lon="2.1618510171116143"><ele>166.33333333333334</ele><time>2026-04-29T18:10:25Z</time></trkpt><trkpt lat="43.9586087706876" lon="2.162090682394039"><ele>166.66666666666666</ele><time>2026-04-29T18:10:26Z</time></trkpt><trkpt lat="43.958677147570356" lon="2.1623483218981088"><ele>167.0</ele><time>2026-04-29T18:10:27Z</time></trkpt><trkpt lat="43.95874783183611" lon="2.16261235072691"><ele>167.0</ele><time>2026-04-29T18:10:28Z</time></trkpt><trkpt lat="43.958821711033494" lon="2.1628890965110004"><ele>167.0</ele><time>2026-04-29T18:10:29Z</time></trkpt><trkpt lat="43.95889719026708" lon="2.1631704591757193"><ele>167.0</ele><time>2026-04-29T18:10:30Z</time></trkpt><trkpt lat="43.958971184917914" lon="2.1634546444420644"><ele>167.0</ele><time>2026-04-29T18:10:31Z</time></trkpt><trkpt lat="43.95904151195418" lon="2.163738597081901"><ele>167.0</ele><time>2026-04-29T18:10:32Z</time></trkpt><trkpt lat="43.95912148145081" lon="2.164024288637535"><ele>167.0</ele><time>2026-04-29T18:10:33Z</time></trkpt><trkpt lat="43.95920669286806" lon="2.1643063159039717"><ele>167.0</ele><time>2026-04-29T18:10:34Z</time></trkpt><trkpt lat="43.9592866943487" lon="2.1645892279255827"><ele>167.0</ele><time>2026-04-29T18:10:35Z</time></trkpt><trkpt lat="43.959365612548915" lon="2.1648723199987234"><ele>167.0</ele><time>2026-04-29T18:10:36Z</time></trkpt><trkpt lat="43.959441577882814" lon="2.1651463889316456"><ele>167.33333333333331</ele><time>2026-04-29T18:10:37Z</time></trkpt><trkpt lat="43.959521603126824" lon="2.1654197903845502"><ele>167.66666666666666</ele><time>2026-04-29T18:10:38Z</time></trkpt><trkpt lat="43.95959409076864" lon="2.165701889579695"><ele>168.0</ele><time>2026-04-29T18:10:39Z</time></trkpt><trkpt lat="43.95967210450086" lon="2.1659756172166404"><ele>168.0</ele><time>2026-04-29T18:10:40Z</time></trkpt><trkpt lat="43.959748357718304" lon="2.166256360448922"><ele>168.0</ele><time>2026-04-29T18:10:41Z</time></trkpt><trkpt lat="43.95982860023016" lon="2.1665322387659383"><ele>168.0</ele><time>2026-04-29T18:10:42Z</time></trkpt><trkpt lat="43.959906032803886" lon="2.166811998969507"><ele>168.0</ele><time>2026-04-29T18:10:43Z</time></trkpt><trkpt lat="43.959983224520904" lon="2.1670931030981224"><ele>168.0</ele><time>2026-04-29T18:10:44Z</time></trkpt><trkpt lat="43.96005996069717" lon="2.1673719878611997"><ele>168.0</ele><time>2026-04-29T18:10:45Z</time></trkpt><trkpt lat="43.960135493273434" lon="2.167651448465827"><ele>168.33333333333334</ele><time>2026-04-29T18:10:46Z</time></trkpt><trkpt lat="43.96021088835121" lon="2.167931491324315"><ele>168.66666666666669</ele><time>2026-04-29T18:10:47Z</time></trkpt><trkpt lat="43.96028682792983" lon="2.1682086621119785"><ele>169.0</ele><time>2026-04-29T18:10:48Z</time></trkpt><trkpt lat="43.96036502198394" lon="2.1684823595438423"><ele>169.0</ele><time>2026-04-29T18:10:49Z</time></trkpt><trkpt lat="43.96043751182998" lon="2.168749137096861"><ele>169.0</ele><time>2026-04-29T18:10:50Z</time></trkpt><trkpt lat="43.960511128779686" lon="2.1690148186518297"><ele>169.0</ele><time>2026-04-29T18:10:51Z</time></trkpt><trkpt lat="43.960589620753574" lon="2.169278121263242"><ele>169.0</ele><time>2026-04-29T18:10:52Z</time></trkpt><trkpt lat="43.960664420330964" lon="2.169535556845895"><ele>169.0</ele><time>2026-04-29T18:10:53Z</time></trkpt><trkpt lat="43.96074203515191" lon="2.169790102101609"><ele>169.0</ele><time>2026-04-29T18:10:54Z</time></trkpt><trkpt lat="43.960821602721495" lon="2.170039132569697"><ele>169.0</ele><time>2026-04-29T18:10:55Z</time></trkpt><trkpt lat="43.960900620174755" lon="2.170289503726108"><ele>169.0</ele><time>2026-04-29T18:10:56Z</time></trkpt><trkpt lat="43.96097179581459" lon="2.170522492977598"><ele>169.0</ele><time>2026-04-29T18:10:57Z</time></trkpt><trkpt lat="43.96103383036498" lon="2.170746640012021"><ele>168.33333333333334</ele><time>2026-04-29T18:10:58Z</time></trkpt><trkpt lat="43.961095322022395" lon="2.1709721846275096"><ele>167.66666666666666</ele><time>2026-04-29T18:10:59Z</time></trkpt><trkpt lat="43.961153816614626" lon="2.171198742000681"><ele>167.0</ele><time>2026-04-29T18:11:00Z</time></trkpt><trkpt lat="43.961216612471034" lon="2.1714181289720154"><ele>167.66666666666666</ele><time>2026-04-29T18:11:01Z</time></trkpt><trkpt lat="43.96127691783302" lon="2.1716390542622888"><ele>168.33333333333334</ele><time>2026-04-29T18:11:02Z</time></trkpt><trkpt lat="43.96133677937666" lon="2.171861685479024"><ele>169.0</ele><time>2026-04-29T18:11:03Z</time></trkpt><trkpt lat="43.96139715909161" lon="2.1720876231878425"><ele>169.0</ele><time>2026-04-29T18:11:04Z</time></trkpt><trkpt lat="43.96146010187512" lon="2.172311777998397"><ele>169.0</ele><time>2026-04-29T18:11:05Z</time></trkpt><trkpt lat="43.961524817900404" lon="2.1725428176768418"><ele>169.0</ele><time>2026-04-29T18:11:06Z</time></trkpt><trkpt lat="43.961587049935524" lon="2.172774487339548"><ele>169.33333333333334</ele><time>2026-04-29T18:11:07Z</time></trkpt><trkpt lat="43.96164916114488" lon="2.173009402537296"><ele>169.66666666666666</ele><time>2026-04-29T18:11:08Z</time></trkpt><trkpt lat="43.96171366142565" lon="2.1732458764387084"><ele>170.0</ele><time>2026-04-29T18:11:09Z</time></trkpt><trkpt lat="43.96177568633368" lon="2.1734891086133503"><ele>169.33333333333331</ele><time>2026-04-29T18:11:10Z</time></trkpt><trkpt lat="43.96183266239363" lon="2.173739369518722"><ele>168.66666666666666</ele><time>2026-04-29T18:11:11Z</time></trkpt><trkpt lat="43.96188431538087" lon="2.1739960548134127"><ele>168.0</ele><time>2026-04-29T18:11:12Z</time></trkpt><trkpt lat="43.96192779403733" lon="2.1742601829508836"><ele>167.33333333333334</ele><time>2026-04-29T18:11:13Z</time></trkpt><trkpt lat="43.96195904968939" lon="2.174536051721102"><ele>166.66666666666669</ele><time>2026-04-29T18:11:14Z</time></trkpt><trkpt lat="43.96197649732031" lon="2.174817457126288"><ele>166.0</ele><time>2026-04-29T18:11:15Z</time></trkpt><trkpt lat="43.961981363251574" lon="2.1751042981791584"><ele>165.66666666666669</ele><time>2026-04-29T18:11:16Z</time></trkpt><trkpt lat="43.96197652822903" lon="2.175394618806992"><ele>165.33333333333334</ele><time>2026-04-29T18:11:17Z</time></trkpt><trkpt lat="43.96195883927218" lon="2.1756848328191194"><ele>165.0</ele><time>2026-04-29T18:11:18Z</time></trkpt><trkpt lat="43.961931464685144" lon="2.1759751415590802"><ele>165.0</ele><time>2026-04-29T18:11:19Z</time></trkpt><trkpt lat="43.961910216176896" lon="2.1762617694298747"><ele>165.0</ele><time>2026-04-29T18:11:20Z</time></trkpt><trkpt lat="43.96184823728993" lon="2.176540388412006"><ele>165.0</ele><time>2026-04-29T18:11:21Z</time></trkpt><trkpt lat="43.96180199090602" lon="2.1768103033587187"><ele>167.0</ele><time>2026-04-29T18:11:22Z</time></trkpt><trkpt lat="43.96175617885699" lon="2.1770718024062985"><ele>169.0</ele><time>2026-04-29T18:11:23Z</time></trkpt><trkpt lat="43.96171301626888" lon="2.17732342646707"><ele>171.0</ele><time>2026-04-29T18:11:24Z</time></trkpt><trkpt lat="43.96166809009976" lon="2.177568331361576"><ele>171.33333333333334</ele><time>2026-04-29T18:11:25Z</time></trkpt><trkpt lat="43.96162198465894" lon="2.1778101525577123"><ele>171.66666666666669</ele><time>2026-04-29T18:11:26Z</time></trkpt><trkpt lat="43.96157323574814" lon="2.178053427461773"><ele>172.0</ele><time>2026-04-29T18:11:27Z</time></trkpt><trkpt lat="43.961522263214995" lon="2.178311780027862"><ele>172.33333333333334</ele><time>2026-04-29T18:11:28Z</time></trkpt><trkpt lat="43.96148433184808" lon="2.1785828101342064"><ele>172.66666666666666</ele><time>2026-04-29T18:11:29Z</time></trkpt><trkpt lat="43.96146154670543" lon="2.178860918796059"><ele>173.0</ele><time>2026-04-29T18:11:30Z</time></trkpt><trkpt lat="43.961454362885256" lon="2.1791590978853295"><ele>173.0</ele><time>2026-04-29T18:11:31Z</time></trkpt><trkpt lat="43.96145976996352" lon="2.179472465403767"><ele>173.0</ele><time>2026-04-29T18:11:32Z</time></trkpt><trkpt lat="43.96148324569126" lon="2.179801876808221"><ele>173.5</ele><time>2026-04-29T18:11:33Z</time></trkpt><trkpt lat="43.96152133199353" lon="2.1801354830158677"><ele>174.0</ele><time>2026-04-29T18:11:34Z</time></trkpt><trkpt lat="43.96159583509271" lon="2.180481862568825"><ele>174.0</ele><time>2026-04-29T18:11:35Z</time></trkpt><trkpt lat="43.96169401055025" lon="2.180812774984959"><ele>174.0</ele><time>2026-04-29T18:11:36Z</time></trkpt><trkpt lat="43.96181546187899" lon="2.181119703218562"><ele>174.5</ele><time>2026-04-29T18:11:37Z</time></trkpt><trkpt lat="43.96195377596341" lon="2.181413961402035"><ele>175.0</ele><time>2026-04-29T18:11:38Z</time></trkpt><trkpt lat="43.96210328199914" lon="2.1816788327219663"><ele>176.0</ele><time>2026-04-29T18:11:39Z</time></trkpt><trkpt lat="43.96225186763476" lon="2.181897676325589"><ele>177.0</ele><time>2026-04-29T18:11:40Z</time></trkpt><trkpt lat="43.962393399611216" lon="2.1820902947898007"><ele>178.0</ele><time>2026-04-29T18:11:41Z</time></trkpt><trkpt lat="43.96253526620041" lon="2.1822573755523034"><ele>178.66666666666669</ele><time>2026-04-29T18:11:42Z</time></trkpt><trkpt lat="43.96267495646259" lon="2.1824020015365555"><ele>179.33333333333334</ele><time>2026-04-29T18:11:43Z</time></trkpt><trkpt lat="43.96281102566563" lon="2.1825259645103285"><ele>180.0</ele><time>2026-04-29T18:11:44Z</time></trkpt><trkpt lat="43.962946257092675" lon="2.182633671596199"><ele>180.0</ele><time>2026-04-29T18:11:45Z</time></trkpt><trkpt lat="43.96307923614075" lon="2.1827227437776933"><ele>180.0</ele><time>2026-04-29T18:11:46Z</time></trkpt><trkpt lat="43.96321713421291" lon="2.182798700956687"><ele>180.0</ele><time>2026-04-29T18:11:47Z</time></trkpt><trkpt lat="43.96335343527387" lon="2.1828600454311706"><ele>180.0</ele><time>2026-04-29T18:11:48Z</time></trkpt><trkpt lat="43.963480414676475" lon="2.1829039195663396"><ele>180.75</ele><time>2026-04-29T18:11:49Z</time></trkpt><trkpt lat="43.963608140410315" lon="2.182935294720174"><ele>181.5</ele><time>2026-04-29T18:11:50Z</time></trkpt><trkpt lat="43.9637298545141" lon="2.1829561341726382"><ele>182.25</ele><time>2026-04-29T18:11:51Z</time></trkpt><trkpt lat="43.963844446587025" lon="2.1829737799505122"><ele>183.0</ele><time>2026-04-29T18:11:52Z</time></trkpt><trkpt lat="43.96394897584193" lon="2.182992055909974"><ele>183.0</ele><time>2026-04-29T18:11:53Z</time></trkpt><trkpt lat="43.964040733020724" lon="2.183010232538892"><ele>183.0</ele><time>2026-04-29T18:11:54Z</time></trkpt><trkpt lat="43.96412102591963" lon="2.1830291291107544"><ele>183.0</ele><time>2026-04-29T18:11:55Z</time></trkpt><trkpt lat="43.964192072846096" lon="2.1830689836501627"><ele>183.0</ele><time>2026-04-29T18:11:56Z</time></trkpt><trkpt lat="43.964252813921135" lon="2.183153230445623"><ele>183.0</ele><time>2026-04-29T18:11:57Z</time></trkpt><trkpt lat="43.96430344534208" lon="2.1832577035264498"><ele>183.0</ele><time>2026-04-29T18:11:58Z</time></trkpt><trkpt lat="43.964367983997796" lon="2.183355556341557"><ele>183.5</ele><time>2026-04-29T18:11:59Z</time></trkpt><trkpt lat="43.964454129517975" lon="2.18343928608029"><ele>184.0</ele><time>2026-04-29T18:12:00Z</time></trkpt><trkpt lat="43.9645343967296" lon="2.183541197267128"><ele>184.5</ele><time>2026-04-29T18:12:01Z</time></trkpt><trkpt lat="43.96458587744934" lon="2.18368286845572"><ele>185.0</ele><time>2026-04-29T18:12:02Z</time></trkpt><trkpt lat="43.96462188596214" lon="2.1838466040107924"><ele>185.66666666666666</ele><time>2026-04-29T18:12:03Z</time></trkpt><trkpt lat="43.96466518671054" lon="2.1840337427132095"><ele>186.33333333333334</ele><time>2026-04-29T18:12:04Z</time></trkpt><trkpt lat="43.964717481920836" lon="2.184239732434635"><ele>187.0</ele><time>2026-04-29T18:12:05Z</time></trkpt><trkpt lat="43.96477400615142" lon="2.1844491263493526"><ele>187.0</ele><time>2026-04-29T18:12:06Z</time></trkpt><trkpt lat="43.96483442632246" lon="2.184665318565344"><ele>187.0</ele><time>2026-04-29T18:12:07Z</time></trkpt><trkpt lat="43.96489380816652" lon="2.1848793942497085"><ele>187.0</ele><time>2026-04-29T18:12:08Z</time></trkpt><trkpt lat="43.96495400094448" lon="2.1850843308533276"><ele>187.5</ele><time>2026-04-29T18:12:09Z</time></trkpt><trkpt lat="43.965011097745005" lon="2.185284490512923"><ele>188.0</ele><time>2026-04-29T18:12:10Z</time></trkpt><trkpt lat="43.96505745879632" lon="2.185465003145304"><ele>188.5</ele><time>2026-04-29T18:12:11Z</time></trkpt><trkpt lat="43.96510150696869" lon="2.185645059854294"><ele>189.0</ele><time>2026-04-29T18:12:12Z</time></trkpt><trkpt lat="43.96514300160671" lon="2.1858281086061613"><ele>191.25</ele><time>2026-04-29T18:12:13Z</time></trkpt><trkpt lat="43.9651798883121" lon="2.1860153446740305"><ele>193.5</ele><time>2026-04-29T18:12:14Z</time></trkpt><trkpt lat="43.96520457792039" lon="2.1862108680300514"><ele>195.75</ele><time>2026-04-29T18:12:15Z</time></trkpt><trkpt lat="43.96522160438158" lon="2.186422949711699"><ele>198.0</ele><time>2026-04-29T18:12:16Z</time></trkpt><trkpt lat="43.96523497089001" lon="2.1866426750659578"><ele>199.66666666666669</ele><time>2026-04-29T18:12:17Z</time></trkpt><trkpt lat="43.96523790351881" lon="2.1868694596741975"><ele>201.33333333333334</ele><time>2026-04-29T18:12:18Z</time></trkpt><trkpt lat="43.96522585435945" lon="2.187107987091776"><ele>203.0</ele><time>2026-04-29T18:12:19Z</time></trkpt><trkpt lat="43.9651972482976" lon="2.1873503480643173"><ele>204.0</ele><time>2026-04-29T18:12:20Z</time></trkpt><trkpt lat="43.965168847079084" lon="2.187602688551814"><ele>205.0</ele><time>2026-04-29T18:12:21Z</time></trkpt><trkpt lat="43.965138796739865" lon="2.1878630811689326"><ele>206.0</ele><time>2026-04-29T18:12:22Z</time></trkpt><trkpt lat="43.96510332966614" lon="2.1881403649548985"><ele>205.33333333333334</ele><time>2026-04-29T18:12:23Z</time></trkpt><trkpt lat="43.96506453629954" lon="2.1884248226184755"><ele>204.66666666666669</ele><time>2026-04-29T18:12:24Z</time></trkpt><trkpt lat="43.96502221281118" lon="2.1887170109390843"><ele>204.0</ele><time>2026-04-29T18:12:25Z</time></trkpt><trkpt lat="43.964980609687714" lon="2.1890206717250287"><ele>204.0</ele><time>2026-04-29T18:12:26Z</time></trkpt><trkpt lat="43.964940375542824" lon="2.1893257117031477"><ele>204.0</ele><time>2026-04-29T18:12:27Z</time></trkpt><trkpt lat="43.964901008164986" lon="2.189632662486089"><ele>204.0</ele><time>2026-04-29T18:12:28Z</time></trkpt><trkpt lat="43.964855327296505" lon="2.1899440337216105"><ele>206.0</ele><time>2026-04-29T18:12:29Z</time></trkpt><trkpt lat="43.964812368875805" lon="2.1902598984345936"><ele>208.0</ele><time>2026-04-29T18:12:30Z</time></trkpt><trkpt lat="43.964770625582666" lon="2.1905732297666005"><ele>210.5</ele><time>2026-04-29T18:12:31Z</time></trkpt><trkpt lat="43.964727727187935" lon="2.1908852929862235"><ele>213.0</ele><time>2026-04-29T18:12:32Z</time></trkpt><trkpt lat="43.96468788789114" lon="2.1911949947031033"><ele>213.0</ele><time>2026-04-29T18:12:33Z</time></trkpt><trkpt lat="43.964647517538566" lon="2.1914988687845134"><ele>213.0</ele><time>2026-04-29T18:12:34Z</time></trkpt><trkpt lat="43.96460566916158" lon="2.1918054085324816"><ele>213.0</ele><time>2026-04-29T18:12:35Z</time></trkpt><trkpt lat="43.96456128822162" lon="2.1921079585638847"><ele>217.33333333333331</ele><time>2026-04-29T18:12:36Z</time></trkpt><trkpt lat="43.96452012761765" lon="2.192408930750225"><ele>221.66666666666666</ele><time>2026-04-29T18:12:37Z</time></trkpt><trkpt lat="43.96447630429342" lon="2.1927082230888244"><ele>226.0</ele><time>2026-04-29T18:12:38Z</time></trkpt><trkpt lat="43.96443668221996" lon="2.193007502405359"><ele>227.0</ele><time>2026-04-29T18:12:39Z</time></trkpt><trkpt lat="43.9644014966926" lon="2.193303590396642"><ele>228.0</ele><time>2026-04-29T18:12:40Z</time></trkpt><trkpt lat="43.96436701722851" lon="2.1935940526897046"><ele>229.0</ele><time>2026-04-29T18:12:41Z</time></trkpt><trkpt lat="43.964333143951215" lon="2.1938728290206413"><ele>233.0</ele><time>2026-04-29T18:12:42Z</time></trkpt><trkpt lat="43.96430189461662" lon="2.194135684484345"><ele>237.0</ele><time>2026-04-29T18:12:43Z</time></trkpt><trkpt lat="43.96428122492625" lon="2.1943848482291957"><ele>241.0</ele><time>2026-04-29T18:12:44Z</time></trkpt><trkpt lat="43.96428867251202" lon="2.1946104928729033"><ele>241.0</ele><time>2026-04-29T18:12:45Z</time></trkpt><trkpt lat="43.96433587420065" lon="2.194820730853372"><ele>241.0</ele><time>2026-04-29T18:12:46Z</time></trkpt><trkpt lat="43.96441708478421" lon="2.195018726302556"><ele>241.0</ele><time>2026-04-29T18:12:47Z</time></trkpt><trkpt lat="43.964512626063865" lon="2.1952103831341674"><ele>241.66666666666666</ele><time>2026-04-29T18:12:48Z</time></trkpt><trkpt lat="43.96459316260929" lon="2.1954114067330117"><ele>242.33333333333331</ele><time>2026-04-29T18:12:49Z</time></trkpt><trkpt lat="43.96463663684291" lon="2.1956213387182246"><ele>243.0</ele><time>2026-04-29T18:12:50Z</time></trkpt><trkpt lat="43.96463609653813" lon="2.195838637179506"><ele>243.0</ele><time>2026-04-29T18:12:51Z</time></trkpt><trkpt lat="43.964577712191435" lon="2.196040111945494"><ele>243.0</ele><time>2026-04-29T18:12:52Z</time></trkpt><trkpt lat="43.96454125831041" lon="2.196250196149088"><ele>243.0</ele><time>2026-04-29T18:12:53Z</time></trkpt><trkpt lat="43.96449943598966" lon="2.1964557012258332"><ele>243.25</ele><time>2026-04-29T18:12:54Z</time></trkpt><trkpt lat="43.964497498771976" lon="2.1966638321341048"><ele>243.5</ele><time>2026-04-29T18:12:55Z</time></trkpt><trkpt lat="43.96452815994228" lon="2.196867675419267"><ele>243.75</ele><time>2026-04-29T18:12:56Z</time></trkpt><trkpt lat="43.96459479782389" lon="2.197050681613388"><ele>244.0</ele><time>2026-04-29T18:12:57Z</time></trkpt><trkpt lat="43.96468990799459" lon="2.1972070860201987"><ele>244.0</ele><time>2026-04-29T18:12:58Z</time></trkpt><trkpt lat="43.96480755635205" lon="2.1973174657525116"><ele>244.0</ele><time>2026-04-29T18:12:59Z</time></trkpt><trkpt lat="43.96494701289293" lon="2.197385688066119"><ele>244.0</ele><time>2026-04-29T18:13:00Z</time></trkpt><trkpt lat="43.96509901426556" lon="2.1973972656960403"><ele>244.0</ele><time>2026-04-29T18:13:01Z</time></trkpt><trkpt lat="43.96524975318151" lon="2.197356097156562"><ele>246.0</ele><time>2026-04-29T18:13:02Z</time></trkpt><trkpt lat="43.96539269160324" lon="2.1972648506515196"><ele>248.0</ele><time>2026-04-29T18:13:03Z</time></trkpt><trkpt lat="43.96552116345716" lon="2.1971313313078946"><ele>250.0</ele><time>2026-04-29T18:13:04Z</time></trkpt><trkpt lat="43.9656438002286" lon="2.1969894594548163"><ele>250.0</ele><time>2026-04-29T18:13:05Z</time></trkpt><trkpt lat="43.96577737856653" lon="2.1968527611476416"><ele>250.0</ele><time>2026-04-29T18:13:06Z</time></trkpt><trkpt lat="43.96592244983574" lon="2.196758707733067"><ele>250.0</ele><time>2026-04-29T18:13:07Z</time></trkpt><trkpt lat="43.96606693288775" lon="2.196704020881878"><ele>252.0</ele><time>2026-04-29T18:13:08Z</time></trkpt><trkpt lat="43.966218280824584" lon="2.1966926526511013"><ele>254.0</ele><time>2026-04-29T18:13:09Z</time></trkpt><trkpt lat="43.96637279352622" lon="2.1967088531594325"><ele>256.0</ele><time>2026-04-29T18:13:10Z</time></trkpt><trkpt lat="43.96651404570244" lon="2.1967990270470388"><ele>256.0</ele><time>2026-04-29T18:13:11Z</time></trkpt><trkpt lat="43.96663331227109" lon="2.196934317586207"><ele>256.0</ele><time>2026-04-29T18:13:12Z</time></trkpt><trkpt lat="43.96672243487149" lon="2.1971074415563967"><ele>256.0</ele><time>2026-04-29T18:13:13Z</time></trkpt><trkpt lat="43.96678693102318" lon="2.1973046856430845"><ele>256.66666666666663</ele><time>2026-04-29T18:13:14Z</time></trkpt><trkpt lat="43.96680245202777" lon="2.1975305210644387"><ele>257.3333333333333</ele><time>2026-04-29T18:13:15Z</time></trkpt><trkpt lat="43.96680547388895" lon="2.1977689550922666"><ele>258.0</ele><time>2026-04-29T18:13:16Z</time></trkpt><trkpt lat="43.96681542229583" lon="2.198026847559571"><ele>260.3333333333333</ele><time>2026-04-29T18:13:17Z</time></trkpt><trkpt lat="43.966806243499775" lon="2.198298862507191"><ele>262.66666666666663</ele><time>2026-04-29T18:13:18Z</time></trkpt><trkpt lat="43.96681391987192" lon="2.198576329128836"><ele>265.0</ele><time>2026-04-29T18:13:19Z</time></trkpt><trkpt lat="43.96685860260531" lon="2.1988385667480106"><ele>266.3333333333333</ele><time>2026-04-29T18:13:20Z</time></trkpt><trkpt lat="43.96693866291731" lon="2.199056544932936"><ele>267.6666666666667</ele><time>2026-04-29T18:13:21Z</time></trkpt><trkpt lat="43.96704773054738" lon="2.1992486181402073"><ele>269.0</ele><time>2026-04-29T18:13:22Z</time></trkpt><trkpt lat="43.96718370179793" lon="2.199416610362698"><ele>269.0</ele><time>2026-04-29T18:13:23Z</time></trkpt><trkpt lat="43.96734016874026" lon="2.1995483339022512"><ele>269.0</ele><time>2026-04-29T18:13:24Z</time></trkpt><trkpt lat="43.96750982801169" lon="2.199662142569591"><ele>269.0</ele><time>2026-04-29T18:13:25Z</time></trkpt><trkpt lat="43.967683046090094" lon="2.1997722653924816"><ele>269.33333333333337</ele><time>2026-04-29T18:13:26Z</time></trkpt><trkpt lat="43.96785407758477" lon="2.199899929721321"><ele>269.6666666666667</ele><time>2026-04-29T18:13:27Z</time></trkpt><trkpt lat="43.96800860595494" lon="2.200062294284989"><ele>270.0</ele><time>2026-04-29T18:13:28Z</time></trkpt><trkpt lat="43.96816478423321" lon="2.2002178995651436"><ele>270.0</ele><time>2026-04-29T18:13:29Z</time></trkpt><trkpt lat="43.96833001735964" lon="2.2003553427163167"><ele>270.0</ele><time>2026-04-29T18:13:30Z</time></trkpt><trkpt lat="43.96848525097017" lon="2.2005129000501036"><ele>270.0</ele><time>2026-04-29T18:13:31Z</time></trkpt><trkpt lat="43.9686424592136" lon="2.2006656127390825"><ele>271.0</ele><time>2026-04-29T18:13:32Z</time></trkpt><trkpt lat="43.968803570758396" lon="2.2008147688762345"><ele>272.0</ele><time>2026-04-29T18:13:33Z</time></trkpt><trkpt lat="43.96894921346182" lon="2.200986095415641"><ele>273.0</ele><time>2026-04-29T18:13:34Z</time></trkpt><trkpt lat="43.96908343049905" lon="2.2011309781359665"><ele>275.0</ele><time>2026-04-29T18:13:35Z</time></trkpt><trkpt lat="43.969199628939556" lon="2.201271893250177"><ele>277.0</ele><time>2026-04-29T18:13:36Z</time></trkpt><trkpt lat="43.96931313057353" lon="2.2014176634689915"><ele>279.0</ele><time>2026-04-29T18:13:37Z</time></trkpt><trkpt lat="43.96941891920424" lon="2.2015704867419488"><ele>279.6666666666667</ele><time>2026-04-29T18:13:38Z</time></trkpt><trkpt lat="43.96952377737293" lon="2.201730941045283"><ele>280.33333333333337</ele><time>2026-04-29T18:13:39Z</time></trkpt><trkpt lat="43.969569508679875" lon="2.2019386446142364"><ele>281.0</ele><time>2026-04-29T18:13:40Z</time></trkpt><trkpt lat="43.96959013436573" lon="2.202153040332991"><ele>281.33333333333337</ele><time>2026-04-29T18:13:41Z</time></trkpt><trkpt lat="43.96959542781787" lon="2.202385119771795"><ele>281.6666666666667</ele><time>2026-04-29T18:13:42Z</time></trkpt><trkpt lat="43.96960173689591" lon="2.2026366030168756"><ele>282.0</ele><time>2026-04-29T18:13:43Z</time></trkpt><trkpt lat="43.96962461826414" lon="2.202904306844853"><ele>281.6666666666667</ele><time>2026-04-29T18:13:44Z</time></trkpt><trkpt lat="43.9696287760801" lon="2.2031875599737005"><ele>281.33333333333337</ele><time>2026-04-29T18:13:45Z</time></trkpt><trkpt lat="43.96963210683951" lon="2.203476049293717"><ele>281.0</ele><time>2026-04-29T18:13:46Z</time></trkpt><trkpt lat="43.969631759791234" lon="2.203771290157056"><ele>279.6666666666667</ele><time>2026-04-29T18:13:47Z</time></trkpt><trkpt lat="43.96962214966924" lon="2.2040623611777432"><ele>278.3333333333333</ele><time>2026-04-29T18:13:48Z</time></trkpt><trkpt lat="43.96959608779154" lon="2.2043412295245215"><ele>277.0</ele><time>2026-04-29T18:13:49Z</time></trkpt><trkpt lat="43.96956469625845" lon="2.2046020152412815"><ele>277.3333333333333</ele><time>2026-04-29T18:13:50Z</time></trkpt><trkpt lat="43.969549500534534" lon="2.204851937211443"><ele>277.6666666666667</ele><time>2026-04-29T18:13:51Z</time></trkpt><trkpt lat="43.96955906602436" lon="2.2050992944283543"><ele>278.0</ele><time>2026-04-29T18:13:52Z</time></trkpt><trkpt lat="43.9695930617136" lon="2.2053333497166774"><ele>278.0</ele><time>2026-04-29T18:13:53Z</time></trkpt><trkpt lat="43.96965786548244" lon="2.2055493487284896"><ele>278.0</ele><time>2026-04-29T18:13:54Z</time></trkpt><trkpt lat="43.969747627517926" lon="2.2057533914826393"><ele>278.0</ele><time>2026-04-29T18:13:55Z</time></trkpt><trkpt lat="43.96984177997466" lon="2.2059677217944818"><ele>279.0</ele><time>2026-04-29T18:13:56Z</time></trkpt><trkpt lat="43.969934771273394" lon="2.2062015110348163"><ele>280.0</ele><time>2026-04-29T18:13:57Z</time></trkpt><trkpt lat="43.970030980549865" lon="2.206452261554126"><ele>281.0</ele><time>2026-04-29T18:13:58Z</time></trkpt><trkpt lat="43.97013423501776" lon="2.2067131449890165"><ele>284.0</ele><time>2026-04-29T18:13:59Z</time></trkpt><trkpt lat="43.97024030269452" lon="2.2069857787979306"><ele>287.0</ele><time>2026-04-29T18:14:00Z</time></trkpt><trkpt lat="43.97035453123531" lon="2.2072600406595613"><ele>287.0</ele><time>2026-04-29T18:14:01Z</time></trkpt><trkpt lat="43.9704701037905" lon="2.2075408111710435"><ele>287.0</ele><time>2026-04-29T18:14:02Z</time></trkpt><trkpt lat="43.97058677872483" lon="2.2078249862892214"><ele>287.0</ele><time>2026-04-29T18:14:03Z</time></trkpt><trkpt lat="43.97070507893351" lon="2.208110555225293"><ele>287.0</ele><time>2026-04-29T18:14:04Z</time></trkpt><trkpt lat="43.970822626125944" lon="2.2084006883737604"><ele>290.0</ele><time>2026-04-29T18:14:05Z</time></trkpt><trkpt lat="43.97093751488728" lon="2.2086892699758587"><ele>293.0</ele><time>2026-04-29T18:14:06Z</time></trkpt><trkpt lat="43.971053673740904" lon="2.208976492220422"><ele>293.5</ele><time>2026-04-29T18:14:07Z</time></trkpt><trkpt lat="43.971168256978984" lon="2.2092613902244045"><ele>294.0</ele><time>2026-04-29T18:14:08Z</time></trkpt><trkpt lat="43.97127358035827" lon="2.209532157534033"><ele>294.0</ele><time>2026-04-29T18:14:09Z</time></trkpt><trkpt lat="43.97136288359229" lon="2.2097886838881617"><ele>294.0</ele><time>2026-04-29T18:14:10Z</time></trkpt><trkpt lat="43.971435694128324" lon="2.2100626632711466"><ele>294.0</ele><time>2026-04-29T18:14:11Z</time></trkpt><trkpt lat="43.971487940859376" lon="2.210352383899247"><ele>293.6666666666667</ele><time>2026-04-29T18:14:12Z</time></trkpt><trkpt lat="43.97152636657593" lon="2.210649274014905"><ele>293.33333333333337</ele><time>2026-04-29T18:14:13Z</time></trkpt><trkpt lat="43.97156991403371" lon="2.2109485630287042"><ele>293.0</ele><time>2026-04-29T18:14:14Z</time></trkpt><trkpt lat="43.9716136160453" lon="2.211247329132903"><ele>292.33333333333337</ele><time>2026-04-29T18:14:15Z</time></trkpt><trkpt lat="43.97165470862984" lon="2.2115504900564877"><ele>291.6666666666667</ele><time>2026-04-29T18:14:16Z</time></trkpt><trkpt lat="43.97169298448289" lon="2.2118545097870075"><ele>291.0</ele><time>2026-04-29T18:14:17Z</time></trkpt><trkpt lat="43.97173515692601" lon="2.2121592311123632"><ele>289.3333333333333</ele><time>2026-04-29T18:14:18Z</time></trkpt><trkpt lat="43.97177513419917" lon="2.2124635309175074"><ele>287.66666666666663</ele><time>2026-04-29T18:14:19Z</time></trkpt><trkpt lat="43.971810539762416" lon="2.212749405993822"><ele>286.0</ele><time>2026-04-29T18:14:20Z</time></trkpt><trkpt lat="43.9718500271349" lon="2.2130159382331853"><ele>287.0</ele><time>2026-04-29T18:14:21Z</time></trkpt><trkpt lat="43.971887684473494" lon="2.213264925298419"><ele>288.0</ele><time>2026-04-29T18:14:22Z</time></trkpt><trkpt lat="43.97194537436637" lon="2.2134988779095224"><ele>289.0</ele><time>2026-04-29T18:14:23Z</time></trkpt><trkpt lat="43.972031469510085" lon="2.2137039280668964"><ele>289.0</ele><time>2026-04-29T18:14:24Z</time></trkpt><trkpt lat="43.97214821250687" lon="2.213878546890767"><ele>289.0</ele><time>2026-04-29T18:14:25Z</time></trkpt><trkpt lat="43.972280011773236" lon="2.2140460292940496"><ele>289.0</ele><time>2026-04-29T18:14:26Z</time></trkpt><trkpt lat="43.97241932691753" lon="2.2142141105163655"><ele>290.0</ele><time>2026-04-29T18:14:27Z</time></trkpt><trkpt lat="43.972564152652055" lon="2.214380199717324"><ele>291.0</ele><time>2026-04-29T18:14:28Z</time></trkpt><trkpt lat="43.97271086125899" lon="2.214539615581908"><ele>292.0</ele><time>2026-04-29T18:14:29Z</time></trkpt><trkpt lat="43.972859011620685" lon="2.214673298627828"><ele>292.0</ele><time>2026-04-29T18:14:30Z</time></trkpt><trkpt lat="43.973020930262365" lon="2.2147634099108515"><ele>292.0</ele><time>2026-04-29T18:14:31Z</time></trkpt><trkpt lat="43.97319369020299" lon="2.2148039669910515"><ele>292.0</ele><time>2026-04-29T18:14:32Z</time></trkpt><trkpt lat="43.97336928192505" lon="2.2147908491810324"><ele>293.66666666666663</ele><time>2026-04-29T18:14:33Z</time></trkpt><trkpt lat="43.973542362962746" lon="2.2147298507360746"><ele>295.3333333333333</ele><time>2026-04-29T18:14:34Z</time></trkpt><trkpt lat="43.973710246648736" lon="2.2146306091427093"><ele>297.0</ele><time>2026-04-29T18:14:35Z</time></trkpt><trkpt lat="43.97387285698882" lon="2.2145056313284357"><ele>297.0</ele><time>2026-04-29T18:14:36Z</time></trkpt><trkpt lat="43.97403059604911" lon="2.2143933933451057"><ele>297.0</ele><time>2026-04-29T18:14:37Z</time></trkpt><trkpt lat="43.974191586499025" lon="2.2143095184820085"><ele>297.0</ele><time>2026-04-29T18:14:38Z</time></trkpt><trkpt lat="43.97436090361508" lon="2.2142748634997935"><ele>296.0</ele><time>2026-04-29T18:14:39Z</time></trkpt><trkpt lat="43.97452662520877" lon="2.214296194272599"><ele>295.0</ele><time>2026-04-29T18:14:40Z</time></trkpt><trkpt lat="43.97467132860963" lon="2.2143982203924013"><ele>294.0</ele><time>2026-04-29T18:14:41Z</time></trkpt><trkpt lat="43.97482270134284" lon="2.214477388152157"><ele>294.0</ele><time>2026-04-29T18:14:42Z</time></trkpt><trkpt lat="43.974974911923425" lon="2.2145905309360017"><ele>294.0</ele><time>2026-04-29T18:14:43Z</time></trkpt><trkpt lat="43.97514253390656" lon="2.214706636198535"><ele>294.0</ele><time>2026-04-29T18:14:44Z</time></trkpt><trkpt lat="43.97532114936967" lon="2.2148281327393073"><ele>294.3333333333333</ele><time>2026-04-29T18:14:45Z</time></trkpt><trkpt lat="43.97551367186329" lon="2.214955363719191"><ele>294.66666666666663</ele><time>2026-04-29T18:14:46Z</time></trkpt><trkpt lat="43.97571321116186" lon="2.2150888465813945"><ele>295.0</ele><time>2026-04-29T18:14:47Z</time></trkpt><trkpt lat="43.97592229703281" lon="2.2152223585753"><ele>295.0</ele><time>2026-04-29T18:14:48Z</time></trkpt><trkpt lat="43.9761337305158" lon="2.2153589094087143"><ele>295.0</ele><time>2026-04-29T18:14:49Z</time></trkpt><trkpt lat="43.97635036701097" lon="2.2155011243894602"><ele>295.0</ele><time>2026-04-29T18:14:50Z</time></trkpt><trkpt lat="43.9765691199862" lon="2.215650096842926"><ele>295.0</ele><time>2026-04-29T18:14:51Z</time></trkpt><trkpt lat="43.97679359942889" lon="2.21579804687037"><ele>295.5</ele><time>2026-04-29T18:14:52Z</time></trkpt><trkpt lat="43.977022610992236" lon="2.2159468013314316"><ele>296.0</ele><time>2026-04-29T18:14:53Z</time></trkpt><trkpt lat="43.977246393905176" lon="2.2160904647642"><ele>296.0</ele><time>2026-04-29T18:14:54Z</time></trkpt><trkpt lat="43.977465503234534" lon="2.2162346559299704"><ele>296.0</ele><time>2026-04-29T18:14:55Z</time></trkpt><trkpt lat="43.97767987778736" lon="2.216374535711284"><ele>297.5</ele><time>2026-04-29T18:14:56Z</time></trkpt><trkpt lat="43.97788843514042" lon="2.2165153146814673"><ele>299.0</ele><time>2026-04-29T18:14:57Z</time></trkpt><trkpt lat="43.978088967738465" lon="2.2166477497919947"><ele>299.0</ele><time>2026-04-29T18:14:58Z</time></trkpt><trkpt lat="43.97827080575619" lon="2.216767043031849"><ele>299.0</ele><time>2026-04-29T18:14:59Z</time></trkpt><trkpt lat="43.97843727169209" lon="2.216894118311342"><ele>299.0</ele><time>2026-04-29T18:15:00Z</time></trkpt><trkpt lat="43.978581768428086" lon="2.2170571869691194"><ele>299.33333333333337</ele><time>2026-04-29T18:15:01Z</time></trkpt><trkpt lat="43.97870114437709" lon="2.2172484224172195"><ele>299.6666666666667</ele><time>2026-04-29T18:15:02Z</time></trkpt><trkpt lat="43.97880758885812" lon="2.217462663966518"><ele>300.0</ele><time>2026-04-29T18:15:03Z</time></trkpt><trkpt lat="43.97891379476127" lon="2.2176885696157043"><ele>300.0</ele><time>2026-04-29T18:15:04Z</time></trkpt><trkpt lat="43.97902202259983" lon="2.217921756351148"><ele>300.0</ele><time>2026-04-29T18:15:05Z</time></trkpt><trkpt lat="43.979137128498685" lon="2.218153324862164"><ele>300.0</ele><time>2026-04-29T18:15:06Z</time></trkpt><trkpt lat="43.979254973570114" lon="2.2183889071938134"><ele>298.6666666666667</ele><time>2026-04-29T18:15:07Z</time></trkpt><trkpt lat="43.97937402141002" lon="2.2186314264695435"><ele>297.33333333333337</ele><time>2026-04-29T18:15:08Z</time></trkpt><trkpt lat="43.97949648010421" lon="2.218875847079044"><ele>296.0</ele><time>2026-04-29T18:15:09Z</time></trkpt><trkpt lat="43.97962119927048" lon="2.2191252262175243"><ele>296.0</ele><time>2026-04-29T18:15:10Z</time></trkpt><trkpt lat="43.979745768032885" lon="2.2193754679471502"><ele>296.0</ele><time>2026-04-29T18:15:11Z</time></trkpt><trkpt lat="43.97987374323545" lon="2.219626321553209"><ele>296.0</ele><time>2026-04-29T18:15:12Z</time></trkpt><trkpt lat="43.97999966547916" lon="2.219881209857967"><ele>295.33333333333337</ele><time>2026-04-29T18:15:13Z</time></trkpt><trkpt lat="43.98012168651338" lon="2.2201354201239045"><ele>294.6666666666667</ele><time>2026-04-29T18:15:14Z</time></trkpt><trkpt lat="43.98024605755447" lon="2.220385477211442"><ele>294.0</ele><time>2026-04-29T18:15:15Z</time></trkpt><trkpt lat="43.980351867498186" lon="2.2206350361413643"><ele>296.0</ele><time>2026-04-29T18:15:16Z</time></trkpt><trkpt lat="43.98042415159576" lon="2.220893331263611"><ele>298.0</ele><time>2026-04-29T18:15:17Z</time></trkpt><trkpt lat="43.980484897307804" lon="2.2211635196933104"><ele>300.0</ele><time>2026-04-29T18:15:18Z</time></trkpt><trkpt lat="43.98054259391118" lon="2.2214348312487138"><ele>302.6666666666667</ele><time>2026-04-29T18:15:19Z</time></trkpt><trkpt lat="43.980600073539016" lon="2.22170753427779"><ele>305.33333333333337</ele><time>2026-04-29T18:15:20Z</time></trkpt><trkpt lat="43.980658315513764" lon="2.2219760814896823"><ele>308.0</ele><time>2026-04-29T18:15:21Z</time></trkpt><trkpt lat="43.98071277186491" lon="2.2222400875406394"><ele>309.33333333333337</ele><time>2026-04-29T18:15:22Z</time></trkpt><trkpt lat="43.98078048534688" lon="2.222495633112065"><ele>310.6666666666667</ele><time>2026-04-29T18:15:23Z</time></trkpt><trkpt lat="43.98086657978308" lon="2.2227435236777353"><ele>312.0</ele><time>2026-04-29T18:15:24Z</time></trkpt><trkpt lat="43.98097114591467" lon="2.222980013290676"><ele>312.0</ele><time>2026-04-29T18:15:25Z</time></trkpt><trkpt lat="43.981091173576694" lon="2.223205720031066"><ele>312.0</ele><time>2026-04-29T18:15:26Z</time></trkpt><trkpt lat="43.98122193303744" lon="2.2234218742730376"><ele>312.0</ele><time>2026-04-29T18:15:27Z</time></trkpt><trkpt lat="43.981354919484424" lon="2.2236378575176015"><ele>312.0</ele><time>2026-04-29T18:15:28Z</time></trkpt><trkpt lat="43.98148232842094" lon="2.2238573917391964"><ele>312.0</ele><time>2026-04-29T18:15:29Z</time></trkpt><trkpt lat="43.98160457814577" lon="2.224082699160827"><ele>312.0</ele><time>2026-04-29T18:15:30Z</time></trkpt><trkpt lat="43.981708758851305" lon="2.224315915563346"><ele>312.0</ele><time>2026-04-29T18:15:31Z</time></trkpt><trkpt lat="43.981794690168265" lon="2.224565457802429"><ele>312.0</ele><time>2026-04-29T18:15:32Z</time></trkpt><trkpt lat="43.98185842476591" lon="2.224826038157808"><ele>312.0</ele><time>2026-04-29T18:15:33Z</time></trkpt><trkpt lat="43.981897900357794" lon="2.225095323789756"><ele>312.0</ele><time>2026-04-29T18:15:34Z</time></trkpt><trkpt lat="43.981906152604125" lon="2.2253700313277753"><ele>312.0</ele><time>2026-04-29T18:15:35Z</time></trkpt><trkpt lat="43.98189290981569" lon="2.2256484615452305"><ele>312.0</ele><time>2026-04-29T18:15:36Z</time></trkpt><trkpt lat="43.98185612589448" lon="2.2259299176212406"><ele>312.6666666666667</ele><time>2026-04-29T18:15:37Z</time></trkpt><trkpt lat="43.98180255394003" lon="2.22620819254596"><ele>313.33333333333337</ele><time>2026-04-29T18:15:38Z</time></trkpt><trkpt lat="43.98174672868277" lon="2.2264934216016004"><ele>314.0</ele><time>2026-04-29T18:15:39Z</time></trkpt><trkpt lat="43.98169110293028" lon="2.2267824367285987"><ele>314.33333333333337</ele><time>2026-04-29T18:15:40Z</time></trkpt><trkpt lat="43.98163541046278" lon="2.227072854200569"><ele>314.6666666666667</ele><time>2026-04-29T18:15:41Z</time></trkpt><trkpt lat="43.98158166754073" lon="2.2273665464832275"><ele>315.0</ele><time>2026-04-29T18:15:42Z</time></trkpt><trkpt lat="43.981526889019854" lon="2.2276607295130115"><ele>315.0</ele><time>2026-04-29T18:15:43Z</time></trkpt><trkpt lat="43.98147444187554" lon="2.227960474458329"><ele>315.0</ele><time>2026-04-29T18:15:44Z</time></trkpt><trkpt lat="43.98141924961676" lon="2.228254316397498"><ele>315.0</ele><time>2026-04-29T18:15:45Z</time></trkpt><trkpt lat="43.98136189847032" lon="2.2285468575988743"><ele>315.0</ele><time>2026-04-29T18:15:46Z</time></trkpt><trkpt lat="43.98129993396544" lon="2.2288401749972837"><ele>315.0</ele><time>2026-04-29T18:15:47Z</time></trkpt><trkpt lat="43.981237938497635" lon="2.229126596176793"><ele>315.0</ele><time>2026-04-29T18:15:48Z</time></trkpt><trkpt lat="43.98117575618437" lon="2.2294095267648397"><ele>315.0</ele><time>2026-04-29T18:15:49Z</time></trkpt><trkpt lat="43.98111472722419" lon="2.2296892464791873"><ele>315.0</ele><time>2026-04-29T18:15:50Z</time></trkpt><trkpt lat="43.98105206423878" lon="2.2299642786901708"><ele>315.0</ele><time>2026-04-29T18:15:51Z</time></trkpt><trkpt lat="43.98099056096217" lon="2.230235342906255"><ele>314.3333333333333</ele><time>2026-04-29T18:15:52Z</time></trkpt><trkpt lat="43.98092578861234" lon="2.2305017548411508"><ele>313.66666666666663</ele><time>2026-04-29T18:15:53Z</time></trkpt><trkpt lat="43.980863701253625" lon="2.230759142175539"><ele>313.0</ele><time>2026-04-29T18:15:54Z</time></trkpt><trkpt lat="43.980807379309844" lon="2.2310008533096375"><ele>313.0</ele><time>2026-04-29T18:15:55Z</time></trkpt><trkpt lat="43.98075383182425" lon="2.2312330088367265"><ele>313.0</ele><time>2026-04-29T18:15:56Z</time></trkpt><trkpt lat="43.98070958172606" lon="2.2314555881199527"><ele>313.0</ele><time>2026-04-29T18:15:57Z</time></trkpt><trkpt lat="43.9806815009559" lon="2.231672060308088"><ele>312.66666666666663</ele><time>2026-04-29T18:15:58Z</time></trkpt><trkpt lat="43.980676702554895" lon="2.2318774469540137"><ele>312.3333333333333</ele><time>2026-04-29T18:15:59Z</time></trkpt><trkpt lat="43.98070309087257" lon="2.232079882670987"><ele>312.0</ele><time>2026-04-29T18:16:00Z</time></trkpt><trkpt lat="43.980765193719435" lon="2.232275474733473"><ele>309.0</ele><time>2026-04-29T18:16:01Z</time></trkpt><trkpt lat="43.9808567133357" lon="2.2324541319718016"><ele>306.0</ele><time>2026-04-29T18:16:02Z</time></trkpt><trkpt lat="43.980958942789556" lon="2.2326345973090613"><ele>303.0</ele><time>2026-04-29T18:16:03Z</time></trkpt><trkpt lat="43.98107838529405" lon="2.2328252927178918"><ele>303.0</ele><time>2026-04-29T18:16:04Z</time></trkpt><trkpt lat="43.98120639691455" lon="2.2330333795062263"><ele>303.0</ele><time>2026-04-29T18:16:05Z</time></trkpt><trkpt lat="43.98133949277871" lon="2.233258717887151"><ele>303.0</ele><time>2026-04-29T18:16:06Z</time></trkpt><trkpt lat="43.98147782831664" lon="2.2334958669357596"><ele>305.5</ele><time>2026-04-29T18:16:07Z</time></trkpt><trkpt lat="43.98162323214992" lon="2.2337403512557352"><ele>308.0</ele><time>2026-04-29T18:16:08Z</time></trkpt><trkpt lat="43.981773201426265" lon="2.2339898110131062"><ele>308.0</ele><time>2026-04-29T18:16:09Z</time></trkpt><trkpt lat="43.98192432779278" lon="2.234240986405088"><ele>308.0</ele><time>2026-04-29T18:16:10Z</time></trkpt><trkpt lat="43.982075038653264" lon="2.234494623981829"><ele>308.0</ele><time>2026-04-29T18:16:11Z</time></trkpt><trkpt lat="43.982227034972155" lon="2.2347504178575415"><ele>308.0</ele><time>2026-04-29T18:16:12Z</time></trkpt><trkpt lat="43.98237839702274" lon="2.2350029578352557"><ele>307.0</ele><time>2026-04-29T18:16:13Z</time></trkpt><trkpt lat="43.98253032170252" lon="2.2352531649282112"><ele>306.0</ele><time>2026-04-29T18:16:14Z</time></trkpt><trkpt lat="43.98268166594706" lon="2.235500674151536"><ele>309.5</ele><time>2026-04-29T18:16:15Z</time></trkpt><trkpt lat="43.982828818175385" lon="2.2357517424692275"><ele>313.0</ele><time>2026-04-29T18:16:16Z</time></trkpt><trkpt lat="43.98297302644824" lon="2.23600099159213"><ele>313.0</ele><time>2026-04-29T18:16:17Z</time></trkpt><trkpt lat="43.98311567405077" lon="2.2362466866381845"><ele>313.0</ele><time>2026-04-29T18:16:18Z</time></trkpt><trkpt lat="43.98325727525602" lon="2.2364878341224337"><ele>315.0</ele><time>2026-04-29T18:16:19Z</time></trkpt><trkpt lat="43.983400375212454" lon="2.2367213600584086"><ele>317.0</ele><time>2026-04-29T18:16:20Z</time></trkpt><trkpt lat="43.983543520631756" lon="2.2369551077421868"><ele>319.0</ele><time>2026-04-29T18:16:21Z</time></trkpt><trkpt lat="43.98368291545344" lon="2.23718304951412"><ele>319.0</ele><time>2026-04-29T18:16:22Z</time></trkpt><trkpt lat="43.983806929228344" lon="2.237430580711069"><ele>319.0</ele><time>2026-04-29T18:16:23Z</time></trkpt><trkpt lat="43.98395242644803" lon="2.237649218844944"><ele>319.0</ele><time>2026-04-29T18:16:24Z</time></trkpt><trkpt lat="43.98408550015072" lon="2.2378855478525206"><ele>317.0</ele><time>2026-04-29T18:16:25Z</time></trkpt><trkpt lat="43.98421957039373" lon="2.238121587980397"><ele>315.0</ele><time>2026-04-29T18:16:26Z</time></trkpt><trkpt lat="43.984353293726926" lon="2.2383582581268953"><ele>313.0</ele><time>2026-04-29T18:16:27Z</time></trkpt><trkpt lat="43.98448950794714" lon="2.2385917201607413"><ele>313.0</ele><time>2026-04-29T18:16:28Z</time></trkpt><trkpt lat="43.98462367547224" lon="2.2388255332956186"><ele>313.0</ele><time>2026-04-29T18:16:29Z</time></trkpt><trkpt lat="43.98475755217522" lon="2.239058680775743"><ele>313.0</ele><time>2026-04-29T18:16:30Z</time></trkpt><trkpt lat="43.984888922015095" lon="2.239290123901729"><ele>313.66666666666663</ele><time>2026-04-29T18:16:31Z</time></trkpt><trkpt lat="43.985020592472395" lon="2.239515676889993"><ele>314.3333333333333</ele><time>2026-04-29T18:16:32Z</time></trkpt><trkpt lat="43.985148174350925" lon="2.23973763399809"><ele>315.0</ele><time>2026-04-29T18:16:33Z</time></trkpt><trkpt lat="43.98527289010562" lon="2.2399532284126686"><ele>315.0</ele><time>2026-04-29T18:16:34Z</time></trkpt><trkpt lat="43.98538518801011" lon="2.2401493166154247"><ele>315.0</ele><time>2026-04-29T18:16:35Z</time></trkpt><trkpt lat="43.98548789089729" lon="2.240332277579656"><ele>315.0</ele><time>2026-04-29T18:16:36Z</time></trkpt><trkpt lat="43.98556660584959" lon="2.240516186507436"><ele>316.75</ele><time>2026-04-29T18:16:37Z</time></trkpt><trkpt lat="43.98564301951" lon="2.240678141615579"><ele>318.5</ele><time>2026-04-29T18:16:38Z</time></trkpt><trkpt lat="43.98570196161297" lon="2.2408321722269067"><ele>320.25</ele><time>2026-04-29T18:16:39Z</time></trkpt><trkpt lat="43.98575187157821" lon="2.2409791349969317"><ele>322.0</ele><time>2026-04-29T18:16:40Z</time></trkpt><trkpt lat="43.98580940640805" lon="2.241135368794752"><ele>322.25</ele><time>2026-04-29T18:16:41Z</time></trkpt><trkpt lat="43.98584924661026" lon="2.241313618139891"><ele>322.5</ele><time>2026-04-29T18:16:42Z</time></trkpt><trkpt lat="43.98588932286675" lon="2.241507200824248"><ele>322.75</ele><time>2026-04-29T18:16:43Z</time></trkpt><trkpt lat="43.9859333251276" lon="2.241714536543593"><ele>323.0</ele><time>2026-04-29T18:16:44Z</time></trkpt><trkpt lat="43.9859756719351" lon="2.241928112539332"><ele>324.0</ele><time>2026-04-29T18:16:45Z</time></trkpt><trkpt lat="43.98601896256464" lon="2.24215578774469"><ele>325.0</ele><time>2026-04-29T18:16:46Z</time></trkpt><trkpt lat="43.98607001882483" lon="2.2423851743573593"><ele>326.0</ele><time>2026-04-29T18:16:47Z</time></trkpt><trkpt lat="43.9861357632606" lon="2.2425934795993268"><ele>326.0</ele><time>2026-04-29T18:16:48Z</time></trkpt><trkpt lat="43.98622648521049" lon="2.242781335028507"><ele>326.0</ele><time>2026-04-29T18:16:49Z</time></trkpt><trkpt lat="43.986337643029735" lon="2.2429466551263473"><ele>326.0</ele><time>2026-04-29T18:16:50Z</time></trkpt><trkpt lat="43.986471105882885" lon="2.243113520553707"><ele>325.33333333333337</ele><time>2026-04-29T18:16:51Z</time></trkpt><trkpt lat="43.986632047618166" lon="2.243298792680479"><ele>324.6666666666667</ele><time>2026-04-29T18:16:52Z</time></trkpt><trkpt lat="43.98680904989202" lon="2.2435046236762313"><ele>324.0</ele><time>2026-04-29T18:16:53Z</time></trkpt><trkpt lat="43.98699129373288" lon="2.2437237696129526"><ele>324.0</ele><time>2026-04-29T18:16:54Z</time></trkpt><trkpt lat="43.98719103470953" lon="2.2439587982697606"><ele>324.0</ele><time>2026-04-29T18:16:55Z</time></trkpt><trkpt lat="43.987398096574246" lon="2.244205344636412"><ele>324.0</ele><time>2026-04-29T18:16:56Z</time></trkpt><trkpt lat="43.987605701116685" lon="2.244459096033926"><ele>324.0</ele><time>2026-04-29T18:16:57Z</time></trkpt><trkpt lat="43.98781765497187" lon="2.2447138222755907"><ele>326.0</ele><time>2026-04-29T18:16:58Z</time></trkpt><trkpt lat="43.988030976577285" lon="2.2449687098464626"><ele>328.0</ele><time>2026-04-29T18:16:59Z</time></trkpt><trkpt lat="43.98824323287206" lon="2.245218590574743"><ele>327.5</ele><time>2026-04-29T18:17:00Z</time></trkpt><trkpt lat="43.98843266064137" lon="2.245439127956964"><ele>327.0</ele><time>2026-04-29T18:17:01Z</time></trkpt><trkpt lat="43.98860364936659" lon="2.2456399596235013"><ele>329.0</ele><time>2026-04-29T18:17:02Z</time></trkpt><trkpt lat="43.98875701413798" lon="2.2458315458894305"><ele>331.0</ele><time>2026-04-29T18:17:03Z</time></trkpt><trkpt lat="43.988894984078414" lon="2.2460099103775653"><ele>333.0</ele><time>2026-04-29T18:17:04Z</time></trkpt><trkpt lat="43.989024099088084" lon="2.2461866281544323"><ele>333.0</ele><time>2026-04-29T18:17:05Z</time></trkpt><trkpt lat="43.98913870342793" lon="2.2463800067190394"><ele>333.0</ele><time>2026-04-29T18:17:06Z</time></trkpt><trkpt lat="43.989229664256904" lon="2.2465982202203323"><ele>333.0</ele><time>2026-04-29T18:17:07Z</time></trkpt><trkpt lat="43.98929956451304" lon="2.2468336935354567"><ele>332.3333333333333</ele><time>2026-04-29T18:17:08Z</time></trkpt><trkpt lat="43.9893409247597" lon="2.2471004325781063"><ele>331.66666666666663</ele><time>2026-04-29T18:17:09Z</time></trkpt><trkpt lat="43.98937654359691" lon="2.2473808946914584"><ele>331.0</ele><time>2026-04-29T18:17:10Z</time></trkpt><trkpt lat="43.989407316449274" lon="2.2476738165113894"><ele>331.0</ele><time>2026-04-29T18:17:11Z</time></trkpt><trkpt lat="43.989435321212355" lon="2.247974062482707"><ele>331.0</ele><time>2026-04-29T18:17:12Z</time></trkpt><trkpt lat="43.98946609834565" lon="2.248283455100974"><ele>331.0</ele><time>2026-04-29T18:17:13Z</time></trkpt><trkpt lat="43.98949715971123" lon="2.248601244426915"><ele>333.0</ele><time>2026-04-29T18:17:14Z</time></trkpt><trkpt lat="43.98953169474273" lon="2.248924830621352"><ele>335.0</ele><time>2026-04-29T18:17:15Z</time></trkpt><trkpt lat="43.98956644740831" lon="2.2492520180811626"><ele>335.5</ele><time>2026-04-29T18:17:16Z</time></trkpt><trkpt lat="43.98959969579957" lon="2.249582737762704"><ele>336.0</ele><time>2026-04-29T18:17:17Z</time></trkpt><trkpt lat="43.989634138006146" lon="2.249914537282927"><ele>336.5</ele><time>2026-04-29T18:17:18Z</time></trkpt><trkpt lat="43.98967154838688" lon="2.2502469209486327"><ele>337.0</ele><time>2026-04-29T18:17:19Z</time></trkpt><trkpt lat="43.98971128060619" lon="2.2505777733105226"><ele>338.5</ele><time>2026-04-29T18:17:20Z</time></trkpt><trkpt lat="43.98974642979061" lon="2.2509002607813677"><ele>340.0</ele><time>2026-04-29T18:17:21Z</time></trkpt><trkpt lat="43.98978294692427" lon="2.251211009830575"><ele>341.0</ele><time>2026-04-29T18:17:22Z</time></trkpt><trkpt lat="43.989813621093454" lon="2.2514961767015254"><ele>342.0</ele><time>2026-04-29T18:17:23Z</time></trkpt><trkpt lat="43.9898411805524" lon="2.2517660483062474"><ele>343.0</ele><time>2026-04-29T18:17:24Z</time></trkpt><trkpt lat="43.989867445032296" lon="2.252029295374707"><ele>343.0</ele><time>2026-04-29T18:17:25Z</time></trkpt><trkpt lat="43.98989475974072" lon="2.252283668619338"><ele>343.0</ele><time>2026-04-29T18:17:26Z</time></trkpt><trkpt lat="43.98989826972098" lon="2.252530740107108"><ele>343.0</ele><time>2026-04-29T18:17:27Z</time></trkpt><trkpt lat="43.98986371694852" lon="2.2527669112013893"><ele>343.66666666666663</ele><time>2026-04-29T18:17:28Z</time></trkpt><trkpt lat="43.98978928053151" lon="2.252995257843216"><ele>344.3333333333333</ele><time>2026-04-29T18:17:29Z</time></trkpt><trkpt lat="43.989690401280114" lon="2.2532169363809453"><ele>345.0</ele><time>2026-04-29T18:17:30Z</time></trkpt><trkpt lat="43.98957931980534" lon="2.253436726676596"><ele>345.0</ele><time>2026-04-29T18:17:31Z</time></trkpt><trkpt lat="43.98946050202287" lon="2.2536590282781854"><ele>345.0</ele><time>2026-04-29T18:17:32Z</time></trkpt><trkpt lat="43.98934169690937" lon="2.253887681059641"><ele>345.0</ele><time>2026-04-29T18:17:33Z</time></trkpt><trkpt lat="43.989221184930614" lon="2.2541219373119508"><ele>346.3333333333333</ele><time>2026-04-29T18:17:34Z</time></trkpt><trkpt lat="43.98909999935953" lon="2.2543645107316603"><ele>347.66666666666663</ele><time>2026-04-29T18:17:35Z</time></trkpt><trkpt lat="43.988976153238774" lon="2.254610505411075"><ele>349.0</ele><time>2026-04-29T18:17:36Z</time></trkpt><trkpt lat="43.9888473726178" lon="2.2548593748656254"><ele>349.3333333333333</ele><time>2026-04-29T18:17:37Z</time></trkpt><trkpt lat="43.9887203974821" lon="2.2551084924973575"><ele>349.6666666666667</ele><time>2026-04-29T18:17:38Z</time></trkpt><trkpt lat="43.988596089235045" lon="2.255361730179"><ele>350.0</ele><time>2026-04-29T18:17:39Z</time></trkpt><trkpt lat="43.98846733884199" lon="2.2556186808398624"><ele>351.5</ele><time>2026-04-29T18:17:40Z</time></trkpt><trkpt lat="43.988336955589894" lon="2.255875396704173"><ele>353.0</ele><time>2026-04-29T18:17:41Z</time></trkpt><trkpt lat="43.988206476415556" lon="2.2561331385036825"><ele>353.0</ele><time>2026-04-29T18:17:42Z</time></trkpt><trkpt lat="43.988077122964945" lon="2.2563925228872774"><ele>353.0</ele><time>2026-04-29T18:17:43Z</time></trkpt><trkpt lat="43.98794823321996" lon="2.2566534759396912"><ele>351.0</ele><time>2026-04-29T18:17:44Z</time></trkpt><trkpt lat="43.98782018816986" lon="2.2569165486119456"><ele>349.0</ele><time>2026-04-29T18:17:45Z</time></trkpt><trkpt lat="43.987691684247416" lon="2.2571724827199624"><ele>349.3333333333333</ele><time>2026-04-29T18:17:46Z</time></trkpt><trkpt lat="43.987575056765436" lon="2.2574206710991365"><ele>349.6666666666667</ele><time>2026-04-29T18:17:47Z</time></trkpt><trkpt lat="43.987470270940115" lon="2.257661507585976"><ele>350.0</ele><time>2026-04-29T18:17:48Z</time></trkpt><trkpt lat="43.98738518185775" lon="2.2579142006277846"><ele>349.6666666666667</ele><time>2026-04-29T18:17:49Z</time></trkpt><trkpt lat="43.987323843184576" lon="2.2581808624799407"><ele>349.3333333333333</ele><time>2026-04-29T18:17:50Z</time></trkpt><trkpt lat="43.987287196301324" lon="2.258459206896415"><ele>349.0</ele><time>2026-04-29T18:17:51Z</time></trkpt><trkpt lat="43.987277376300966" lon="2.258742659411992"><ele>350.0</ele><time>2026-04-29T18:17:52Z</time></trkpt><trkpt lat="43.987293142424114" lon="2.2590268257407837"><ele>351.0</ele><time>2026-04-29T18:17:53Z</time></trkpt><trkpt lat="43.98732122975188" lon="2.259315590123576"><ele>352.0</ele><time>2026-04-29T18:17:54Z</time></trkpt><trkpt lat="43.98735284400264" lon="2.2596084461230768"><ele>352.3333333333333</ele><time>2026-04-29T18:17:55Z</time></trkpt><trkpt lat="43.98737896559117" lon="2.25990864218912"><ele>352.6666666666667</ele><time>2026-04-29T18:17:56Z</time></trkpt><trkpt lat="43.98740206289568" lon="2.2602091505806663"><ele>353.0</ele><time>2026-04-29T18:17:57Z</time></trkpt><trkpt lat="43.98742939705366" lon="2.2605125266586006"><ele>354.0</ele><time>2026-04-29T18:17:58Z</time></trkpt><trkpt lat="43.98745905171203" lon="2.2608197632544655"><ele>355.0</ele><time>2026-04-29T18:17:59Z</time></trkpt><trkpt lat="43.98748855486149" lon="2.2611253753903076"><ele>356.0</ele><time>2026-04-29T18:18:00Z</time></trkpt><trkpt lat="43.98751343851747" lon="2.261405155305209"><ele>354.33333333333337</ele><time>2026-04-29T18:18:01Z</time></trkpt><trkpt lat="43.98753266846132" lon="2.2616682252721145"><ele>352.6666666666667</ele><time>2026-04-29T18:18:02Z</time></trkpt><trkpt lat="43.9875431356746" lon="2.261919365613029"><ele>351.0</ele><time>2026-04-29T18:18:03Z</time></trkpt><trkpt lat="43.98753765796428" lon="2.2621644936985605"><ele>351.0</ele><time>2026-04-29T18:18:04Z</time></trkpt><trkpt lat="43.987513326991134" lon="2.2624001118464987"><ele>351.0</ele><time>2026-04-29T18:18:05Z</time></trkpt><trkpt lat="43.98747811351233" lon="2.2626344581273377"><ele>351.0</ele><time>2026-04-29T18:18:06Z</time></trkpt><trkpt lat="43.98743899840259" lon="2.262866208677248"><ele>353.6666666666667</ele><time>2026-04-29T18:18:07Z</time></trkpt><trkpt lat="43.9873997622094" lon="2.2631025117523347"><ele>356.33333333333337</ele><time>2026-04-29T18:18:08Z</time></trkpt><trkpt lat="43.98736169258928" lon="2.263341662351781"><ele>359.0</ele><time>2026-04-29T18:18:09Z</time></trkpt><trkpt lat="43.98732328940188" lon="2.2635812306709266"><ele>359.0</ele><time>2026-04-29T18:18:10Z</time></trkpt><trkpt lat="43.98729038758052" lon="2.2638169605093155"><ele>359.0</ele><time>2026-04-29T18:18:11Z</time></trkpt><trkpt lat="43.98726245927763" lon="2.264036498294056"><ele>359.0</ele><time>2026-04-29T18:18:12Z</time></trkpt><trkpt lat="43.987245645689576" lon="2.26424349119562"><ele>359.5</ele><time>2026-04-29T18:18:13Z</time></trkpt><trkpt lat="43.987233665365984" lon="2.2644341320658383"><ele>360.0</ele><time>2026-04-29T18:18:14Z</time></trkpt><trkpt lat="43.98723499006806" lon="2.2646248289204"><ele>360.5</ele><time>2026-04-29T18:18:15Z</time></trkpt><trkpt lat="43.9872630244609" lon="2.264819866575779"><ele>361.0</ele><time>2026-04-29T18:18:16Z</time></trkpt><trkpt lat="43.98732557003052" lon="2.265007059037836"><ele>361.66666666666663</ele><time>2026-04-29T18:18:17Z</time></trkpt><trkpt lat="43.98742483155129" lon="2.2651740698746283"><ele>362.3333333333333</ele><time>2026-04-29T18:18:18Z</time></trkpt><trkpt lat="43.98753876023163" lon="2.265342776267077"><ele>363.0</ele><time>2026-04-29T18:18:19Z</time></trkpt><trkpt lat="43.98767850428003" lon="2.2655014876179522"><ele>363.6666666666667</ele><time>2026-04-29T18:18:20Z</time></trkpt><trkpt lat="43.987831741815825" lon="2.265673879827522"><ele>364.33333333333337</ele><time>2026-04-29T18:18:21Z</time></trkpt><trkpt lat="43.987995340696436" lon="2.2658570175644908"><ele>365.0</ele><time>2026-04-29T18:18:22Z</time></trkpt><trkpt lat="43.98816473728697" lon="2.266048217391458"><ele>365.5</ele><time>2026-04-29T18:18:23Z</time></trkpt><trkpt lat="43.98834395386585" lon="2.2662547369736394"><ele>366.0</ele><time>2026-04-29T18:18:24Z</time></trkpt><trkpt lat="43.98852427407537" lon="2.2664598487359493"><ele>365.0</ele><time>2026-04-29T18:18:25Z</time></trkpt><trkpt lat="43.988712087925414" lon="2.266672653909731"><ele>364.0</ele><time>2026-04-29T18:18:26Z</time></trkpt><trkpt lat="43.98890529367507" lon="2.2668890630097014"><ele>364.0</ele><time>2026-04-29T18:18:27Z</time></trkpt><trkpt lat="43.98909700992151" lon="2.267104413869782"><ele>364.0</ele><time>2026-04-29T18:18:28Z</time></trkpt><trkpt lat="43.989289433116895" lon="2.2673233321848993"><ele>363.5</ele><time>2026-04-29T18:18:29Z</time></trkpt><trkpt lat="43.98947945225471" lon="2.2675371929422985"><ele>363.0</ele><time>2026-04-29T18:18:30Z</time></trkpt><trkpt lat="43.98965475446736" lon="2.2677350036991943"><ele>363.0</ele><time>2026-04-29T18:18:31Z</time></trkpt><trkpt lat="43.98981474538848" lon="2.267918444967122"><ele>363.0</ele><time>2026-04-29T18:18:32Z</time></trkpt><trkpt lat="43.98997124753709" lon="2.2680956756621535"><ele>363.0</ele><time>2026-04-29T18:18:33Z</time></trkpt><trkpt lat="43.99012314191439" lon="2.268266767651449"><ele>362.3333333333333</ele><time>2026-04-29T18:18:34Z</time></trkpt><trkpt lat="43.99027283903928" lon="2.2684360901366425"><ele>361.66666666666663</ele><time>2026-04-29T18:18:35Z</time></trkpt><trkpt lat="43.99041934392891" lon="2.2686028405110776"><ele>361.0</ele><time>2026-04-29T18:18:36Z</time></trkpt><trkpt lat="43.990555247191345" lon="2.268755376879884"><ele>361.0</ele><time>2026-04-29T18:18:37Z</time></trkpt><trkpt lat="43.990688712513744" lon="2.2688997183161512"><ele>361.0</ele><time>2026-04-29T18:18:38Z</time></trkpt><trkpt lat="43.990829077524026" lon="2.269034484856499"><ele>361.0</ele><time>2026-04-29T18:18:39Z</time></trkpt><trkpt lat="43.99097848930161" lon="2.2691452351364774"><ele>361.66666666666663</ele><time>2026-04-29T18:18:40Z</time></trkpt><trkpt lat="43.991137545858074" lon="2.269232777554785"><ele>362.3333333333333</ele><time>2026-04-29T18:18:41Z</time></trkpt><trkpt lat="43.991312249495685" lon="2.269278208629746"><ele>363.0</ele><time>2026-04-29T18:18:42Z</time></trkpt><trkpt lat="43.991489430667194" lon="2.269323716013812"><ele>363.6666666666667</ele><time>2026-04-29T18:18:43Z</time></trkpt><trkpt lat="43.99167468531588" lon="2.2693477635503396"><ele>364.33333333333337</ele><time>2026-04-29T18:18:44Z</time></trkpt><trkpt lat="43.991863352497326" lon="2.2693581443123274"><ele>365.0</ele><time>2026-04-29T18:18:45Z</time></trkpt><trkpt lat="43.992055110205634" lon="2.269363836105867"><ele>365.0</ele><time>2026-04-29T18:18:46Z</time></trkpt><trkpt lat="43.9922511532654" lon="2.2693691136317207"><ele>365.0</ele><time>2026-04-29T18:18:47Z</time></trkpt><trkpt lat="43.992447937455466" lon="2.2693720510732196"><ele>365.0</ele><time>2026-04-29T18:18:48Z</time></trkpt><trkpt lat="43.99264448712057" lon="2.2694014511293346"><ele>367.6666666666667</ele><time>2026-04-29T18:18:49Z</time></trkpt><trkpt lat="43.992843033833644" lon="2.269387214335608"><ele>370.3333333333333</ele><time>2026-04-29T18:18:50Z</time></trkpt><trkpt lat="43.99304310000049" lon="2.2693955130543806"><ele>373.0</ele><time>2026-04-29T18:18:51Z</time></trkpt><trkpt lat="43.99324520077956" lon="2.269404142209068"><ele>373.3333333333333</ele><time>2026-04-29T18:18:52Z</time></trkpt><trkpt lat="43.99344765730842" lon="2.2694174512997463"><ele>373.6666666666667</ele><time>2026-04-29T18:18:53Z</time></trkpt><trkpt lat="43.993646245615444" lon="2.2694453933710927"><ele>374.0</ele><time>2026-04-29T18:18:54Z</time></trkpt><trkpt lat="43.993842617135265" lon="2.2694935191431984"><ele>374.0</ele><time>2026-04-29T18:18:55Z</time></trkpt><trkpt lat="43.994035541357476" lon="2.269559749621725"><ele>374.0</ele><time>2026-04-29T18:18:56Z</time></trkpt><trkpt lat="43.99422820093565" lon="2.269630899011139"><ele>374.0</ele><time>2026-04-29T18:18:57Z</time></trkpt><trkpt lat="43.99441610180462" lon="2.269718350581517"><ele>373.6666666666667</ele><time>2026-04-29T18:18:58Z</time></trkpt><trkpt lat="43.99460200055436" lon="2.2698183027981447"><ele>373.3333333333333</ele><time>2026-04-29T18:18:59Z</time></trkpt><trkpt lat="43.99478287714378" lon="2.269931508281835"><ele>373.0</ele><time>2026-04-29T18:19:00Z</time></trkpt><trkpt lat="43.99496091815029" lon="2.270054060838801"><ele>371.66666666666663</ele><time>2026-04-29T18:19:01Z</time></trkpt><trkpt lat="43.995139275153846" lon="2.2701804157990515"><ele>370.3333333333333</ele><time>2026-04-29T18:19:02Z</time></trkpt><trkpt lat="43.995317586993394" lon="2.2703097307631204"><ele>369.0</ele><time>2026-04-29T18:19:03Z</time></trkpt><trkpt lat="43.99548754742679" lon="2.2704454164264583"><ele>369.0</ele><time>2026-04-29T18:19:04Z</time></trkpt><trkpt lat="43.99565081175173" lon="2.2705973440115206"><ele>369.0</ele><time>2026-04-29T18:19:05Z</time></trkpt><trkpt lat="43.99580091112739" lon="2.2707641023024965"><ele>369.0</ele><time>2026-04-29T18:19:06Z</time></trkpt><trkpt lat="43.995947210665534" lon="2.2709437477825505"><ele>369.3333333333333</ele><time>2026-04-29T18:19:07Z</time></trkpt><trkpt lat="43.996091612133846" lon="2.2711265355649046"><ele>369.66666666666663</ele><time>2026-04-29T18:19:08Z</time></trkpt><trkpt lat="43.99623923655428" lon="2.271305500930777"><ele>370.0</ele><time>2026-04-29T18:19:09Z</time></trkpt><trkpt lat="43.99638509306478" lon="2.2714851567645087"><ele>371.0</ele><time>2026-04-29T18:19:10Z</time></trkpt><trkpt lat="43.99652257129109" lon="2.2716848713000486"><ele>372.0</ele><time>2026-04-29T18:19:11Z</time></trkpt><trkpt lat="43.996671242462234" lon="2.2718687469360477"><ele>373.0</ele><time>2026-04-29T18:19:12Z</time></trkpt><trkpt lat="43.99682377243304" lon="2.2720573950716294"><ele>373.0</ele><time>2026-04-29T18:19:13Z</time></trkpt><trkpt lat="43.99697773718781" lon="2.2722477175316422"><ele>373.0</ele><time>2026-04-29T18:19:14Z</time></trkpt><trkpt lat="43.9971366731135" lon="2.2724424776777234"><ele>373.0</ele><time>2026-04-29T18:19:15Z</time></trkpt><trkpt lat="43.997299289409455" lon="2.272621414140197"><ele>373.66666666666663</ele><time>2026-04-29T18:19:16Z</time></trkpt><trkpt lat="43.997454447372874" lon="2.2728160648646183"><ele>374.3333333333333</ele><time>2026-04-29T18:19:17Z</time></trkpt><trkpt lat="43.99761382535545" lon="2.273008459964335"><ele>375.0</ele><time>2026-04-29T18:19:18Z</time></trkpt><trkpt lat="43.99777076999975" lon="2.2731990259803885"><ele>375.0</ele><time>2026-04-29T18:19:19Z</time></trkpt><trkpt lat="43.997932009370366" lon="2.2733930229662285"><ele>375.0</ele><time>2026-04-29T18:19:20Z</time></trkpt><trkpt lat="43.99808039805409" lon="2.273605721250201"><ele>375.0</ele><time>2026-04-29T18:19:21Z</time></trkpt><trkpt lat="43.99824734048631" lon="2.2737823476008914"><ele>376.3333333333333</ele><time>2026-04-29T18:19:22Z</time></trkpt><trkpt lat="43.9984054505813" lon="2.2739803996807755"><ele>377.66666666666663</ele><time>2026-04-29T18:19:23Z</time></trkpt><trkpt lat="43.99856605320002" lon="2.27417404787988"><ele>379.0</ele><time>2026-04-29T18:19:24Z</time></trkpt><trkpt lat="43.998713504654454" lon="2.2743870128488095"><ele>379.0</ele><time>2026-04-29T18:19:25Z</time></trkpt><trkpt lat="43.99887113129323" lon="2.2745799672709426"><ele>379.0</ele><time>2026-04-29T18:19:26Z</time></trkpt><trkpt lat="43.99902836004412" lon="2.274767363225384"><ele>379.0</ele><time>2026-04-29T18:19:27Z</time></trkpt><trkpt lat="43.99920200910143" lon="2.2749215990253453"><ele>379.66666666666663</ele><time>2026-04-29T18:19:28Z</time></trkpt><trkpt lat="43.99936425397868" lon="2.275095125669586"><ele>380.3333333333333</ele><time>2026-04-29T18:19:29Z</time></trkpt><trkpt lat="43.99953985277942" lon="2.2751992041726563"><ele>381.0</ele><time>2026-04-29T18:19:30Z</time></trkpt><trkpt lat="43.99969344544972" lon="2.275304675904112"><ele>381.0</ele><time>2026-04-29T18:19:31Z</time></trkpt><trkpt lat="43.99984404125663" lon="2.275392924252912"><ele>381.0</ele><time>2026-04-29T18:19:32Z</time></trkpt><trkpt lat="43.99998771568116" lon="2.2755055768431913"><ele>381.0</ele><time>2026-04-29T18:19:33Z</time></trkpt><trkpt lat="44.000134181562686" lon="2.2755964141873757"><ele>382.33333333333337</ele><time>2026-04-29T18:19:34Z</time></trkpt><trkpt lat="44.0002812350929" lon="2.2756876160259174"><ele>383.6666666666667</ele><time>2026-04-29T18:19:35Z</time></trkpt><trkpt lat="44.00042709095624" lon="2.275778074447899"><ele>385.0</ele><time>2026-04-29T18:19:36Z</time></trkpt><trkpt lat="44.00057335984251" lon="2.2758683227621037"><ele>385.0</ele><time>2026-04-29T18:19:37Z</time></trkpt><trkpt lat="44.00072444392678" lon="2.2759617122097016"><ele>385.0</ele><time>2026-04-29T18:19:38Z</time></trkpt><trkpt lat="44.00088252674452" lon="2.276060019937426"><ele>385.0</ele><time>2026-04-29T18:19:39Z</time></trkpt><trkpt lat="44.001046401394426" lon="2.276162865232875"><ele>386.0</ele><time>2026-04-29T18:19:40Z</time></trkpt><trkpt lat="44.00121838014312" lon="2.2762709363035363"><ele>387.0</ele><time>2026-04-29T18:19:41Z</time></trkpt><trkpt lat="44.001402656775596" lon="2.276360601776337"><ele>388.0</ele><time>2026-04-29T18:19:42Z</time></trkpt><trkpt lat="44.001583105914975" lon="2.276474938062846"><ele>390.6666666666667</ele><time>2026-04-29T18:19:43Z</time></trkpt><trkpt lat="44.00176965658994" lon="2.2765896622535347"><ele>393.33333333333337</ele><time>2026-04-29T18:19:44Z</time></trkpt><trkpt lat="44.00194874264399" lon="2.276726843145851"><ele>396.0</ele><time>2026-04-29T18:19:45Z</time></trkpt><trkpt lat="44.00214003254005" lon="2.2768457304386147"><ele>396.0</ele><time>2026-04-29T18:19:46Z</time></trkpt><trkpt lat="44.00233954983232" lon="2.2769446891544876"><ele>396.0</ele><time>2026-04-29T18:19:47Z</time></trkpt><trkpt lat="44.002533576305005" lon="2.2770674925761814"><ele>396.0</ele><time>2026-04-29T18:19:48Z</time></trkpt><trkpt lat="44.00273100973131" lon="2.2771900707294783"><ele>397.5</ele><time>2026-04-29T18:19:49Z</time></trkpt><trkpt lat="44.00293619681732" lon="2.2773146438021263"><ele>399.0</ele><time>2026-04-29T18:19:50Z</time></trkpt><trkpt lat="44.00314350761859" lon="2.2774454897886205"><ele>401.0</ele><time>2026-04-29T18:19:51Z</time></trkpt><trkpt lat="44.0033549844777" lon="2.2775768694735015"><ele>403.0</ele><time>2026-04-29T18:19:52Z</time></trkpt><trkpt lat="44.00356699939861" lon="2.2777046786544664"><ele>403.0</ele><time>2026-04-29T18:19:53Z</time></trkpt><trkpt lat="44.00377987611983" lon="2.2778364205371435"><ele>403.0</ele><time>2026-04-29T18:19:54Z</time></trkpt><trkpt lat="44.00398878654841" lon="2.2779673864165173"><ele>407.0</ele><time>2026-04-29T18:19:55Z</time></trkpt><trkpt lat="44.00418980687872" lon="2.2781186544009353"><ele>411.0</ele><time>2026-04-29T18:19:56Z</time></trkpt><trkpt lat="44.004394110016996" lon="2.2782472897210972"><ele>411.0</ele><time>2026-04-29T18:19:57Z</time></trkpt><trkpt lat="44.00459969265445" lon="2.27837724065932"><ele>411.0</ele><time>2026-04-29T18:19:58Z</time></trkpt><trkpt lat="44.00480247796909" lon="2.2785060288221346"><ele>411.0</ele><time>2026-04-29T18:19:59Z</time></trkpt><trkpt lat="44.0050002439998" lon="2.278630504371018"><ele>412.0</ele><time>2026-04-29T18:20:00Z</time></trkpt><trkpt lat="44.0051946813143" lon="2.278749961477117"><ele>413.0</ele><time>2026-04-29T18:20:01Z</time></trkpt><trkpt lat="44.0053908012217" lon="2.278850039105828"><ele>414.0</ele><time>2026-04-29T18:20:02Z</time></trkpt><trkpt lat="44.005573591898546" lon="2.278977374995723"><ele>414.0</ele><time>2026-04-29T18:20:03Z</time></trkpt><trkpt lat="44.00575923695961" lon="2.279100527947801"><ele>414.0</ele><time>2026-04-29T18:20:04Z</time></trkpt><trkpt lat="44.00593975681417" lon="2.279233885533977"><ele>414.0</ele><time>2026-04-29T18:20:05Z</time></trkpt><trkpt lat="44.006118013379364" lon="2.279381542831651"><ele>414.66666666666663</ele><time>2026-04-29T18:20:06Z</time></trkpt><trkpt lat="44.006294282511256" lon="2.2795410174291595"><ele>415.3333333333333</ele><time>2026-04-29T18:20:07Z</time></trkpt><trkpt lat="44.006467039361695" lon="2.279702373471729"><ele>416.0</ele><time>2026-04-29T18:20:08Z</time></trkpt><trkpt lat="44.00662462580283" lon="2.279861535756923"><ele>415.3333333333333</ele><time>2026-04-29T18:20:09Z</time></trkpt><trkpt lat="44.00676249762071" lon="2.280042329758603"><ele>414.66666666666663</ele><time>2026-04-29T18:20:10Z</time></trkpt><trkpt lat="44.006896843724356" lon="2.2802152380267278"><ele>414.0</ele><time>2026-04-29T18:20:11Z</time></trkpt><trkpt lat="44.00700298571426" lon="2.2803921084184315"><ele>414.0</ele><time>2026-04-29T18:20:12Z</time></trkpt><trkpt lat="44.00709293365171" lon="2.280571178493253"><ele>414.0</ele><time>2026-04-29T18:20:13Z</time></trkpt><trkpt lat="44.00717970189476" lon="2.28076240810794"><ele>414.0</ele><time>2026-04-29T18:20:14Z</time></trkpt><trkpt lat="44.007271590221585" lon="2.280972216460113"><ele>412.66666666666663</ele><time>2026-04-29T18:20:15Z</time></trkpt><trkpt lat="44.00736814719566" lon="2.281194216174569"><ele>411.3333333333333</ele><time>2026-04-29T18:20:16Z</time></trkpt><trkpt lat="44.00746361326409" lon="2.2814293964368635"><ele>410.0</ele><time>2026-04-29T18:20:17Z</time></trkpt><trkpt lat="44.00755566128091" lon="2.2816831006623586"><ele>412.66666666666663</ele><time>2026-04-29T18:20:18Z</time></trkpt><trkpt lat="44.007644323362065" lon="2.281942904814749"><ele>415.33333333333337</ele><time>2026-04-29T18:20:19Z</time></trkpt><trkpt lat="44.007726859226594" lon="2.2821993869612136"><ele>418.0</ele><time>2026-04-29T18:20:20Z</time></trkpt><trkpt lat="44.007808449112254" lon="2.2824619690847996"><ele>418.0</ele><time>2026-04-29T18:20:21Z</time></trkpt><trkpt lat="44.00788862406317" lon="2.282726924616407"><ele>418.0</ele><time>2026-04-29T18:20:22Z</time></trkpt><trkpt lat="44.007985679010616" lon="2.282992253986293"><ele>418.0</ele><time>2026-04-29T18:20:23Z</time></trkpt><trkpt lat="44.00807441162247" lon="2.283278328766871"><ele>417.6666666666667</ele><time>2026-04-29T18:20:24Z</time></trkpt><trkpt lat="44.008162080877156" lon="2.2835612785693518"><ele>417.33333333333337</ele><time>2026-04-29T18:20:25Z</time></trkpt><trkpt lat="44.00825077699486" lon="2.283845260890207"><ele>417.0</ele><time>2026-04-29T18:20:26Z</time></trkpt><trkpt lat="44.008326467662016" lon="2.284137901059868"><ele>419.0</ele><time>2026-04-29T18:20:27Z</time></trkpt><trkpt lat="44.00842869312034" lon="2.28441058672901"><ele>421.0</ele><time>2026-04-29T18:20:28Z</time></trkpt><trkpt lat="44.00851445775868" lon="2.284690628175361"><ele>423.0</ele><time>2026-04-29T18:20:29Z</time></trkpt><trkpt lat="44.008599305776066" lon="2.284972857683547"><ele>423.66666666666663</ele><time>2026-04-29T18:20:30Z</time></trkpt><trkpt lat="44.00868408134209" lon="2.285256952476972"><ele>424.3333333333333</ele><time>2026-04-29T18:20:31Z</time></trkpt><trkpt lat="44.00877022909451" lon="2.2855398044254147"><ele>425.0</ele><time>2026-04-29T18:20:32Z</time></trkpt><trkpt lat="44.00885984044598" lon="2.285821996309371"><ele>425.66666666666663</ele><time>2026-04-29T18:20:33Z</time></trkpt><trkpt lat="44.008949710629544" lon="2.286105649837795"><ele>426.33333333333337</ele><time>2026-04-29T18:20:34Z</time></trkpt><trkpt lat="44.00903890111373" lon="2.286392612700956"><ele>427.0</ele><time>2026-04-29T18:20:35Z</time></trkpt><trkpt lat="44.00912931126076" lon="2.2866887583665987"><ele>429.5</ele><time>2026-04-29T18:20:36Z</time></trkpt><trkpt lat="44.00922007255432" lon="2.286985157220196"><ele>432.0</ele><time>2026-04-29T18:20:37Z</time></trkpt><trkpt lat="44.009308300673666" lon="2.2872676812332116"><ele>432.33333333333337</ele><time>2026-04-29T18:20:38Z</time></trkpt><trkpt lat="44.00938597773578" lon="2.2875182637475984"><ele>432.6666666666667</ele><time>2026-04-29T18:20:39Z</time></trkpt><trkpt lat="44.00944782301397" lon="2.2877603953933074"><ele>433.0</ele><time>2026-04-29T18:20:40Z</time></trkpt><trkpt lat="44.009490682895446" lon="2.2880086041612735"><ele>433.0</ele><time>2026-04-29T18:20:41Z</time></trkpt><trkpt lat="44.009507543725455" lon="2.2882594626966495"><ele>433.0</ele><time>2026-04-29T18:20:42Z</time></trkpt><trkpt lat="44.009503009873264" lon="2.2885137285933665"><ele>433.0</ele><time>2026-04-29T18:20:43Z</time></trkpt><trkpt lat="44.009473341831665" lon="2.2887661279705207"><ele>433.6666666666667</ele><time>2026-04-29T18:20:44Z</time></trkpt><trkpt lat="44.00942635668626" lon="2.2890192647185814"><ele>434.33333333333337</ele><time>2026-04-29T18:20:45Z</time></trkpt><trkpt lat="44.00936760301583" lon="2.2892744839646855"><ele>435.0</ele><time>2026-04-29T18:20:46Z</time></trkpt><trkpt lat="44.00931231270478" lon="2.289533979011708"><ele>437.33333333333337</ele><time>2026-04-29T18:20:47Z</time></trkpt><trkpt lat="44.00926978901834" lon="2.289800063559868"><ele>439.6666666666667</ele><time>2026-04-29T18:20:48Z</time></trkpt><trkpt lat="44.00925371486442" lon="2.290072192085984"><ele>442.0</ele><time>2026-04-29T18:20:49Z</time></trkpt><trkpt lat="44.00927347436264" lon="2.2903438365475193"><ele>442.6666666666667</ele><time>2026-04-29T18:20:50Z</time></trkpt><trkpt lat="44.009310835035635" lon="2.2906115565606586"><ele>443.33333333333337</ele><time>2026-04-29T18:20:51Z</time></trkpt><trkpt lat="44.0093536917505" lon="2.290872113036996"><ele>444.0</ele><time>2026-04-29T18:20:52Z</time></trkpt><trkpt lat="44.00939453350428" lon="2.291132785735244"><ele>444.0</ele><time>2026-04-29T18:20:53Z</time></trkpt><trkpt lat="44.00943672214196" lon="2.2913911153810056"><ele>444.0</ele><time>2026-04-29T18:20:54Z</time></trkpt><trkpt lat="44.009474982374584" lon="2.2916462915445615"><ele>444.0</ele><time>2026-04-29T18:20:55Z</time></trkpt><trkpt lat="44.00950871293519" lon="2.291890938076687"><ele>444.0</ele><time>2026-04-29T18:20:56Z</time></trkpt><trkpt lat="44.00954011395473" lon="2.2921201643934417"><ele>444.0</ele><time>2026-04-29T18:20:57Z</time></trkpt><trkpt lat="44.009572630750895" lon="2.29234190422796"><ele>444.0</ele><time>2026-04-29T18:20:58Z</time></trkpt><trkpt lat="44.00960237713001" lon="2.292554777554168"><ele>444.0</ele><time>2026-04-29T18:20:59Z</time></trkpt><trkpt lat="44.009631114426" lon="2.2927476044355752"><ele>444.0</ele><time>2026-04-29T18:21:00Z</time></trkpt><trkpt lat="44.00965515599984" lon="2.2929223037728055"><ele>444.0</ele><time>2026-04-29T18:21:01Z</time></trkpt><trkpt lat="44.00967851300123" lon="2.293078446398184"><ele>444.0</ele><time>2026-04-29T18:21:02Z</time></trkpt><trkpt lat="44.0096957516479" lon="2.293205804968048"><ele>444.5</ele><time>2026-04-29T18:21:03Z</time></trkpt><trkpt lat="44.00971005788867" lon="2.293306599982318"><ele>445.0</ele><time>2026-04-29T18:21:04Z</time></trkpt><trkpt lat="44.00970661069337" lon="2.293438801443844"><ele>445.5</ele><time>2026-04-29T18:21:06Z</time></trkpt><trkpt lat="44.009646131691596" lon="2.2934762154904798"><ele>446.0</ele><time>2026-04-29T18:21:08Z</time></trkpt><trkpt lat="44.009644654729385" lon="2.293574468823394"><ele>446.5</ele><time>2026-04-29T18:22:50Z</time></trkpt><trkpt lat="44.00971454536079" lon="2.2935608699542898"><ele>447.0</ele><time>2026-04-29T18:22:52Z</time></trkpt><trkpt lat="44.009770068709116" lon="2.2936594669049137"><ele>447.0</ele><time>2026-04-29T18:22:55Z</time></trkpt><trkpt lat="44.00977887134871" lon="2.293771727659324"><ele>447.00000000000006</ele><time>2026-04-29T18:22:56Z</time></trkpt><trkpt lat="44.00978570246759" lon="2.293872773052389"><ele>447.00000000000006</ele><time>2026-04-29T18:22:57Z</time></trkpt><trkpt lat="44.009799737991656" lon="2.293997313290422"><ele>447.0</ele><time>2026-04-29T18:22:58Z</time></trkpt><trkpt lat="44.00981315689971" lon="2.294135920384453"><ele>447.0</ele><time>2026-04-29T18:22:59Z</time></trkpt><trkpt lat="44.009838531587995" lon="2.294306915688426"><ele>446.0</ele><time>2026-04-29T18:23:00Z</time></trkpt><trkpt lat="44.00986339171022" lon="2.2945011498724233"><ele>445.0</ele><time>2026-04-29T18:23:01Z</time></trkpt><trkpt lat="44.00989745199418" lon="2.2947288368919634"><ele>444.0</ele><time>2026-04-29T18:23:02Z</time></trkpt><trkpt lat="44.009936625545734" lon="2.294978959552566"><ele>443.0</ele><time>2026-04-29T18:23:03Z</time></trkpt><trkpt lat="44.00996847311692" lon="2.2952507035554617"><ele>442.0</ele><time>2026-04-29T18:23:04Z</time></trkpt><trkpt lat="44.00999438429067" lon="2.2955562952071653"><ele>441.0</ele><time>2026-04-29T18:23:05Z</time></trkpt><trkpt lat="44.01001596574463" lon="2.295884457245205"><ele>439.0</ele><time>2026-04-29T18:23:06Z</time></trkpt><trkpt lat="44.01003663427757" lon="2.296228112479257"><ele>437.0</ele><time>2026-04-29T18:23:07Z</time></trkpt><trkpt lat="44.01003945706013" lon="2.296589011221044"><ele>436.0</ele><time>2026-04-29T18:23:08Z</time></trkpt><trkpt lat="44.01006942667748" lon="2.2969629492468466"><ele>435.0</ele><time>2026-04-29T18:23:09Z</time></trkpt><trkpt lat="44.01007210595673" lon="2.2973362772535544"><ele>434.5</ele><time>2026-04-29T18:23:10Z</time></trkpt><trkpt lat="44.010088044085876" lon="2.2977193284843094"><ele>434.0</ele><time>2026-04-29T18:23:11Z</time></trkpt><trkpt lat="44.01011482173969" lon="2.298109201982066"><ele>433.0</ele><time>2026-04-29T18:23:12Z</time></trkpt><trkpt lat="44.01013337173859" lon="2.298498220982674"><ele>432.0</ele><time>2026-04-29T18:23:13Z</time></trkpt><trkpt lat="44.010136057967586" lon="2.2988874993533246"><ele>433.0</ele><time>2026-04-29T18:23:14Z</time></trkpt><trkpt lat="44.01015313192006" lon="2.299279539056299"><ele>434.0</ele><time>2026-04-29T18:23:15Z</time></trkpt><trkpt lat="44.01017073970472" lon="2.299683836274409"><ele>434.0</ele><time>2026-04-29T18:23:16Z</time></trkpt><trkpt lat="44.01018867063863" lon="2.3000955533780854"><ele>434.0</ele><time>2026-04-29T18:23:17Z</time></trkpt><trkpt lat="44.010207097754304" lon="2.3005170913716384"><ele>433.5</ele><time>2026-04-29T18:23:18Z</time></trkpt><trkpt lat="44.01022632629574" lon="2.3009526954722355"><ele>433.0</ele><time>2026-04-29T18:23:19Z</time></trkpt><trkpt lat="44.010245934824276" lon="2.301396907328904"><ele>431.5</ele><time>2026-04-29T18:23:20Z</time></trkpt><trkpt lat="44.01026609406564" lon="2.3018535951374735"><ele>430.0</ele><time>2026-04-29T18:23:21Z</time></trkpt><trkpt lat="44.01028622953274" lon="2.3023257649479056"><ele>429.5</ele><time>2026-04-29T18:23:22Z</time></trkpt><trkpt lat="44.01030666568488" lon="2.302803384469173"><ele>429.0</ele><time>2026-04-29T18:23:23Z</time></trkpt><trkpt lat="44.01033919575405" lon="2.303235525440341"><ele>429.0</ele><time>2026-04-29T18:23:24Z</time></trkpt><trkpt lat="44.01035777039324" lon="2.303639253419019"><ele>429.0</ele><time>2026-04-29T18:23:25Z</time></trkpt><trkpt lat="44.010359644510075" lon="2.304017258344815"><ele>429.0</ele><time>2026-04-29T18:23:26Z</time></trkpt><trkpt lat="44.01037499085837" lon="2.3043802210664257"><ele>429.0</ele><time>2026-04-29T18:23:27Z</time></trkpt><trkpt lat="44.01038988774607" lon="2.3047352538324137"><ele>428.5</ele><time>2026-04-29T18:23:28Z</time></trkpt><trkpt lat="44.01040420153079" lon="2.3050763895970996"><ele>428.0</ele><time>2026-04-29T18:23:29Z</time></trkpt><trkpt lat="44.01041800862527" lon="2.305405449520695"><ele>428.0</ele><time>2026-04-29T18:23:30Z</time></trkpt><trkpt lat="44.01043142188156" lon="2.3057251234438376"><ele>428.0</ele><time>2026-04-29T18:23:31Z</time></trkpt><trkpt lat="44.01044452362439" lon="2.3060373730809673"><ele>428.0</ele><time>2026-04-29T18:23:32Z</time></trkpt><trkpt lat="44.010457541930414" lon="2.3063476342353955"><ele>428.0</ele><time>2026-04-29T18:23:33Z</time></trkpt><trkpt lat="44.01047054048981" lon="2.306657424694707"><ele>428.0</ele><time>2026-04-29T18:23:34Z</time></trkpt><trkpt lat="44.010483345946696" lon="2.3069626129447434"><ele>427.0</ele><time>2026-04-29T18:23:35Z</time></trkpt><trkpt lat="44.010496066636655" lon="2.307265784784503"><ele>426.0</ele><time>2026-04-29T18:23:36Z</time></trkpt><trkpt lat="44.01050867215847" lon="2.3075662162401507"><ele>425.0</ele><time>2026-04-29T18:23:37Z</time></trkpt><trkpt lat="44.01052117053491" lon="2.3078640940842656"><ele>425.3333333333333</ele><time>2026-04-29T18:23:38Z</time></trkpt><trkpt lat="44.010565841805104" lon="2.3081537912318444"><ele>425.66666666666663</ele><time>2026-04-29T18:23:39Z</time></trkpt><trkpt lat="44.010579926163146" lon="2.3084477210394336"><ele>426.0</ele><time>2026-04-29T18:23:40Z</time></trkpt><trkpt lat="44.010591535731756" lon="2.308741893918015"><ele>426.33333333333337</ele><time>2026-04-29T18:23:41Z</time></trkpt><trkpt lat="44.010604273903766" lon="2.309050019872009"><ele>426.6666666666667</ele><time>2026-04-29T18:23:42Z</time></trkpt><trkpt lat="44.010616862171545" lon="2.309348517522697"><ele>427.0</ele><time>2026-04-29T18:23:43Z</time></trkpt><trkpt lat="44.01063906047947" lon="2.3096528837032606"><ele>427.33333333333337</ele><time>2026-04-29T18:23:44Z</time></trkpt><trkpt lat="44.01066794994875" lon="2.309956413149928"><ele>427.66666666666663</ele><time>2026-04-29T18:23:45Z</time></trkpt><trkpt lat="44.01069803978556" lon="2.310256923993427"><ele>428.0</ele><time>2026-04-29T18:23:46Z</time></trkpt><trkpt lat="44.01073569608543" lon="2.31055703905824"><ele>428.0</ele><time>2026-04-29T18:23:47Z</time></trkpt><trkpt lat="44.010775541986426" lon="2.3108618286981186"><ele>428.0</ele><time>2026-04-29T18:23:48Z</time></trkpt><trkpt lat="44.010812296098585" lon="2.31116787586433"><ele>428.0</ele><time>2026-04-29T18:23:49Z</time></trkpt><trkpt lat="44.010851089227934" lon="2.3114742007744598"><ele>428.66666666666663</ele><time>2026-04-29T18:23:50Z</time></trkpt><trkpt lat="44.0108884499597" lon="2.3117824114538177"><ele>429.33333333333337</ele><time>2026-04-29T18:23:51Z</time></trkpt><trkpt lat="44.01092357160833" lon="2.312090792046723"><ele>430.0</ele><time>2026-04-29T18:23:52Z</time></trkpt><trkpt lat="44.01095918347218" lon="2.3123979651138753"><ele>430.0</ele><time>2026-04-29T18:23:53Z</time></trkpt><trkpt lat="44.01099800786208" lon="2.3127060226125757"><ele>430.0</ele><time>2026-04-29T18:23:54Z</time></trkpt><trkpt lat="44.01103186405912" lon="2.3130115641926294"><ele>430.0</ele><time>2026-04-29T18:23:55Z</time></trkpt><trkpt lat="44.011067895762814" lon="2.3133106954894664"><ele>430.0</ele><time>2026-04-29T18:23:56Z</time></trkpt><trkpt lat="44.011110258995124" lon="2.313608061554526"><ele>430.0</ele><time>2026-04-29T18:23:57Z</time></trkpt><trkpt lat="44.01114600436314" lon="2.3139028718550536"><ele>430.0</ele><time>2026-04-29T18:23:58Z</time></trkpt><trkpt lat="44.01118320237705" lon="2.3141994733024824"><ele>430.0</ele><time>2026-04-29T18:23:59Z</time></trkpt><trkpt lat="44.011218526587335" lon="2.314486766339202"><ele>430.0</ele><time>2026-04-29T18:24:00Z</time></trkpt><trkpt lat="44.01125453140736" lon="2.314774852331823"><ele>430.0</ele><time>2026-04-29T18:24:01Z</time></trkpt><trkpt lat="44.011289105563456" lon="2.315064265014277"><ele>429.0</ele><time>2026-04-29T18:24:02Z</time></trkpt><trkpt lat="44.011311589789415" lon="2.315355018782517"><ele>428.0</ele><time>2026-04-29T18:24:03Z</time></trkpt><trkpt lat="44.01130779113289" lon="2.3156447575977475"><ele>427.0</ele><time>2026-04-29T18:24:04Z</time></trkpt><trkpt lat="44.011284755571936" lon="2.3159358764857947"><ele>426.6666666666667</ele><time>2026-04-29T18:24:05Z</time></trkpt><trkpt lat="44.01123527565137" lon="2.316214989303409"><ele>426.33333333333337</ele><time>2026-04-29T18:24:06Z</time></trkpt><trkpt lat="44.011177389977675" lon="2.3164871236731095"><ele>426.0</ele><time>2026-04-29T18:24:07Z</time></trkpt><trkpt lat="44.011117568837484" lon="2.316759576385022"><ele>426.0</ele><time>2026-04-29T18:24:08Z</time></trkpt><trkpt lat="44.011056174675026" lon="2.317031303935575"><ele>426.0</ele><time>2026-04-29T18:24:09Z</time></trkpt><trkpt lat="44.010995009649925" lon="2.3173024668650464"><ele>426.0</ele><time>2026-04-29T18:24:10Z</time></trkpt><trkpt lat="44.010933688302224" lon="2.31757375772537"><ele>426.33333333333337</ele><time>2026-04-29T18:24:11Z</time></trkpt><trkpt lat="44.01087658995979" lon="2.3178455353734297"><ele>426.6666666666667</ele><time>2026-04-29T18:24:12Z</time></trkpt><trkpt lat="44.01081886116499" lon="2.3181156316484386"><ele>427.0</ele><time>2026-04-29T18:24:13Z</time></trkpt><trkpt lat="44.01075410768249" lon="2.318383221516489"><ele>426.0</ele><time>2026-04-29T18:24:14Z</time></trkpt><trkpt lat="44.01069269984995" lon="2.3186545415150857"><ele>425.0</ele><time>2026-04-29T18:24:15Z</time></trkpt><trkpt lat="44.010636559622995" lon="2.318922882653982"><ele>424.0</ele><time>2026-04-29T18:24:16Z</time></trkpt><trkpt lat="44.010579420286156" lon="2.3191891023522"><ele>424.0</ele><time>2026-04-29T18:24:17Z</time></trkpt><trkpt lat="44.01052284422564" lon="2.319455410608757"><ele>424.0</ele><time>2026-04-29T18:24:18Z</time></trkpt><trkpt lat="44.01046211913271" lon="2.319721206742811"><ele>424.0</ele><time>2026-04-29T18:24:19Z</time></trkpt><trkpt lat="44.01040558837269" lon="2.3199848822694134"><ele>425.0</ele><time>2026-04-29T18:24:20Z</time></trkpt><trkpt lat="44.01034656994011" lon="2.3202494789060504"><ele>426.0</ele><time>2026-04-29T18:24:21Z</time></trkpt><trkpt lat="44.010287377677926" lon="2.3205174193224427"><ele>427.0</ele><time>2026-04-29T18:24:22Z</time></trkpt><trkpt lat="44.01022551771048" lon="2.320783391534336"><ele>428.0</ele><time>2026-04-29T18:24:23Z</time></trkpt><trkpt lat="44.01017046140528" lon="2.321049515647119"><ele>429.0</ele><time>2026-04-29T18:24:24Z</time></trkpt><trkpt lat="44.01010976834649" lon="2.321312977503402"><ele>430.0</ele><time>2026-04-29T18:24:25Z</time></trkpt><trkpt lat="44.010051364650295" lon="2.3215910731895786"><ele>430.6666666666667</ele><time>2026-04-29T18:24:26Z</time></trkpt><trkpt lat="44.009991789828355" lon="2.3218781969762716"><ele>431.33333333333337</ele><time>2026-04-29T18:24:27Z</time></trkpt><trkpt lat="44.009926111326" lon="2.322179183357134"><ele>432.0</ele><time>2026-04-29T18:24:28Z</time></trkpt><trkpt lat="44.00985949068774" lon="2.322483629640653"><ele>432.5</ele><time>2026-04-29T18:24:29Z</time></trkpt><trkpt lat="44.00979418912831" lon="2.3227888804732886"><ele>433.0</ele><time>2026-04-29T18:24:30Z</time></trkpt><trkpt lat="44.009730717938744" lon="2.323094656177849"><ele>433.5</ele><time>2026-04-29T18:24:31Z</time></trkpt><trkpt lat="44.00966031938971" lon="2.3233990197765695"><ele>434.0</ele><time>2026-04-29T18:24:32Z</time></trkpt><trkpt lat="44.00959201048082" lon="2.3237055802217084"><ele>433.5</ele><time>2026-04-29T18:24:33Z</time></trkpt><trkpt lat="44.00952040339882" lon="2.3240131832570796"><ele>433.0</ele><time>2026-04-29T18:24:34Z</time></trkpt><trkpt lat="44.00945155643121" lon="2.3243197833988605"><ele>433.0</ele><time>2026-04-29T18:24:35Z</time></trkpt><trkpt lat="44.00937983422584" lon="2.3246230040653577"><ele>433.0</ele><time>2026-04-29T18:24:36Z</time></trkpt><trkpt lat="44.00930596884022" lon="2.3249192486776167"><ele>433.33333333333337</ele><time>2026-04-29T18:24:37Z</time></trkpt><trkpt lat="44.00922122642284" lon="2.325206684171339"><ele>433.66666666666663</ele><time>2026-04-29T18:24:38Z</time></trkpt><trkpt lat="44.00911381389896" lon="2.3254759649933217"><ele>434.0</ele><time>2026-04-29T18:24:39Z</time></trkpt><trkpt lat="44.00899554306946" lon="2.325740389173224"><ele>433.66666666666663</ele><time>2026-04-29T18:24:40Z</time></trkpt><trkpt lat="44.008872604124775" lon="2.3260005441116176"><ele>433.33333333333337</ele><time>2026-04-29T18:24:41Z</time></trkpt><trkpt lat="44.00875230088808" lon="2.326259860675227"><ele>433.0</ele><time>2026-04-29T18:24:42Z</time></trkpt><trkpt lat="44.0086298631832" lon="2.3265154866630064"><ele>433.0</ele><time>2026-04-29T18:24:43Z</time></trkpt><trkpt lat="44.00851159946527" lon="2.3267761822835795"><ele>433.0</ele><time>2026-04-29T18:24:44Z</time></trkpt><trkpt lat="44.008388671975936" lon="2.3270324817994394"><ele>433.0</ele><time>2026-04-29T18:24:45Z</time></trkpt><trkpt lat="44.00825727754582" lon="2.3272828468089117"><ele>432.5</ele><time>2026-04-29T18:24:46Z</time></trkpt><trkpt lat="44.00811777436605" lon="2.327524409168526"><ele>432.0</ele><time>2026-04-29T18:24:47Z</time></trkpt><trkpt lat="44.00796468871197" lon="2.327761378386884"><ele>432.0</ele><time>2026-04-29T18:24:48Z</time></trkpt><trkpt lat="44.007811276383116" lon="2.327997147674502"><ele>432.0</ele><time>2026-04-29T18:24:49Z</time></trkpt><trkpt lat="44.007658200407555" lon="2.3282365659746347"><ele>432.5</ele><time>2026-04-29T18:24:50Z</time></trkpt><trkpt lat="44.00750840104883" lon="2.3284800652860933"><ele>433.0</ele><time>2026-04-29T18:24:51Z</time></trkpt><trkpt lat="44.007358896394614" lon="2.3287296897222474"><ele>432.0</ele><time>2026-04-29T18:24:52Z</time></trkpt><trkpt lat="44.00720319400954" lon="2.328981797657128"><ele>431.0</ele><time>2026-04-29T18:24:53Z</time></trkpt><trkpt lat="44.00704483400234" lon="2.3292371907847476"><ele>431.0</ele><time>2026-04-29T18:24:54Z</time></trkpt><trkpt lat="44.006885319875714" lon="2.329495276718325"><ele>431.0</ele><time>2026-04-29T18:24:55Z</time></trkpt><trkpt lat="44.00672441760755" lon="2.329756184452019"><ele>430.0</ele><time>2026-04-29T18:24:56Z</time></trkpt><trkpt lat="44.00656172266227" lon="2.3300170022617737"><ele>429.0</ele><time>2026-04-29T18:24:57Z</time></trkpt><trkpt lat="44.006395649950164" lon="2.3302770770630357"><ele>429.0</ele><time>2026-04-29T18:24:58Z</time></trkpt><trkpt lat="44.00623220820391" lon="2.3305384342323947"><ele>429.0</ele><time>2026-04-29T18:24:59Z</time></trkpt><trkpt lat="44.00606771236381" lon="2.3308007190882276"><ele>429.5</ele><time>2026-04-29T18:25:00Z</time></trkpt><trkpt lat="44.00590691315214" lon="2.3310613588864273"><ele>430.0</ele><time>2026-04-29T18:25:01Z</time></trkpt><trkpt lat="44.00575014216047" lon="2.331326776770601"><ele>430.0</ele><time>2026-04-29T18:25:02Z</time></trkpt><trkpt lat="44.005599396846875" lon="2.331597916649396"><ele>430.0</ele><time>2026-04-29T18:25:03Z</time></trkpt><trkpt lat="44.00545852465209" lon="2.331875096990044"><ele>430.0</ele><time>2026-04-29T18:25:04Z</time></trkpt><trkpt lat="44.005323217136315" lon="2.3321552545644955"><ele>430.0</ele><time>2026-04-29T18:25:05Z</time></trkpt><trkpt lat="44.00519719781747" lon="2.3324401250481297"><ele>429.5</ele><time>2026-04-29T18:25:06Z</time></trkpt><trkpt lat="44.00507904652068" lon="2.3327242396983805"><ele>429.0</ele><time>2026-04-29T18:25:07Z</time></trkpt><trkpt lat="44.00497272879224" lon="2.333012875503312"><ele>429.33333333333337</ele><time>2026-04-29T18:25:08Z</time></trkpt><trkpt lat="44.00486691850341" lon="2.3332979894864634"><ele>429.6666666666667</ele><time>2026-04-29T18:25:09Z</time></trkpt><trkpt lat="44.0047742061414" lon="2.3335623071765204"><ele>430.0</ele><time>2026-04-29T18:25:10Z</time></trkpt><trkpt lat="44.00467245519914" lon="2.333790948652935"><ele>429.33333333333337</ele><time>2026-04-29T18:25:11Z</time></trkpt><trkpt lat="44.004590950331306" lon="2.3340268206324963"><ele>428.66666666666663</ele><time>2026-04-29T18:25:12Z</time></trkpt><trkpt lat="44.00455378008094" lon="2.334291409874729"><ele>428.0</ele><time>2026-04-29T18:25:13Z</time></trkpt><trkpt lat="44.00452480642202" lon="2.334557497746201"><ele>428.66666666666663</ele><time>2026-04-29T18:25:14Z</time></trkpt><trkpt lat="44.00452653795077" lon="2.334829076098972"><ele>429.33333333333337</ele><time>2026-04-29T18:25:15Z</time></trkpt><trkpt lat="44.00455647799129" lon="2.3351033196128825"><ele>430.0</ele><time>2026-04-29T18:25:16Z</time></trkpt><trkpt lat="44.00461089975761" lon="2.3353752545293864"><ele>431.6666666666667</ele><time>2026-04-29T18:25:17Z</time></trkpt><trkpt lat="44.00468666023115" lon="2.3356480926661467"><ele>433.33333333333337</ele><time>2026-04-29T18:25:18Z</time></trkpt><trkpt lat="44.00477728676458" lon="2.335929433329329"><ele>435.0</ele><time>2026-04-29T18:25:19Z</time></trkpt><trkpt lat="44.004870135007856" lon="2.3362165757688675"><ele>435.0</ele><time>2026-04-29T18:25:20Z</time></trkpt><trkpt lat="44.00495580753722" lon="2.3364982473382665"><ele>435.0</ele><time>2026-04-29T18:25:21Z</time></trkpt><trkpt lat="44.00504113502129" lon="2.336779778812223"><ele>435.0</ele><time>2026-04-29T18:25:22Z</time></trkpt><trkpt lat="44.00512525133279" lon="2.3370619458769384"><ele>435.33333333333337</ele><time>2026-04-29T18:25:23Z</time></trkpt><trkpt lat="44.00520867011987" lon="2.3373443269619836"><ele>435.6666666666667</ele><time>2026-04-29T18:25:24Z</time></trkpt><trkpt lat="44.005294653476874" lon="2.337627823995584"><ele>436.0</ele><time>2026-04-29T18:25:25Z</time></trkpt><trkpt lat="44.00538328891534" lon="2.33790704954845"><ele>436.0</ele><time>2026-04-29T18:25:26Z</time></trkpt><trkpt lat="44.005470385135084" lon="2.338187070336768"><ele>436.0</ele><time>2026-04-29T18:25:27Z</time></trkpt><trkpt lat="44.00555471117682" lon="2.338467064013791"><ele>436.0</ele><time>2026-04-29T18:25:28Z</time></trkpt><trkpt lat="44.005637372728096" lon="2.33874304608047"><ele>436.0</ele><time>2026-04-29T18:25:29Z</time></trkpt><trkpt lat="44.005719971225275" lon="2.3390239150138505"><ele>436.0</ele><time>2026-04-29T18:25:30Z</time></trkpt><trkpt lat="44.005805852976124" lon="2.3393054924431014"><ele>436.0</ele><time>2026-04-29T18:25:31Z</time></trkpt><trkpt lat="44.005892356895195" lon="2.339583576668619"><ele>436.0</ele><time>2026-04-29T18:25:32Z</time></trkpt><trkpt lat="44.005975153202925" lon="2.3398617419575864"><ele>436.0</ele><time>2026-04-29T18:25:33Z</time></trkpt><trkpt lat="44.00605759975194" lon="2.340138538755284"><ele>436.0</ele><time>2026-04-29T18:25:34Z</time></trkpt><trkpt lat="44.00613808201628" lon="2.340414207518734"><ele>436.0</ele><time>2026-04-29T18:25:35Z</time></trkpt><trkpt lat="44.0062163442415" lon="2.3406866356490235"><ele>436.0</ele><time>2026-04-29T18:25:36Z</time></trkpt><trkpt lat="44.00629655269446" lon="2.3409549016775637"><ele>436.0</ele><time>2026-04-29T18:25:37Z</time></trkpt><trkpt lat="44.0063774716194" lon="2.3412228608796166"><ele>435.6666666666667</ele><time>2026-04-29T18:25:38Z</time></trkpt><trkpt lat="44.00645705115416" lon="2.34148694901525"><ele>435.33333333333337</ele><time>2026-04-29T18:25:39Z</time></trkpt><trkpt lat="44.00653670348793" lon="2.3417505847442355"><ele>435.0</ele><time>2026-04-29T18:25:40Z</time></trkpt><trkpt lat="44.00661505547749" lon="2.3420082387558763"><ele>435.66666666666663</ele><time>2026-04-29T18:25:41Z</time></trkpt><trkpt lat="44.006697000060285" lon="2.342254968281752"><ele>436.3333333333333</ele><time>2026-04-29T18:25:42Z</time></trkpt><trkpt lat="44.006784550570345" lon="2.3424753950773973"><ele>437.0</ele><time>2026-04-29T18:25:43Z</time></trkpt><trkpt lat="44.00689463291839" lon="2.342668437500009"><ele>437.0</ele><time>2026-04-29T18:25:44Z</time></trkpt><trkpt lat="44.00701718006703" lon="2.3428204475380134"><ele>437.0</ele><time>2026-04-29T18:25:45Z</time></trkpt><trkpt lat="44.00715958399505" lon="2.3429360968284776"><ele>437.0</ele><time>2026-04-29T18:25:46Z</time></trkpt><trkpt lat="44.00731052610518" lon="2.3430249294447334"><ele>437.3333333333333</ele><time>2026-04-29T18:25:47Z</time></trkpt><trkpt lat="44.00746385715598" lon="2.343104004174585"><ele>437.66666666666663</ele><time>2026-04-29T18:25:48Z</time></trkpt><trkpt lat="44.00761382018804" lon="2.343177752826605"><ele>438.0</ele><time>2026-04-29T18:25:49Z</time></trkpt><trkpt lat="44.007762014233606" lon="2.3432562146550366"><ele>438.33333333333337</ele><time>2026-04-29T18:25:50Z</time></trkpt><trkpt lat="44.007911095511126" lon="2.3433343378163647"><ele>438.6666666666667</ele><time>2026-04-29T18:25:51Z</time></trkpt><trkpt lat="44.008057300046474" lon="2.343407741370275"><ele>439.0</ele><time>2026-04-29T18:25:52Z</time></trkpt><trkpt lat="44.00820104379255" lon="2.3434764828194368"><ele>439.33333333333337</ele><time>2026-04-29T18:25:53Z</time></trkpt><trkpt lat="44.00834608315716" lon="2.343549120478804"><ele>439.66666666666663</ele><time>2026-04-29T18:25:54Z</time></trkpt><trkpt lat="44.00849076518283" lon="2.3436275946935647"><ele>440.0</ele><time>2026-04-29T18:25:55Z</time></trkpt><trkpt lat="44.008641621254874" lon="2.3437097298462444"><ele>440.0</ele><time>2026-04-29T18:25:56Z</time></trkpt><trkpt lat="44.00878986287487" lon="2.3437928026221306"><ele>440.0</ele><time>2026-04-29T18:25:57Z</time></trkpt><trkpt lat="44.00894125896911" lon="2.3438750047909376"><ele>440.0</ele><time>2026-04-29T18:25:58Z</time></trkpt><trkpt lat="44.009092076624704" lon="2.343956750053183"><ele>441.3333333333333</ele><time>2026-04-29T18:25:59Z</time></trkpt><trkpt lat="44.009242751902" lon="2.3440383224426906"><ele>442.66666666666663</ele><time>2026-04-29T18:26:00Z</time></trkpt><trkpt lat="44.009395979631186" lon="2.3441203556120507"><ele>444.0</ele><time>2026-04-29T18:26:01Z</time></trkpt><trkpt lat="44.0095445379839" lon="2.3442145572340176"><ele>444.0</ele><time>2026-04-29T18:26:02Z</time></trkpt><trkpt lat="44.009697382349" lon="2.3442978051749597"><ele>444.0</ele><time>2026-04-29T18:26:03Z</time></trkpt><trkpt lat="44.00985604738751" lon="2.344374618928561"><ele>444.0</ele><time>2026-04-29T18:26:04Z</time></trkpt><trkpt lat="44.010013799729734" lon="2.3444574575901718"><ele>444.0</ele><time>2026-04-29T18:26:05Z</time></trkpt><trkpt lat="44.010171308637865" lon="2.34453909620315"><ele>444.0</ele><time>2026-04-29T18:26:06Z</time></trkpt><trkpt lat="44.010333236038036" lon="2.3446276429977404"><ele>444.0</ele><time>2026-04-29T18:26:07Z</time></trkpt><trkpt lat="44.01049163870017" lon="2.344713770040646"><ele>444.33333333333337</ele><time>2026-04-29T18:26:08Z</time></trkpt><trkpt lat="44.01065405959489" lon="2.344795189573188"><ele>444.6666666666667</ele><time>2026-04-29T18:26:09Z</time></trkpt><trkpt lat="44.01081316919994" lon="2.344877093755968"><ele>445.0</ele><time>2026-04-29T18:26:10Z</time></trkpt><trkpt lat="44.01097213769108" lon="2.3449598385816555"><ele>445.0</ele><time>2026-04-29T18:26:11Z</time></trkpt><trkpt lat="44.011135109478104" lon="2.3450498827684374"><ele>445.0</ele><time>2026-04-29T18:26:12Z</time></trkpt><trkpt lat="44.0112984567365" lon="2.345134254981574"><ele>445.0</ele><time>2026-04-29T18:26:13Z</time></trkpt><trkpt lat="44.01146744408195" lon="2.3452183680665533"><ele>445.0</ele><time>2026-04-29T18:26:14Z</time></trkpt><trkpt lat="44.0116364768481" lon="2.3453017640105824"><ele>445.0</ele><time>2026-04-29T18:26:15Z</time></trkpt><trkpt lat="44.011813502406945" lon="2.3453926362207267"><ele>445.0</ele><time>2026-04-29T18:26:16Z</time></trkpt><trkpt lat="44.011992912398604" lon="2.3454908742146174"><ele>444.6666666666667</ele><time>2026-04-29T18:26:17Z</time></trkpt><trkpt lat="44.012180855369465" lon="2.3456011616887444"><ele>444.33333333333337</ele><time>2026-04-29T18:26:18Z</time></trkpt><trkpt lat="44.01239068984727" lon="2.3457138241645135"><ele>444.0</ele><time>2026-04-29T18:26:19Z</time></trkpt><trkpt lat="44.01259384452976" lon="2.3458387351684116"><ele>444.66666666666663</ele><time>2026-04-29T18:26:20Z</time></trkpt><trkpt lat="44.012800483319864" lon="2.345977427340053"><ele>445.3333333333333</ele><time>2026-04-29T18:26:21Z</time></trkpt><trkpt lat="44.01298206662117" lon="2.346147758587438"><ele>446.0</ele><time>2026-04-29T18:26:22Z</time></trkpt><trkpt lat="44.01316141646149" lon="2.346339202666094"><ele>446.3333333333333</ele><time>2026-04-29T18:26:23Z</time></trkpt><trkpt lat="44.01330815928932" lon="2.346552386427221"><ele>446.66666666666663</ele><time>2026-04-29T18:26:24Z</time></trkpt><trkpt lat="44.01342354266108" lon="2.346782239026925"><ele>447.0</ele><time>2026-04-29T18:26:25Z</time></trkpt><trkpt lat="44.01350765692999" lon="2.347038245370321"><ele>447.0</ele><time>2026-04-29T18:26:26Z</time></trkpt><trkpt lat="44.01355583295702" lon="2.347303159115824"><ele>447.0</ele><time>2026-04-29T18:26:27Z</time></trkpt><trkpt lat="44.0135799742869" lon="2.3475803372626527"><ele>447.0</ele><time>2026-04-29T18:26:28Z</time></trkpt><trkpt lat="44.013600057189905" lon="2.3478694364373083"><ele>447.0</ele><time>2026-04-29T18:26:29Z</time></trkpt><trkpt lat="44.01360529985247" lon="2.3481784095324523"><ele>447.0</ele><time>2026-04-29T18:26:30Z</time></trkpt><trkpt lat="44.01361107638247" lon="2.3485006531647774"><ele>447.0</ele><time>2026-04-29T18:26:31Z</time></trkpt><trkpt lat="44.01362057250565" lon="2.3488325563266335"><ele>447.0</ele><time>2026-04-29T18:26:32Z</time></trkpt><trkpt lat="44.01362921630596" lon="2.349175555446867"><ele>447.0</ele><time>2026-04-29T18:26:33Z</time></trkpt><trkpt lat="44.013642409033196" lon="2.3495230565941423"><ele>447.0</ele><time>2026-04-29T18:26:34Z</time></trkpt><trkpt lat="44.013653084118914" lon="2.3498659501698103"><ele>447.5</ele><time>2026-04-29T18:26:35Z</time></trkpt><trkpt lat="44.013662081734196" lon="2.350215639756196"><ele>448.0</ele><time>2026-04-29T18:26:36Z</time></trkpt><trkpt lat="44.01367022943981" lon="2.350572483595152"><ele>449.0</ele><time>2026-04-29T18:26:37Z</time></trkpt><trkpt lat="44.013678274960554" lon="2.3509304788505307"><ele>450.0</ele><time>2026-04-29T18:26:38Z</time></trkpt><trkpt lat="44.013685432987465" lon="2.3512895629332093"><ele>451.0</ele><time>2026-04-29T18:26:39Z</time></trkpt><trkpt lat="44.01370085200597" lon="2.351652826632298"><ele>452.0</ele><time>2026-04-29T18:26:40Z</time></trkpt><trkpt lat="44.01371038367421" lon="2.352013843627417"><ele>451.5</ele><time>2026-04-29T18:26:41Z</time></trkpt><trkpt lat="44.013720577280175" lon="2.3523782699510996"><ele>451.0</ele><time>2026-04-29T18:26:42Z</time></trkpt><trkpt lat="44.01372772271611" lon="2.352742483552525"><ele>451.0</ele><time>2026-04-29T18:26:43Z</time></trkpt><trkpt lat="44.01373854394852" lon="2.3531084350565665"><ele>451.0</ele><time>2026-04-29T18:26:44Z</time></trkpt><trkpt lat="44.01374757449786" lon="2.3534775938207644"><ele>451.0</ele><time>2026-04-29T18:26:45Z</time></trkpt><trkpt lat="44.01374911554582" lon="2.353845748295086"><ele>451.0</ele><time>2026-04-29T18:26:46Z</time></trkpt><trkpt lat="44.01374623328749" lon="2.35421159095028"><ele>451.0</ele><time>2026-04-29T18:26:47Z</time></trkpt><trkpt lat="44.01372957100074" lon="2.3545731751104295"><ele>451.0</ele><time>2026-04-29T18:26:48Z</time></trkpt><trkpt lat="44.01369870203073" lon="2.354924063667338"><ele>450.5</ele><time>2026-04-29T18:26:49Z</time></trkpt><trkpt lat="44.01365019094786" lon="2.355272140130709"><ele>450.0</ele><time>2026-04-29T18:26:50Z</time></trkpt><trkpt lat="44.013587925865096" lon="2.355615438984142"><ele>449.5</ele><time>2026-04-29T18:26:51Z</time></trkpt><trkpt lat="44.01350313744052" lon="2.355944873726477"><ele>449.0</ele><time>2026-04-29T18:26:52Z</time></trkpt><trkpt lat="44.01340126829835" lon="2.356263946558367"><ele>449.0</ele><time>2026-04-29T18:26:53Z</time></trkpt><trkpt lat="44.01329487658104" lon="2.3565772787800316"><ele>449.0</ele><time>2026-04-29T18:26:54Z</time></trkpt><trkpt lat="44.01317808415837" lon="2.3568848440071934"><ele>449.0</ele><time>2026-04-29T18:26:55Z</time></trkpt><trkpt lat="44.01306477663755" lon="2.357194641281338"><ele>449.0</ele><time>2026-04-29T18:26:56Z</time></trkpt><trkpt lat="44.01296284563234" lon="2.357501944100316"><ele>450.0</ele><time>2026-04-29T18:26:57Z</time></trkpt><trkpt lat="44.012863114521465" lon="2.3578088359642666"><ele>451.0</ele><time>2026-04-29T18:26:58Z</time></trkpt><trkpt lat="44.01275810854862" lon="2.3581058974617726"><ele>451.0</ele><time>2026-04-29T18:26:59Z</time></trkpt><trkpt lat="44.01265735997709" lon="2.358398280305769"><ele>451.0</ele><time>2026-04-29T18:27:00Z</time></trkpt><trkpt lat="44.012561148448825" lon="2.358691951034634"><ele>450.5</ele><time>2026-04-29T18:27:01Z</time></trkpt><trkpt lat="44.012458306219784" lon="2.358994932913489"><ele>450.0</ele><time>2026-04-29T18:27:02Z</time></trkpt><trkpt lat="44.0123554962692" lon="2.3592964663096088"><ele>450.0</ele><time>2026-04-29T18:27:03Z</time></trkpt><trkpt lat="44.01225082852437" lon="2.359605234408824"><ele>450.0</ele><time>2026-04-29T18:27:04Z</time></trkpt><trkpt lat="44.01214709025472" lon="2.35991452648577"><ele>450.5</ele><time>2026-04-29T18:27:05Z</time></trkpt><trkpt lat="44.01203405112541" lon="2.3602217764836197"><ele>451.0</ele><time>2026-04-29T18:27:06Z</time></trkpt><trkpt lat="44.011924766546265" lon="2.3605295054756823"><ele>451.5</ele><time>2026-04-29T18:27:07Z</time></trkpt><trkpt lat="44.01182026991445" lon="2.360839341563992"><ele>452.0</ele><time>2026-04-29T18:27:08Z</time></trkpt><trkpt lat="44.01173346462575" lon="2.361138581016399"><ele>452.3333333333333</ele><time>2026-04-29T18:27:09Z</time></trkpt><trkpt lat="44.01166465887377" lon="2.3614383400897223"><ele>452.66666666666663</ele><time>2026-04-29T18:27:10Z</time></trkpt><trkpt lat="44.01161553620995" lon="2.3617398677102805"><ele>453.0</ele><time>2026-04-29T18:27:11Z</time></trkpt><trkpt lat="44.01158796908746" lon="2.362049118898309"><ele>451.5</ele><time>2026-04-29T18:27:12Z</time></trkpt><trkpt lat="44.01158506526097" lon="2.362366082403892"><ele>450.0</ele><time>2026-04-29T18:27:13Z</time></trkpt><trkpt lat="44.01160085311086" lon="2.362684005810214"><ele>450.0</ele><time>2026-04-29T18:27:14Z</time></trkpt><trkpt lat="44.011628222518794" lon="2.3630059949434377"><ele>450.0</ele><time>2026-04-29T18:27:15Z</time></trkpt><trkpt lat="44.01168067935919" lon="2.363320056900336"><ele>451.0</ele><time>2026-04-29T18:27:16Z</time></trkpt><trkpt lat="44.01176205708765" lon="2.363632753281425"><ele>452.0</ele><time>2026-04-29T18:27:17Z</time></trkpt><trkpt lat="44.01185151013264" lon="2.3639314889613607"><ele>453.0</ele><time>2026-04-29T18:27:18Z</time></trkpt><trkpt lat="44.01195323154229" lon="2.3642250166674224"><ele>454.0</ele><time>2026-04-29T18:27:19Z</time></trkpt><trkpt lat="44.012057324678906" lon="2.3645253653768283"><ele>453.5</ele><time>2026-04-29T18:27:20Z</time></trkpt><trkpt lat="44.01215861024174" lon="2.364821748151435"><ele>453.0</ele><time>2026-04-29T18:27:21Z</time></trkpt><trkpt lat="44.01225983906908" lon="2.365119393908107"><ele>453.0</ele><time>2026-04-29T18:27:22Z</time></trkpt><trkpt lat="44.01236374021473" lon="2.36541694206716"><ele>453.0</ele><time>2026-04-29T18:27:23Z</time></trkpt><trkpt lat="44.012466207008075" lon="2.3657129742721574"><ele>453.5</ele><time>2026-04-29T18:27:24Z</time></trkpt><trkpt lat="44.01257003676664" lon="2.366021257018667"><ele>454.0</ele><time>2026-04-29T18:27:25Z</time></trkpt><trkpt lat="44.01267289287488" lon="2.366324009856885"><ele>453.5</ele><time>2026-04-29T18:27:26Z</time></trkpt><trkpt lat="44.01277397971621" lon="2.366625946367784"><ele>453.0</ele><time>2026-04-29T18:27:27Z</time></trkpt><trkpt lat="44.01287398226035" lon="2.366927983970948"><ele>452.5</ele><time>2026-04-29T18:27:28Z</time></trkpt><trkpt lat="44.01297316685989" lon="2.367220287892854"><ele>452.0</ele><time>2026-04-29T18:27:29Z</time></trkpt><trkpt lat="44.01307111947476" lon="2.3675177519420285"><ele>452.0</ele><time>2026-04-29T18:27:30Z</time></trkpt><trkpt lat="44.01316719224803" lon="2.36781844762995"><ele>452.0</ele><time>2026-04-29T18:27:31Z</time></trkpt><trkpt lat="44.01326517810082" lon="2.3681232780150157"><ele>452.5</ele><time>2026-04-29T18:27:32Z</time></trkpt><trkpt lat="44.01335463970401" lon="2.368435082601399"><ele>453.0</ele><time>2026-04-29T18:27:33Z</time></trkpt><trkpt lat="44.01343263104028" lon="2.368753822529548"><ele>453.0</ele><time>2026-04-29T18:27:34Z</time></trkpt><trkpt lat="44.013498444965876" lon="2.369077382215125"><ele>453.0</ele><time>2026-04-29T18:27:35Z</time></trkpt><trkpt lat="44.01355609264619" lon="2.369403735965533"><ele>453.0</ele><time>2026-04-29T18:27:36Z</time></trkpt><trkpt lat="44.01360240606064" lon="2.3697306277291674"><ele>453.0</ele><time>2026-04-29T18:27:37Z</time></trkpt><trkpt lat="44.01364112066808" lon="2.3700593591811843"><ele>453.0</ele><time>2026-04-29T18:27:38Z</time></trkpt><trkpt lat="44.01367499639239" lon="2.370388468127506"><ele>453.0</ele><time>2026-04-29T18:27:39Z</time></trkpt><trkpt lat="44.013702695815155" lon="2.370716052129358"><ele>452.5</ele><time>2026-04-29T18:27:40Z</time></trkpt><trkpt lat="44.0137289275329" lon="2.3710411150226562"><ele>452.0</ele><time>2026-04-29T18:27:41Z</time></trkpt><trkpt lat="44.01375523974301" lon="2.371365779845949"><ele>452.0</ele><time>2026-04-29T18:27:42Z</time></trkpt><trkpt lat="44.01377406402163" lon="2.3716863982049743"><ele>452.0</ele><time>2026-04-29T18:27:43Z</time></trkpt><trkpt lat="44.013795297910654" lon="2.372011494590444"><ele>452.5</ele><time>2026-04-29T18:27:44Z</time></trkpt><trkpt lat="44.01381498985085" lon="2.3723324521324"><ele>453.0</ele><time>2026-04-29T18:27:45Z</time></trkpt><trkpt lat="44.013837092339436" lon="2.3726540579078885"><ele>453.0</ele><time>2026-04-29T18:27:46Z</time></trkpt><trkpt lat="44.0138587510187" lon="2.372974254401806"><ele>453.0</ele><time>2026-04-29T18:27:47Z</time></trkpt><trkpt lat="44.013883498889264" lon="2.373295471155871"><ele>453.5</ele><time>2026-04-29T18:27:48Z</time></trkpt><trkpt lat="44.01390490071073" lon="2.3736119965470834"><ele>454.0</ele><time>2026-04-29T18:27:49Z</time></trkpt><trkpt lat="44.013927226606015" lon="2.3739266293827255"><ele>454.0</ele><time>2026-04-29T18:27:50Z</time></trkpt><trkpt lat="44.01394683224262" lon="2.374238428587295"><ele>454.0</ele><time>2026-04-29T18:27:51Z</time></trkpt><trkpt lat="44.0139641957845" lon="2.3745479161848575"><ele>454.0</ele><time>2026-04-29T18:27:52Z</time></trkpt><trkpt lat="44.01398536594536" lon="2.374858861373839"><ele>453.5</ele><time>2026-04-29T18:27:53Z</time></trkpt><trkpt lat="44.01400564201019" lon="2.3751714399494235"><ele>453.0</ele><time>2026-04-29T18:27:54Z</time></trkpt><trkpt lat="44.01402904885037" lon="2.3754821291107673"><ele>453.5</ele><time>2026-04-29T18:27:55Z</time></trkpt><trkpt lat="44.01404532704703" lon="2.375802725832308"><ele>454.0</ele><time>2026-04-29T18:27:56Z</time></trkpt><trkpt lat="44.01406819663838" lon="2.37612313328133"><ele>455.5</ele><time>2026-04-29T18:27:57Z</time></trkpt><trkpt lat="44.01408988640598" lon="2.3764456057941885"><ele>457.0</ele><time>2026-04-29T18:27:58Z</time></trkpt><trkpt lat="44.014116203567205" lon="2.376767407096402"><ele>457.0</ele><time>2026-04-29T18:27:59Z</time></trkpt><trkpt lat="44.01413707555667" lon="2.3770920782225433"><ele>457.0</ele><time>2026-04-29T18:28:00Z</time></trkpt><trkpt lat="44.01415983817312" lon="2.377420331175614"><ele>456.5</ele><time>2026-04-29T18:28:01Z</time></trkpt><trkpt lat="44.01418838380148" lon="2.3777493162316645"><ele>456.0</ele><time>2026-04-29T18:28:02Z</time></trkpt><trkpt lat="44.014208878989216" lon="2.378078347621995"><ele>456.0</ele><time>2026-04-29T18:28:03Z</time></trkpt><trkpt lat="44.014234319147526" lon="2.3784071267369336"><ele>456.0</ele><time>2026-04-29T18:28:04Z</time></trkpt><trkpt lat="44.01425425924265" lon="2.3787386935024384"><ele>455.5</ele><time>2026-04-29T18:28:05Z</time></trkpt><trkpt lat="44.01427741242409" lon="2.379072142209347"><ele>455.0</ele><time>2026-04-29T18:28:06Z</time></trkpt><trkpt lat="44.01430251661187" lon="2.379406459185618"><ele>455.0</ele><time>2026-04-29T18:28:07Z</time></trkpt><trkpt lat="44.01432433033041" lon="2.379746438459784"><ele>455.0</ele><time>2026-04-29T18:28:08Z</time></trkpt><trkpt lat="44.01434094569101" lon="2.3800953672204996"><ele>455.0</ele><time>2026-04-29T18:28:09Z</time></trkpt><trkpt lat="44.01435926777223" lon="2.380440373902386"><ele>455.0</ele><time>2026-04-29T18:28:10Z</time></trkpt><trkpt lat="44.014381255437314" lon="2.380789128550829"><ele>455.0</ele><time>2026-04-29T18:28:11Z</time></trkpt><trkpt lat="44.01440091021115" lon="2.3811443719137557"><ele>455.0</ele><time>2026-04-29T18:28:12Z</time></trkpt><trkpt lat="44.014425824711665" lon="2.381502607365714"><ele>454.5</ele><time>2026-04-29T18:28:13Z</time></trkpt><trkpt lat="44.01444763224965" lon="2.3818621679785377"><ele>454.0</ele><time>2026-04-29T18:28:14Z</time></trkpt><trkpt lat="44.014465763242654" lon="2.38222597349075"><ele>454.0</ele><time>2026-04-29T18:28:15Z</time></trkpt><trkpt lat="44.014488472751786" lon="2.382586013637465"><ele>454.0</ele><time>2026-04-29T18:28:16Z</time></trkpt><trkpt lat="44.01450963354833" lon="2.3829472316434197"><ele>453.5</ele><time>2026-04-29T18:28:17Z</time></trkpt><trkpt lat="44.01452926437637" lon="2.3833000841594334"><ele>453.0</ele><time>2026-04-29T18:28:18Z</time></trkpt><trkpt lat="44.01454771810892" lon="2.383652125854617"><ele>452.0</ele><time>2026-04-29T18:28:19Z</time></trkpt><trkpt lat="44.014563284073546" lon="2.383999513049573"><ele>451.0</ele><time>2026-04-29T18:28:20Z</time></trkpt><trkpt lat="44.0145974382313" lon="2.3843598850919183"><ele>451.0</ele><time>2026-04-29T18:28:21Z</time></trkpt><trkpt lat="44.01461725831539" lon="2.38471220284478"><ele>451.0</ele><time>2026-04-29T18:28:22Z</time></trkpt><trkpt lat="44.01463645724506" lon="2.385071482386872"><ele>451.0</ele><time>2026-04-29T18:28:23Z</time></trkpt><trkpt lat="44.01464994100066" lon="2.3854169775390752"><ele>451.0</ele><time>2026-04-29T18:28:24Z</time></trkpt><trkpt lat="44.01467474769215" lon="2.3857715809083757"><ele>450.5</ele><time>2026-04-29T18:28:25Z</time></trkpt><trkpt lat="44.014691764762865" lon="2.3861205715390974"><ele>450.0</ele><time>2026-04-29T18:28:26Z</time></trkpt><trkpt lat="44.01471099060942" lon="2.386460693202597"><ele>451.0</ele><time>2026-04-29T18:28:27Z</time></trkpt><trkpt lat="44.01473462207076" lon="2.386809498122768"><ele>452.0</ele><time>2026-04-29T18:28:28Z</time></trkpt><trkpt lat="44.01476283945212" lon="2.387150252631181"><ele>453.5</ele><time>2026-04-29T18:28:29Z</time></trkpt><trkpt lat="44.01478986023264" lon="2.387488512441705"><ele>455.0</ele><time>2026-04-29T18:28:30Z</time></trkpt><trkpt lat="44.0148200142932" lon="2.3878232337506353"><ele>455.5</ele><time>2026-04-29T18:28:31Z</time></trkpt><trkpt lat="44.01484802502954" lon="2.388152897820654"><ele>456.0</ele><time>2026-04-29T18:28:32Z</time></trkpt><trkpt lat="44.01487330307541" lon="2.3884835294970306"><ele>456.0</ele><time>2026-04-29T18:28:33Z</time></trkpt><trkpt lat="44.014897949734674" lon="2.3888065697023837"><ele>456.0</ele><time>2026-04-29T18:28:34Z</time></trkpt><trkpt lat="44.014919674905954" lon="2.3891252615057335"><ele>457.5</ele><time>2026-04-29T18:28:35Z</time></trkpt><trkpt lat="44.014941927473096" lon="2.3894385220909315"><ele>459.0</ele><time>2026-04-29T18:28:36Z</time></trkpt><trkpt lat="44.01496641099621" lon="2.3897504857254144"><ele>459.0</ele><time>2026-04-29T18:28:37Z</time></trkpt><trkpt lat="44.014982414592346" lon="2.390054135626923"><ele>459.0</ele><time>2026-04-29T18:28:38Z</time></trkpt><trkpt lat="44.01500354267245" lon="2.3903555904810565"><ele>459.0</ele><time>2026-04-29T18:28:39Z</time></trkpt><trkpt lat="44.015036465209015" lon="2.390650319132383"><ele>460.0</ele><time>2026-04-29T18:28:40Z</time></trkpt><trkpt lat="44.015092281106455" lon="2.390922339604091"><ele>461.0</ele><time>2026-04-29T18:28:41Z</time></trkpt><trkpt lat="44.015160397553835" lon="2.391170987645016"><ele>462.0</ele><time>2026-04-29T18:28:42Z</time></trkpt><trkpt lat="44.015233873459685" lon="2.3913917224799377"><ele>462.33333333333337</ele><time>2026-04-29T18:28:43Z</time></trkpt><trkpt lat="44.015304562085" lon="2.3915946820045693"><ele>462.6666666666667</ele><time>2026-04-29T18:28:44Z</time></trkpt><trkpt lat="44.01537040474751" lon="2.3917874385397364"><ele>463.0</ele><time>2026-04-29T18:28:45Z</time></trkpt><trkpt lat="44.015429219205465" lon="2.391964142359857"><ele>463.0</ele><time>2026-04-29T18:28:46Z</time></trkpt><trkpt lat="44.015486411441394" lon="2.3921249447572728"><ele>462.99999999999994</ele><time>2026-04-29T18:28:47Z</time></trkpt><trkpt lat="44.01553908563324" lon="2.3922727358584246"><ele>462.99999999999994</ele><time>2026-04-29T18:28:48Z</time></trkpt><trkpt lat="44.01557589677077" lon="2.3924070516038816"><ele>463.0</ele><time>2026-04-29T18:28:49Z</time></trkpt><trkpt lat="44.01561667589924" lon="2.3925311046468036"><ele>463.0</ele><time>2026-04-29T18:28:50Z</time></trkpt><trkpt lat="44.01565507409698" lon="2.3926351086474877"><ele>463.0</ele><time>2026-04-29T18:28:51Z</time></trkpt><trkpt lat="44.01569928359927" lon="2.3927877555144743"><ele>463.0</ele><time>2026-04-29T18:28:53Z</time></trkpt><trkpt lat="44.015735931751706" lon="2.3929363819920293"><ele>463.0</ele><time>2026-04-29T18:28:55Z</time></trkpt><trkpt lat="44.015814262390215" lon="2.393057343168466"><ele>463.0</ele><time>2026-04-29T18:28:57Z</time></trkpt><trkpt lat="44.01586079882086" lon="2.393226592988496"><ele>462.5</ele><time>2026-04-29T18:28:59Z</time></trkpt><trkpt lat="44.015914856635575" lon="2.393338868419538"><ele>462.0</ele><time>2026-04-29T18:29:00Z</time></trkpt><trkpt lat="44.015959014399556" lon="2.3934998367330493"><ele>461.5</ele><time>2026-04-29T18:29:01Z</time></trkpt><trkpt lat="44.0160211531818" lon="2.393683188184043"><ele>461.0</ele><time>2026-04-29T18:29:02Z</time></trkpt><trkpt lat="44.01608885688007" lon="2.3938810321864974"><ele>460.0</ele><time>2026-04-29T18:29:03Z</time></trkpt><trkpt lat="44.01616384831932" lon="2.394095775100417"><ele>459.0</ele><time>2026-04-29T18:29:04Z</time></trkpt><trkpt lat="44.01623940254654" lon="2.3943230212329536"><ele>458.0</ele><time>2026-04-29T18:29:05Z</time></trkpt><trkpt lat="44.016317267748164" lon="2.3945502169543325"><ele>457.3333333333333</ele><time>2026-04-29T18:29:06Z</time></trkpt><trkpt lat="44.016395895142466" lon="2.394767462457335"><ele>456.66666666666663</ele><time>2026-04-29T18:29:07Z</time></trkpt><trkpt lat="44.01646238698175" lon="2.394972962619957"><ele>456.0</ele><time>2026-04-29T18:29:08Z</time></trkpt><trkpt lat="44.016526575529895" lon="2.3951626179472534"><ele>456.0</ele><time>2026-04-29T18:29:09Z</time></trkpt><trkpt lat="44.01658328725452" lon="2.3953421088079008"><ele>456.0</ele><time>2026-04-29T18:29:10Z</time></trkpt><trkpt lat="44.016637739843574" lon="2.3955071037857696"><ele>456.0</ele><time>2026-04-29T18:29:11Z</time></trkpt><trkpt lat="44.01668926723073" lon="2.3956605379213447"><ele>456.0</ele><time>2026-04-29T18:29:12Z</time></trkpt><trkpt lat="44.01673356365995" lon="2.395791318006135"><ele>456.1666666666667</ele><time>2026-04-29T18:29:13Z</time></trkpt><trkpt lat="44.01677412931572" lon="2.3959017607300463"><ele>456.33333333333337</ele><time>2026-04-29T18:29:14Z</time></trkpt><trkpt lat="44.01680980368581" lon="2.3960040058383827"><ele>456.5</ele><time>2026-04-29T18:29:15Z</time></trkpt><trkpt lat="44.016839423798025" lon="2.3960940895054135"><ele>456.6666666666667</ele><time>2026-04-29T18:29:16Z</time></trkpt><trkpt lat="44.01687043253322" lon="2.3961800926409444"><ele>456.83333333333337</ele><time>2026-04-29T18:29:17Z</time></trkpt><trkpt lat="44.01692836412782" lon="2.3963438746592653"><ele>457.0</ele><time>2026-04-29T18:29:19Z</time></trkpt><trkpt lat="44.0169628134547" lon="2.396426889723572"><ele>456.0</ele><time>2026-04-29T18:29:20Z</time></trkpt><trkpt lat="44.01699136794814" lon="2.3965167372590126"><ele>455.00000000000006</ele><time>2026-04-29T18:29:21Z</time></trkpt><trkpt lat="44.01702571560392" lon="2.3966285969688887"><ele>454.00000000000006</ele><time>2026-04-29T18:29:22Z</time></trkpt><trkpt lat="44.0170725290942" lon="2.3967611354029192"><ele>453.0</ele><time>2026-04-29T18:29:23Z</time></trkpt><trkpt lat="44.017123609243676" lon="2.396916510044826"><ele>452.0</ele><time>2026-04-29T18:29:24Z</time></trkpt><trkpt lat="44.017189168280005" lon="2.3970902130757366"><ele>451.0</ele><time>2026-04-29T18:29:25Z</time></trkpt><trkpt lat="44.01725275522909" lon="2.3972761958716653"><ele>450.0</ele><time>2026-04-29T18:29:26Z</time></trkpt><trkpt lat="44.017321572668834" lon="2.397470252508264"><ele>449.0</ele><time>2026-04-29T18:29:27Z</time></trkpt><trkpt lat="44.01739385256785" lon="2.3976700814017127"><ele>449.0</ele><time>2026-04-29T18:29:28Z</time></trkpt><trkpt lat="44.0174597938078" lon="2.397874911026378"><ele>449.0</ele><time>2026-04-29T18:29:29Z</time></trkpt><trkpt lat="44.01753430551675" lon="2.3980827066933506"><ele>449.0</ele><time>2026-04-29T18:29:30Z</time></trkpt><trkpt lat="44.01759820763223" lon="2.398283021903172"><ele>450.0</ele><time>2026-04-29T18:29:31Z</time></trkpt><trkpt lat="44.01766450741573" lon="2.3984611730258782"><ele>451.0</ele><time>2026-04-29T18:29:32Z</time></trkpt><trkpt lat="44.01770699849672" lon="2.3986371487947724"><ele>452.0</ele><time>2026-04-29T18:29:33Z</time></trkpt><trkpt lat="44.01775813045819" lon="2.3987892540252425"><ele>453.0</ele><time>2026-04-29T18:29:34Z</time></trkpt><trkpt lat="44.01780430985972" lon="2.3989263946333543"><ele>453.1666666666667</ele><time>2026-04-29T18:29:35Z</time></trkpt><trkpt lat="44.01784483240473" lon="2.3990466811887834"><ele>453.33333333333337</ele><time>2026-04-29T18:29:36Z</time></trkpt><trkpt lat="44.01787959017348" lon="2.3991498556581723"><ele>453.5</ele><time>2026-04-29T18:29:37Z</time></trkpt><trkpt lat="44.017908901165164" lon="2.399236861996376"><ele>453.6666666666667</ele><time>2026-04-29T18:29:38Z</time></trkpt><trkpt lat="44.01796257694638" lon="2.399396192470084"><ele>453.83333333333337</ele><time>2026-04-29T18:29:40Z</time></trkpt><trkpt lat="44.01799359282465" lon="2.3994922484529986"><ele>454.0</ele><time>2026-04-29T18:29:41Z</time></trkpt><trkpt lat="44.01803002273979" lon="2.3995965867938303"><ele>454.25</ele><time>2026-04-29T18:29:42Z</time></trkpt><trkpt lat="44.018067855241114" lon="2.3997066968288125"><ele>454.5</ele><time>2026-04-29T18:29:43Z</time></trkpt><trkpt lat="44.01811627709516" lon="2.399847626734858"><ele>454.75</ele><time>2026-04-29T18:29:44Z</time></trkpt><trkpt lat="44.01817163304313" lon="2.400008738187325"><ele>455.0</ele><time>2026-04-29T18:29:45Z</time></trkpt><trkpt lat="44.01823162093241" lon="2.400183503191406"><ele>455.0</ele><time>2026-04-29T18:29:46Z</time></trkpt><trkpt lat="44.018312520222715" lon="2.400366904638072"><ele>455.0</ele><time>2026-04-29T18:29:47Z</time></trkpt><trkpt lat="44.01836685741776" lon="2.4005897673523133"><ele>455.0</ele><time>2026-04-29T18:29:48Z</time></trkpt><trkpt lat="44.01843448036296" lon="2.4008106851685977"><ele>456.3333333333333</ele><time>2026-04-29T18:29:49Z</time></trkpt><trkpt lat="44.018509771982714" lon="2.4010280105759625"><ele>457.66666666666663</ele><time>2026-04-29T18:29:50Z</time></trkpt><trkpt lat="44.018584639093476" lon="2.401246094230579"><ele>459.0</ele><time>2026-04-29T18:29:51Z</time></trkpt><trkpt lat="44.018652506699716" lon="2.4014485052155736"><ele>459.25</ele><time>2026-04-29T18:29:52Z</time></trkpt><trkpt lat="44.01871440375911" lon="2.4016293979634664"><ele>459.5</ele><time>2026-04-29T18:29:53Z</time></trkpt><trkpt lat="44.01876726296998" lon="2.401789652048958"><ele>459.75</ele><time>2026-04-29T18:29:54Z</time></trkpt><trkpt lat="44.01881347070008" lon="2.4019273111526096"><ele>460.0</ele><time>2026-04-29T18:29:55Z</time></trkpt><trkpt lat="44.01885861480031" lon="2.4020427050781246"><ele>460.0</ele><time>2026-04-29T18:29:56Z</time></trkpt><trkpt lat="44.018893895217076" lon="2.4021379510466256"><ele>460.0</ele><time>2026-04-29T18:29:57Z</time></trkpt><trkpt lat="44.0189440480279" lon="2.402271486615807"><ele>460.0</ele><time>2026-04-29T18:29:59Z</time></trkpt><trkpt lat="44.018996854807845" lon="2.4024037416963444"><ele>460.0</ele><time>2026-04-29T18:30:01Z</time></trkpt><trkpt lat="44.01905439148403" lon="2.4025489280391588"><ele>460.0</ele><time>2026-04-29T18:30:03Z</time></trkpt><trkpt lat="44.019077950415785" lon="2.4026339496022855"><ele>461.0</ele><time>2026-04-29T18:30:04Z</time></trkpt><trkpt lat="44.01910956126926" lon="2.4027137226359114"><ele>462.0</ele><time>2026-04-29T18:30:05Z</time></trkpt><trkpt lat="44.01913956616697" lon="2.402801698085876"><ele>463.0</ele><time>2026-04-29T18:30:06Z</time></trkpt><trkpt lat="44.019170715361916" lon="2.402948324125028"><ele>464.0</ele><time>2026-04-29T18:30:08Z</time></trkpt><trkpt lat="44.019234701075156" lon="2.4030879195221075"><ele>465.0</ele><time>2026-04-29T18:30:10Z</time></trkpt><trkpt lat="44.019283358117974" lon="2.4032493964151755"><ele>465.6</ele><time>2026-04-29T18:30:12Z</time></trkpt><trkpt lat="44.01931547005077" lon="2.403337173812468"><ele>466.2</ele><time>2026-04-29T18:30:13Z</time></trkpt><trkpt lat="44.0193733826298" lon="2.4034930852182255"><ele>466.79999999999995</ele><time>2026-04-29T18:30:15Z</time></trkpt><trkpt lat="44.019402585164904" lon="2.403576081067021"><ele>467.4</ele><time>2026-04-29T18:30:16Z</time></trkpt><trkpt lat="44.019434338830955" lon="2.403715481015167"><ele>468.0</ele><time>2026-04-29T18:30:18Z</time></trkpt><trkpt lat="44.019488202886144" lon="2.403871264761444"><ele>468.0</ele><time>2026-04-29T18:30:20Z</time></trkpt><trkpt lat="44.01952162777768" lon="2.4039679350713765"><ele>467.99999999999994</ele><time>2026-04-29T18:30:21Z</time></trkpt><trkpt lat="44.019566224886084" lon="2.4040973566845087"><ele>467.99999999999994</ele><time>2026-04-29T18:30:22Z</time></trkpt><trkpt lat="44.019623782920604" lon="2.4042285098534917"><ele>468.0</ele><time>2026-04-29T18:30:23Z</time></trkpt><trkpt lat="44.019675299770846" lon="2.4043580768499373"><ele>468.0</ele><time>2026-04-29T18:30:24Z</time></trkpt><trkpt lat="44.01972290335554" lon="2.404493760844764"><ele>468.0</ele><time>2026-04-29T18:30:25Z</time></trkpt><trkpt lat="44.01976612987136" lon="2.404618849639244"><ele>468.0</ele><time>2026-04-29T18:30:26Z</time></trkpt><trkpt lat="44.019806667015104" lon="2.4047361559301956"><ele>468.0</ele><time>2026-04-29T18:30:27Z</time></trkpt><trkpt lat="44.01984180516981" lon="2.4048368746908326"><ele>468.0</ele><time>2026-04-29T18:30:28Z</time></trkpt><trkpt lat="44.01987360358776" lon="2.4049278004894767"><ele>468.0</ele><time>2026-04-29T18:30:29Z</time></trkpt><trkpt lat="44.01990278866203" lon="2.40501124226501"><ele>468.0</ele><time>2026-04-29T18:30:30Z</time></trkpt><trkpt lat="44.019933195151204" lon="2.4050981761338766"><ele>468.2</ele><time>2026-04-29T18:30:31Z</time></trkpt><trkpt lat="44.019969768972764" lon="2.4052027427562015"><ele>468.4</ele><time>2026-04-29T18:30:32Z</time></trkpt><trkpt lat="44.02001316225287" lon="2.4053268066140667"><ele>468.59999999999997</ele><time>2026-04-29T18:30:33Z</time></trkpt><trkpt lat="44.020060286856975" lon="2.405463616392218"><ele>468.79999999999995</ele><time>2026-04-29T18:30:34Z</time></trkpt><trkpt lat="44.020111693579196" lon="2.4056131287754505"><ele>469.0</ele><time>2026-04-29T18:30:35Z</time></trkpt><trkpt lat="44.02016436860373" lon="2.405766329930241"><ele>469.25</ele><time>2026-04-29T18:30:36Z</time></trkpt><trkpt lat="44.02021947783514" lon="2.4059288656651154"><ele>469.5</ele><time>2026-04-29T18:30:37Z</time></trkpt><trkpt lat="44.02026975571955" lon="2.406098450283751"><ele>469.75</ele><time>2026-04-29T18:30:38Z</time></trkpt><trkpt lat="44.020322296124334" lon="2.4062799871875695"><ele>470.0</ele><time>2026-04-29T18:30:39Z</time></trkpt><trkpt lat="44.020397316423015" lon="2.406449855389486"><ele>470.25</ele><time>2026-04-29T18:30:40Z</time></trkpt><trkpt lat="44.02045027671053" lon="2.4066400892705935"><ele>470.5</ele><time>2026-04-29T18:30:41Z</time></trkpt><trkpt lat="44.02051213060175" lon="2.406813832390782"><ele>470.75</ele><time>2026-04-29T18:30:42Z</time></trkpt><trkpt lat="44.020572889421366" lon="2.406996631169706"><ele>471.0</ele><time>2026-04-29T18:30:43Z</time></trkpt><trkpt lat="44.020627327285766" lon="2.4071803957250024"><ele>471.5</ele><time>2026-04-29T18:30:44Z</time></trkpt><trkpt lat="44.02068317539372" lon="2.407380673156933"><ele>472.0</ele><time>2026-04-29T18:30:45Z</time></trkpt><trkpt lat="44.02073570461684" lon="2.407571927040856"><ele>472.5</ele><time>2026-04-29T18:30:46Z</time></trkpt><trkpt lat="44.02078897640501" lon="2.4077601910659854"><ele>473.0</ele><time>2026-04-29T18:30:47Z</time></trkpt><trkpt lat="44.02083486230164" lon="2.407922515793734"><ele>473.4</ele><time>2026-04-29T18:30:48Z</time></trkpt><trkpt lat="44.02087378139746" lon="2.408069965373223"><ele>473.79999999999995</ele><time>2026-04-29T18:30:49Z</time></trkpt><trkpt lat="44.02090860718295" lon="2.408207274136883"><ele>474.2</ele><time>2026-04-29T18:30:50Z</time></trkpt><trkpt lat="44.02094109831746" lon="2.4083358748436106"><ele>474.6</ele><time>2026-04-29T18:30:51Z</time></trkpt><trkpt lat="44.020971030465226" lon="2.4084543469271837"><ele>475.0</ele><time>2026-04-29T18:30:52Z</time></trkpt><trkpt lat="44.02099737750075" lon="2.4085481763053043"><ele>475.00000000000006</ele><time>2026-04-29T18:30:53Z</time></trkpt><trkpt lat="44.02104954233776" lon="2.4086953590526976"><ele>475.0</ele><time>2026-04-29T18:30:55Z</time></trkpt><trkpt lat="44.021091537511914" lon="2.4087687079977806"><ele>475.0</ele><time>2026-04-29T18:30:56Z</time></trkpt><trkpt lat="44.021129885330694" lon="2.408845543930042"><ele>475.0</ele><time>2026-04-29T18:30:57Z</time></trkpt><trkpt lat="44.02111467785604" lon="2.408963333472785"><ele>475.00000000000006</ele><time>2026-04-29T18:30:58Z</time></trkpt><trkpt lat="44.02114423496166" lon="2.409072445747507"><ele>475.0</ele><time>2026-04-29T18:30:59Z</time></trkpt><trkpt lat="44.021192996140385" lon="2.4091891651779562"><ele>475.5</ele><time>2026-04-29T18:31:00Z</time></trkpt><trkpt lat="44.02123039260512" lon="2.4093301853875615"><ele>476.0</ele><time>2026-04-29T18:31:01Z</time></trkpt><trkpt lat="44.02126822886055" lon="2.40948095918746"><ele>476.5</ele><time>2026-04-29T18:31:02Z</time></trkpt><trkpt lat="44.0213109988457" lon="2.409645802162553"><ele>477.0</ele><time>2026-04-29T18:31:03Z</time></trkpt><trkpt lat="44.021360654023034" lon="2.4098159538563255"><ele>477.0</ele><time>2026-04-29T18:31:04Z</time></trkpt><trkpt lat="44.021408387647426" lon="2.409998603906066"><ele>477.0</ele><time>2026-04-29T18:31:05Z</time></trkpt><trkpt lat="44.021471714116124" lon="2.4101697742019565"><ele>477.0</ele><time>2026-04-29T18:31:06Z</time></trkpt><trkpt lat="44.02153888894159" lon="2.4103235800484786"><ele>477.0</ele><time>2026-04-29T18:31:07Z</time></trkpt><trkpt lat="44.02161085507562" lon="2.4104727434036604"><ele>477.20000000000005</ele><time>2026-04-29T18:31:08Z</time></trkpt><trkpt lat="44.021676896527055" lon="2.4106063212183555"><ele>477.40000000000003</ele><time>2026-04-29T18:31:09Z</time></trkpt><trkpt lat="44.0217339004956" lon="2.4107253772105137"><ele>477.59999999999997</ele><time>2026-04-29T18:31:10Z</time></trkpt><trkpt lat="44.0217862844704" lon="2.410840362775257"><ele>477.79999999999995</ele><time>2026-04-29T18:31:11Z</time></trkpt><trkpt lat="44.02183428779134" lon="2.4109457325206956"><ele>478.0</ele><time>2026-04-29T18:31:12Z</time></trkpt><trkpt lat="44.02187803770359" lon="2.411043138408496"><ele>478.0</ele><time>2026-04-29T18:31:13Z</time></trkpt><trkpt lat="44.02192290037701" lon="2.4111480810416692"><ele>477.99999999999994</ele><time>2026-04-29T18:31:14Z</time></trkpt><trkpt lat="44.021971128337896" lon="2.411263304922579"><ele>477.99999999999994</ele><time>2026-04-29T18:31:15Z</time></trkpt><trkpt lat="44.022026126446676" lon="2.411401964773039"><ele>478.0</ele><time>2026-04-29T18:31:16Z</time></trkpt><trkpt lat="44.02208488907617" lon="2.411556444227614"><ele>478.0</ele><time>2026-04-29T18:31:17Z</time></trkpt><trkpt lat="44.022141140916176" lon="2.411721738950141"><ele>478.0</ele><time>2026-04-29T18:31:18Z</time></trkpt><trkpt lat="44.02225062309838" lon="2.4118671998202044"><ele>478.0</ele><time>2026-04-29T18:31:19Z</time></trkpt><trkpt lat="44.02229974925936" lon="2.412054580760088"><ele>478.0</ele><time>2026-04-29T18:31:20Z</time></trkpt><trkpt lat="44.02235259940392" lon="2.412229313705578"><ele>478.0</ele><time>2026-04-29T18:31:21Z</time></trkpt><trkpt lat="44.02240190729422" lon="2.4124114335370135"><ele>478.0</ele><time>2026-04-29T18:31:22Z</time></trkpt><trkpt lat="44.02237486577563" lon="2.412618134245934"><ele>478.0</ele><time>2026-04-29T18:31:23Z</time></trkpt><trkpt lat="44.02241031675784" lon="2.4127948301942044"><ele>478.0</ele><time>2026-04-29T18:31:24Z</time></trkpt><trkpt lat="44.02243270154161" lon="2.4129777235325665"><ele>478.0</ele><time>2026-04-29T18:31:25Z</time></trkpt><trkpt lat="44.022444349740084" lon="2.4131562117136243"><ele>477.6666666666667</ele><time>2026-04-29T18:31:26Z</time></trkpt><trkpt lat="44.02245174522915" lon="2.413372726179105"><ele>477.33333333333337</ele><time>2026-04-29T18:31:27Z</time></trkpt><trkpt lat="44.02245753233043" lon="2.4135944642767804"><ele>477.0</ele><time>2026-04-29T18:31:28Z</time></trkpt><trkpt lat="44.02252365236921" lon="2.4138509319228008"><ele>478.66666666666663</ele><time>2026-04-29T18:31:29Z</time></trkpt><trkpt lat="44.022515303437935" lon="2.414134085573232"><ele>480.3333333333333</ele><time>2026-04-29T18:31:30Z</time></trkpt><trkpt lat="44.02253191821747" lon="2.414443033740136"><ele>482.0</ele><time>2026-04-29T18:31:31Z</time></trkpt><trkpt lat="44.022530753821506" lon="2.4147666498374596"><ele>482.5</ele><time>2026-04-29T18:31:32Z</time></trkpt><trkpt lat="44.022483644659914" lon="2.415089407835524"><ele>483.0</ele><time>2026-04-29T18:31:33Z</time></trkpt><trkpt lat="44.022469512559304" lon="2.415404956178786"><ele>483.33333333333337</ele><time>2026-04-29T18:31:34Z</time></trkpt><trkpt lat="44.022434353154" lon="2.415710257971979"><ele>483.6666666666667</ele><time>2026-04-29T18:31:35Z</time></trkpt><trkpt lat="44.02238310324802" lon="2.4160137723479127"><ele>484.0</ele><time>2026-04-29T18:31:36Z</time></trkpt><trkpt lat="44.02230303588864" lon="2.4163039968468207"><ele>485.5</ele><time>2026-04-29T18:31:37Z</time></trkpt><trkpt lat="44.0221975691311" lon="2.4165899918946563"><ele>487.0</ele><time>2026-04-29T18:31:38Z</time></trkpt><trkpt lat="44.022091978918326" lon="2.4168868872227196"><ele>489.5</ele><time>2026-04-29T18:31:39Z</time></trkpt><trkpt lat="44.02198388386275" lon="2.417195771179362"><ele>492.0</ele><time>2026-04-29T18:31:40Z</time></trkpt><trkpt lat="44.02186775439903" lon="2.4175137623803646"><ele>492.0</ele><time>2026-04-29T18:31:41Z</time></trkpt><trkpt lat="44.0217512265584" lon="2.4178430566268334"><ele>492.0</ele><time>2026-04-29T18:31:42Z</time></trkpt><trkpt lat="44.02163007104465" lon="2.4181811432458695"><ele>494.0</ele><time>2026-04-29T18:31:43Z</time></trkpt><trkpt lat="44.0215143362151" lon="2.418535822592838"><ele>496.0</ele><time>2026-04-29T18:31:44Z</time></trkpt><trkpt lat="44.02139158958786" lon="2.4188934462183296"><ele>498.0</ele><time>2026-04-29T18:31:45Z</time></trkpt><trkpt lat="44.02124929344776" lon="2.4192478062784373"><ele>500.0</ele><time>2026-04-29T18:31:46Z</time></trkpt><trkpt lat="44.021119515558084" lon="2.4196153697865093"><ele>501.0</ele><time>2026-04-29T18:31:47Z</time></trkpt><trkpt lat="44.020988015708696" lon="2.419987810287545"><ele>502.0</ele><time>2026-04-29T18:31:48Z</time></trkpt><trkpt lat="44.020854716804884" lon="2.4203671432546887"><ele>506.0</ele><time>2026-04-29T18:31:49Z</time></trkpt><trkpt lat="44.020718416517845" lon="2.4207549979366165"><ele>510.0</ele><time>2026-04-29T18:31:50Z</time></trkpt><trkpt lat="44.020581509831935" lon="2.421144578151825"><ele>511.5</ele><time>2026-04-29T18:31:51Z</time></trkpt><trkpt lat="44.0204449163639" lon="2.421533267097871"><ele>513.0</ele><time>2026-04-29T18:31:52Z</time></trkpt><trkpt lat="44.02030681100816" lon="2.4219256664359627"><ele>513.0</ele><time>2026-04-29T18:31:53Z</time></trkpt><trkpt lat="44.02017100312578" lon="2.422310677632902"><ele>513.0</ele><time>2026-04-29T18:31:54Z</time></trkpt><trkpt lat="44.02005176218368" lon="2.422648722052982"><ele>513.0</ele><time>2026-04-29T18:31:55Z</time></trkpt><trkpt lat="44.01995548701752" lon="2.4229646562304605"><ele>513.0</ele><time>2026-04-29T18:31:56Z</time></trkpt><trkpt lat="44.019853074449095" lon="2.423252747016344"><ele>513.0</ele><time>2026-04-29T18:31:57Z</time></trkpt><trkpt lat="44.01974971435027" lon="2.4235274910095925"><ele>513.0</ele><time>2026-04-29T18:31:58Z</time></trkpt><trkpt lat="44.01965188799299" lon="2.423793688882097"><ele>513.0</ele><time>2026-04-29T18:31:59Z</time></trkpt><trkpt lat="44.01956651647772" lon="2.424051021670556"><ele>515.0</ele><time>2026-04-29T18:32:00Z</time></trkpt><trkpt lat="44.01948758117777" lon="2.4243023684946907"><ele>517.0</ele><time>2026-04-29T18:32:01Z</time></trkpt><trkpt lat="44.01942799458784" lon="2.424548113407245"><ele>519.0</ele><time>2026-04-29T18:32:02Z</time></trkpt><trkpt lat="44.01939712649765" lon="2.42479267429883"><ele>520.6666666666666</ele><time>2026-04-29T18:32:03Z</time></trkpt><trkpt lat="44.01939317219896" lon="2.425032663755993"><ele>522.3333333333333</ele><time>2026-04-29T18:32:04Z</time></trkpt><trkpt lat="44.01941738076549" lon="2.4252771879076236"><ele>524.0</ele><time>2026-04-29T18:32:05Z</time></trkpt><trkpt lat="44.019463328334425" lon="2.425521482173618"><ele>524.6666666666666</ele><time>2026-04-29T18:32:06Z</time></trkpt><trkpt lat="44.01952818674864" lon="2.4257656566763233"><ele>525.3333333333334</ele><time>2026-04-29T18:32:07Z</time></trkpt><trkpt lat="44.01959733209649" lon="2.4260168432936133"><ele>526.0</ele><time>2026-04-29T18:32:08Z</time></trkpt><trkpt lat="44.01965250185757" lon="2.4262774733130392"><ele>526.6666666666667</ele><time>2026-04-29T18:32:09Z</time></trkpt><trkpt lat="44.01970345499602" lon="2.4265391065029203"><ele>527.3333333333334</ele><time>2026-04-29T18:32:10Z</time></trkpt><trkpt lat="44.019737095205606" lon="2.4268185716002386"><ele>528.0</ele><time>2026-04-29T18:32:11Z</time></trkpt><trkpt lat="44.019759878194215" lon="2.4271121746074003"><ele>529.0</ele><time>2026-04-29T18:32:12Z</time></trkpt><trkpt lat="44.01977968621111" lon="2.427421120436701"><ele>530.0</ele><time>2026-04-29T18:32:13Z</time></trkpt><trkpt lat="44.019784478288585" lon="2.4277359331016584"><ele>531.0</ele><time>2026-04-29T18:32:14Z</time></trkpt><trkpt lat="44.01978990222518" lon="2.4280549931973447"><ele>531.5</ele><time>2026-04-29T18:32:15Z</time></trkpt><trkpt lat="44.0198160856431" lon="2.428381359315412"><ele>532.0</ele><time>2026-04-29T18:32:16Z</time></trkpt><trkpt lat="44.019830247707525" lon="2.428709433448792"><ele>532.5</ele><time>2026-04-29T18:32:17Z</time></trkpt><trkpt lat="44.01983975742309" lon="2.429036733647634"><ele>533.0</ele><time>2026-04-29T18:32:18Z</time></trkpt><trkpt lat="44.01984894704589" lon="2.429368225901598"><ele>534.5</ele><time>2026-04-29T18:32:19Z</time></trkpt><trkpt lat="44.01986232860705" lon="2.4297002854900716"><ele>536.0</ele><time>2026-04-29T18:32:20Z</time></trkpt><trkpt lat="44.0198751651918" lon="2.4300341135834107"><ele>536.0</ele><time>2026-04-29T18:32:21Z</time></trkpt><trkpt lat="44.01988316723648" lon="2.430369284536624"><ele>536.0</ele><time>2026-04-29T18:32:22Z</time></trkpt><trkpt lat="44.01988901500728" lon="2.430696503816406"><ele>536.5</ele><time>2026-04-29T18:32:23Z</time></trkpt><trkpt lat="44.019895167584274" lon="2.4310195351098898"><ele>537.0</ele><time>2026-04-29T18:32:24Z</time></trkpt><trkpt lat="44.01990119350386" lon="2.4313399467896772"><ele>539.5</ele><time>2026-04-29T18:32:25Z</time></trkpt><trkpt lat="44.019919400464836" lon="2.4316616086985468"><ele>542.0</ele><time>2026-04-29T18:32:26Z</time></trkpt><trkpt lat="44.01994594083479" lon="2.4319712981812374"><ele>543.0</ele><time>2026-04-29T18:32:27Z</time></trkpt><trkpt lat="44.01996015093791" lon="2.4322810491844087"><ele>544.0</ele><time>2026-04-29T18:32:28Z</time></trkpt><trkpt lat="44.01998498617028" lon="2.4325832738470496"><ele>545.0</ele><time>2026-04-29T18:32:29Z</time></trkpt><trkpt lat="44.02002191147571" lon="2.432875572444487"><ele>546.3333333333333</ele><time>2026-04-29T18:32:30Z</time></trkpt><trkpt lat="44.020070241747085" lon="2.4331643273828703"><ele>547.6666666666666</ele><time>2026-04-29T18:32:31Z</time></trkpt><trkpt lat="44.02013603899466" lon="2.433447100983578"><ele>549.0</ele><time>2026-04-29T18:32:32Z</time></trkpt><trkpt lat="44.02020838967063" lon="2.4337269605739658"><ele>548.5</ele><time>2026-04-29T18:32:33Z</time></trkpt><trkpt lat="44.020287730838945" lon="2.4340126194531475"><ele>548.0</ele><time>2026-04-29T18:32:34Z</time></trkpt><trkpt lat="44.020364633735056" lon="2.434313698243245"><ele>548.0</ele><time>2026-04-29T18:32:35Z</time></trkpt><trkpt lat="44.02043745875481" lon="2.4346112098362944"><ele>548.0</ele><time>2026-04-29T18:32:36Z</time></trkpt><trkpt lat="44.020495912591365" lon="2.434907457276617"><ele>548.0</ele><time>2026-04-29T18:32:37Z</time></trkpt><trkpt lat="44.02054140752438" lon="2.435206563194297"><ele>546.0</ele><time>2026-04-29T18:32:38Z</time></trkpt><trkpt lat="44.020565227958336" lon="2.4355066536653727"><ele>544.0</ele><time>2026-04-29T18:32:39Z</time></trkpt><trkpt lat="44.02057012703128" lon="2.435808993858088"><ele>542.0</ele><time>2026-04-29T18:32:40Z</time></trkpt><trkpt lat="44.020565341409984" lon="2.4361123471599364"><ele>543.0</ele><time>2026-04-29T18:32:41Z</time></trkpt><trkpt lat="44.02055979823009" lon="2.43641571731167"><ele>544.0</ele><time>2026-04-29T18:32:42Z</time></trkpt><trkpt lat="44.02055699186199" lon="2.4367236468823013"><ele>545.0</ele><time>2026-04-29T18:32:43Z</time></trkpt><trkpt lat="44.02054905059286" lon="2.4370319168704286"><ele>544.6666666666666</ele><time>2026-04-29T18:32:44Z</time></trkpt><trkpt lat="44.02054505322733" lon="2.4373357887452487"><ele>544.3333333333334</ele><time>2026-04-29T18:32:45Z</time></trkpt><trkpt lat="44.020555263239636" lon="2.4376334625686575"><ele>544.0</ele><time>2026-04-29T18:32:46Z</time></trkpt><trkpt lat="44.02058729870646" lon="2.4379074560151888"><ele>540.6666666666667</ele><time>2026-04-29T18:32:47Z</time></trkpt><trkpt lat="44.02063147932984" lon="2.4381562434716413"><ele>537.3333333333334</ele><time>2026-04-29T18:32:48Z</time></trkpt><trkpt lat="44.020697192490886" lon="2.438391579951807"><ele>534.0</ele><time>2026-04-29T18:32:49Z</time></trkpt><trkpt lat="44.020776379856066" lon="2.43862056688034"><ele>538.0</ele><time>2026-04-29T18:32:50Z</time></trkpt><trkpt lat="44.020863411814574" lon="2.438851201767039"><ele>542.0</ele><time>2026-04-29T18:32:51Z</time></trkpt><trkpt lat="44.020959779028146" lon="2.4390687397928787"><ele>546.0</ele><time>2026-04-29T18:32:52Z</time></trkpt><trkpt lat="44.02106687770063" lon="2.439296693575989"><ele>546.0</ele><time>2026-04-29T18:32:53Z</time></trkpt><trkpt lat="44.02118082042574" lon="2.4395161600021935"><ele>546.0</ele><time>2026-04-29T18:32:54Z</time></trkpt><trkpt lat="44.021301747906534" lon="2.4397260250353514"><ele>546.0</ele><time>2026-04-29T18:32:55Z</time></trkpt><trkpt lat="44.02143059688216" lon="2.4399267106388716"><ele>546.6666666666666</ele><time>2026-04-29T18:32:56Z</time></trkpt><trkpt lat="44.021565369563724" lon="2.440111353558602"><ele>547.3333333333333</ele><time>2026-04-29T18:32:57Z</time></trkpt><trkpt lat="44.02171033995475" lon="2.4402801727023404"><ele>548.0</ele><time>2026-04-29T18:32:58Z</time></trkpt><trkpt lat="44.02185850799206" lon="2.4404229384778526"><ele>553.0</ele><time>2026-04-29T18:32:59Z</time></trkpt><trkpt lat="44.0220121425146" lon="2.4405471386322253"><ele>558.0</ele><time>2026-04-29T18:33:00Z</time></trkpt><trkpt lat="44.02215730819729" lon="2.4406512393441915"><ele>563.0</ele><time>2026-04-29T18:33:01Z</time></trkpt><trkpt lat="44.022288506338775" lon="2.44074381740104"><ele>563.0</ele><time>2026-04-29T18:33:02Z</time></trkpt><trkpt lat="44.022404773988896" lon="2.4408291844176615"><ele>563.0</ele><time>2026-04-29T18:33:03Z</time></trkpt><trkpt lat="44.02250567670774" lon="2.440935762800232"><ele>563.0</ele><time>2026-04-29T18:33:04Z</time></trkpt><trkpt lat="44.022591402144265" lon="2.441051810107874"><ele>563.0</ele><time>2026-04-29T18:33:05Z</time></trkpt><trkpt lat="44.02266135841586" lon="2.4411937225051354"><ele>564.0</ele><time>2026-04-29T18:33:06Z</time></trkpt><trkpt lat="44.02271397978143" lon="2.441341002218792"><ele>565.0</ele><time>2026-04-29T18:33:07Z</time></trkpt><trkpt lat="44.02274476678319" lon="2.441507809666392"><ele>566.0</ele><time>2026-04-29T18:33:08Z</time></trkpt><trkpt lat="44.022774970481144" lon="2.4416867266535376"><ele>567.0</ele><time>2026-04-29T18:33:09Z</time></trkpt><trkpt lat="44.022803198984924" lon="2.4418646436452263"><ele>567.0</ele><time>2026-04-29T18:33:10Z</time></trkpt><trkpt lat="44.0228309000873" lon="2.4420418557993195"><ele>567.0</ele><time>2026-04-29T18:33:11Z</time></trkpt><trkpt lat="44.02285841257209" lon="2.4422386003267187"><ele>567.0</ele><time>2026-04-29T18:33:12Z</time></trkpt><trkpt lat="44.0228910499028" lon="2.442437065808478"><ele>567.0</ele><time>2026-04-29T18:33:13Z</time></trkpt><trkpt lat="44.02292009698656" lon="2.442643878627578"><ele>567.75</ele><time>2026-04-29T18:33:14Z</time></trkpt><trkpt lat="44.02294808715336" lon="2.442848585687598"><ele>568.5</ele><time>2026-04-29T18:33:15Z</time></trkpt><trkpt lat="44.02297173859296" lon="2.443035250114568"><ele>569.25</ele><time>2026-04-29T18:33:16Z</time></trkpt><trkpt lat="44.02301226456171" lon="2.443201739907075"><ele>570.0</ele><time>2026-04-29T18:33:17Z</time></trkpt><trkpt lat="44.02306682377733" lon="2.4433648668893757"><ele>570.25</ele><time>2026-04-29T18:33:18Z</time></trkpt><trkpt lat="44.02315071765883" lon="2.443509937186678"><ele>570.5</ele><time>2026-04-29T18:33:19Z</time></trkpt><trkpt lat="44.02324481881396" lon="2.4436404718164524"><ele>570.75</ele><time>2026-04-29T18:33:20Z</time></trkpt><trkpt lat="44.023357808148766" lon="2.4437475921844274"><ele>571.0</ele><time>2026-04-29T18:33:21Z</time></trkpt><trkpt lat="44.023483228321446" lon="2.443824157973856"><ele>569.25</ele><time>2026-04-29T18:33:22Z</time></trkpt><trkpt lat="44.02361950384105" lon="2.443865960919156"><ele>567.5</ele><time>2026-04-29T18:33:23Z</time></trkpt><trkpt lat="44.02376390279623" lon="2.4438967394361475"><ele>565.75</ele><time>2026-04-29T18:33:24Z</time></trkpt><trkpt lat="44.02391274899615" lon="2.44389903554081"><ele>564.0</ele><time>2026-04-29T18:33:25Z</time></trkpt><trkpt lat="44.02405185452068" lon="2.443902571007758"><ele>563.75</ele><time>2026-04-29T18:33:26Z</time></trkpt><trkpt lat="44.024173127287916" lon="2.4439222466091026"><ele>563.5</ele><time>2026-04-29T18:33:27Z</time></trkpt><trkpt lat="44.024294069258836" lon="2.4439694544902735"><ele>563.25</ele><time>2026-04-29T18:33:28Z</time></trkpt><trkpt lat="44.02440696373031" lon="2.4440749564767037"><ele>563.0</ele><time>2026-04-29T18:33:29Z</time></trkpt><trkpt lat="44.02450798915124" lon="2.444205841483414"><ele>563.0</ele><time>2026-04-29T18:33:30Z</time></trkpt><trkpt lat="44.02460213566682" lon="2.444360245767764"><ele>563.0</ele><time>2026-04-29T18:33:31Z</time></trkpt><trkpt lat="44.024697923029656" lon="2.444533878047552"><ele>563.0</ele><time>2026-04-29T18:33:32Z</time></trkpt><trkpt lat="44.02479310981243" lon="2.4447231940214964"><ele>565.0</ele><time>2026-04-29T18:33:33Z</time></trkpt><trkpt lat="44.02489031544189" lon="2.444938388196061"><ele>567.0</ele><time>2026-04-29T18:33:34Z</time></trkpt><trkpt lat="44.02499360193365" lon="2.445179079323128"><ele>569.0</ele><time>2026-04-29T18:33:35Z</time></trkpt><trkpt lat="44.02509715183143" lon="2.4454303930871224"><ele>566.5</ele><time>2026-04-29T18:33:36Z</time></trkpt><trkpt lat="44.0252043592808" lon="2.445708981400478"><ele>564.0</ele><time>2026-04-29T18:33:37Z</time></trkpt><trkpt lat="44.02530321252956" lon="2.446008743334607"><ele>565.0</ele><time>2026-04-29T18:33:38Z</time></trkpt><trkpt lat="44.02539036047072" lon="2.4463202852931407"><ele>566.0</ele><time>2026-04-29T18:33:39Z</time></trkpt><trkpt lat="44.02548753843814" lon="2.446640941117619"><ele>566.0</ele><time>2026-04-29T18:33:40Z</time></trkpt><trkpt lat="44.02558726950182" lon="2.446960417888419"><ele>566.0</ele><time>2026-04-29T18:33:41Z</time></trkpt><trkpt lat="44.02568196853669" lon="2.447280167780314"><ele>567.0</ele><time>2026-04-29T18:33:42Z</time></trkpt><trkpt lat="44.02577929030726" lon="2.447601798849203"><ele>568.0</ele><time>2026-04-29T18:33:43Z</time></trkpt><trkpt lat="44.02587656915421" lon="2.4479290925425805"><ele>570.0</ele><time>2026-04-29T18:33:44Z</time></trkpt><trkpt lat="44.02597608686039" lon="2.448252165247131"><ele>572.0</ele><time>2026-04-29T18:33:45Z</time></trkpt><trkpt lat="44.0260765470611" lon="2.448568254988994"><ele>572.5</ele><time>2026-04-29T18:33:46Z</time></trkpt><trkpt lat="44.026173970479164" lon="2.4488787415944495"><ele>573.0</ele><time>2026-04-29T18:33:47Z</time></trkpt><trkpt lat="44.02626986593436" lon="2.4491729653227368"><ele>573.0</ele><time>2026-04-29T18:33:48Z</time></trkpt><trkpt lat="44.02637504127799" lon="2.449448884300392"><ele>573.0</ele><time>2026-04-29T18:33:49Z</time></trkpt><trkpt lat="44.02649612783761" lon="2.4497094514101696"><ele>573.0</ele><time>2026-04-29T18:33:50Z</time></trkpt><trkpt lat="44.0266361111232" lon="2.4499501789945923"><ele>569.5</ele><time>2026-04-29T18:33:51Z</time></trkpt><trkpt lat="44.02679675816216" lon="2.4501899277383483"><ele>566.0</ele><time>2026-04-29T18:33:52Z</time></trkpt><trkpt lat="44.02695565947486" lon="2.450447659308878"><ele>564.0</ele><time>2026-04-29T18:33:53Z</time></trkpt><trkpt lat="44.02710476139284" lon="2.4507134230070675"><ele>562.0</ele><time>2026-04-29T18:33:54Z</time></trkpt><trkpt lat="44.027228140504526" lon="2.4509912681422064"><ele>562.0</ele><time>2026-04-29T18:33:55Z</time></trkpt><trkpt lat="44.027339050888735" lon="2.451279202260666"><ele>562.0</ele><time>2026-04-29T18:33:56Z</time></trkpt><trkpt lat="44.02743335605857" lon="2.451582550219712"><ele>563.0</ele><time>2026-04-29T18:33:57Z</time></trkpt><trkpt lat="44.02751060436402" lon="2.451880252433"><ele>564.0</ele><time>2026-04-29T18:33:58Z</time></trkpt><trkpt lat="44.02758019492881" lon="2.452147260104985"><ele>565.0</ele><time>2026-04-29T18:33:59Z</time></trkpt><trkpt lat="44.02764735796383" lon="2.4523933769216906"><ele>565.0</ele><time>2026-04-29T18:34:00Z</time></trkpt><trkpt lat="44.02772646927337" lon="2.452616291695532"><ele>565.0</ele><time>2026-04-29T18:34:01Z</time></trkpt><trkpt lat="44.02780220271639" lon="2.4528420057227067"><ele>565.0</ele><time>2026-04-29T18:34:02Z</time></trkpt><trkpt lat="44.02787514014984" lon="2.4530681904745033"><ele>563.3333333333334</ele><time>2026-04-29T18:34:03Z</time></trkpt><trkpt lat="44.027951876288824" lon="2.4532925350024555"><ele>561.6666666666666</ele><time>2026-04-29T18:34:04Z</time></trkpt><trkpt lat="44.02803191152811" lon="2.453529146663188"><ele>560.0</ele><time>2026-04-29T18:34:05Z</time></trkpt><trkpt lat="44.02811473004421" lon="2.4537738949692267"><ele>561.3333333333333</ele><time>2026-04-29T18:34:06Z</time></trkpt><trkpt lat="44.028199855535135" lon="2.4540262751310427"><ele>562.6666666666666</ele><time>2026-04-29T18:34:07Z</time></trkpt><trkpt lat="44.02828522912826" lon="2.454281544740235"><ele>564.0</ele><time>2026-04-29T18:34:08Z</time></trkpt><trkpt lat="44.028376885298734" lon="2.4545502656625953"><ele>567.5</ele><time>2026-04-29T18:34:09Z</time></trkpt><trkpt lat="44.02847377968434" lon="2.4548439974741463"><ele>571.0</ele><time>2026-04-29T18:34:10Z</time></trkpt><trkpt lat="44.028562720054104" lon="2.4551685188776964"><ele>568.0</ele><time>2026-04-29T18:34:11Z</time></trkpt><trkpt lat="44.02864772564208" lon="2.4554913682440143"><ele>565.0</ele><time>2026-04-29T18:34:12Z</time></trkpt><trkpt lat="44.028709787774716" lon="2.455829260201118"><ele>565.0</ele><time>2026-04-29T18:34:13Z</time></trkpt><trkpt lat="44.028748819233385" lon="2.456165045292075"><ele>565.0</ele><time>2026-04-29T18:34:14Z</time></trkpt><trkpt lat="44.02877525778886" lon="2.4565026385262185"><ele>565.0</ele><time>2026-04-29T18:34:15Z</time></trkpt><trkpt lat="44.02878743776989" lon="2.4568470040277144"><ele>565.0</ele><time>2026-04-29T18:34:16Z</time></trkpt><trkpt lat="44.02879338454461" lon="2.4572002469513006"><ele>564.0</ele><time>2026-04-29T18:34:17Z</time></trkpt><trkpt lat="44.02879423409876" lon="2.457553473299608"><ele>563.0</ele><time>2026-04-29T18:34:18Z</time></trkpt><trkpt lat="44.02877107272916" lon="2.457886286772407"><ele>563.6666666666666</ele><time>2026-04-29T18:34:19Z</time></trkpt><trkpt lat="44.028729238531355" lon="2.4581956855454536"><ele>564.3333333333334</ele><time>2026-04-29T18:34:20Z</time></trkpt><trkpt lat="44.02866918837325" lon="2.4584913550308993"><ele>565.0</ele><time>2026-04-29T18:34:21Z</time></trkpt><trkpt lat="44.02861394832432" lon="2.4587853050179596"><ele>568.0</ele><time>2026-04-29T18:34:22Z</time></trkpt><trkpt lat="44.02857771614005" lon="2.45908458492129"><ele>571.0</ele><time>2026-04-29T18:34:23Z</time></trkpt><trkpt lat="44.02841326645692" lon="2.459353142093334"><ele>571.0</ele><time>2026-04-29T18:34:24Z</time></trkpt><trkpt lat="44.028335108407056" lon="2.459609029310502"><ele>571.0</ele><time>2026-04-29T18:34:25Z</time></trkpt><trkpt lat="44.0282737533574" lon="2.4598638415023832"><ele>571.0</ele><time>2026-04-29T18:34:26Z</time></trkpt><trkpt lat="44.02822686142939" lon="2.460119568507936"><ele>571.6666666666667</ele><time>2026-04-29T18:34:27Z</time></trkpt><trkpt lat="44.0282107217327" lon="2.4603787098238996"><ele>572.3333333333334</ele><time>2026-04-29T18:34:28Z</time></trkpt><trkpt lat="44.02822776725551" lon="2.4606315615824093"><ele>573.0</ele><time>2026-04-29T18:34:29Z</time></trkpt><trkpt lat="44.02827852761183" lon="2.4608841421918335"><ele>574.3333333333334</ele><time>2026-04-29T18:34:30Z</time></trkpt><trkpt lat="44.02836904357812" lon="2.461128706391881"><ele>575.6666666666667</ele><time>2026-04-29T18:34:31Z</time></trkpt><trkpt lat="44.02847644468591" lon="2.4613636214308414"><ele>577.0</ele><time>2026-04-29T18:34:32Z</time></trkpt><trkpt lat="44.028588180400504" lon="2.4616055579075042"><ele>577.0</ele><time>2026-04-29T18:34:33Z</time></trkpt><trkpt lat="44.028691221098164" lon="2.4618578441880197"><ele>577.0</ele><time>2026-04-29T18:34:34Z</time></trkpt><trkpt lat="44.02878824537047" lon="2.4621125068891807"><ele>577.0</ele><time>2026-04-29T18:34:35Z</time></trkpt><trkpt lat="44.02886099956609" lon="2.462376860577283"><ele>574.6666666666667</ele><time>2026-04-29T18:34:36Z</time></trkpt><trkpt lat="44.028906537492404" lon="2.4626546822560176"><ele>572.3333333333334</ele><time>2026-04-29T18:34:37Z</time></trkpt><trkpt lat="44.028930817019585" lon="2.4629437423339744"><ele>570.0</ele><time>2026-04-29T18:34:38Z</time></trkpt><trkpt lat="44.028946505076384" lon="2.4632420713588505"><ele>570.0</ele><time>2026-04-29T18:34:39Z</time></trkpt><trkpt lat="44.02896279361775" lon="2.4635405870235796"><ele>570.0</ele><time>2026-04-29T18:34:40Z</time></trkpt><trkpt lat="44.028976818078156" lon="2.4638458995631267"><ele>570.0</ele><time>2026-04-29T18:34:41Z</time></trkpt><trkpt lat="44.0289951592421" lon="2.4641540234558565"><ele>571.0</ele><time>2026-04-29T18:34:42Z</time></trkpt><trkpt lat="44.02901200751916" lon="2.464465326041172"><ele>572.0</ele><time>2026-04-29T18:34:43Z</time></trkpt><trkpt lat="44.029029547555524" lon="2.4647820817116792"><ele>572.0</ele><time>2026-04-29T18:34:44Z</time></trkpt><trkpt lat="44.029048624518246" lon="2.4650951605942137"><ele>572.0</ele><time>2026-04-29T18:34:45Z</time></trkpt><trkpt lat="44.02906782720111" lon="2.46540356619099"><ele>572.0</ele><time>2026-04-29T18:34:46Z</time></trkpt><trkpt lat="44.029078331542166" lon="2.4657041424129527"><ele>568.3333333333333</ele><time>2026-04-29T18:34:47Z</time></trkpt><trkpt lat="44.02908503938975" lon="2.4659870831687067"><ele>564.6666666666666</ele><time>2026-04-29T18:34:48Z</time></trkpt><trkpt lat="44.02908373534651" lon="2.4662527787295305"><ele>561.0</ele><time>2026-04-29T18:34:49Z</time></trkpt><trkpt lat="44.02907895749619" lon="2.4665030072876486"><ele>559.3333333333334</ele><time>2026-04-29T18:34:50Z</time></trkpt><trkpt lat="44.02907707133882" lon="2.4667384403286103"><ele>557.6666666666667</ele><time>2026-04-29T18:34:51Z</time></trkpt><trkpt lat="44.02907603779939" lon="2.466963025254384"><ele>556.0</ele><time>2026-04-29T18:34:52Z</time></trkpt><trkpt lat="44.02907849979716" lon="2.4671723840727133"><ele>556.0</ele><time>2026-04-29T18:34:53Z</time></trkpt><trkpt lat="44.02908836373005" lon="2.467357292166184"><ele>556.0</ele><time>2026-04-29T18:34:54Z</time></trkpt><trkpt lat="44.02910073196778" lon="2.467515782792641"><ele>556.0</ele><time>2026-04-29T18:34:55Z</time></trkpt><trkpt lat="44.0291173650862" lon="2.4676470816602123"><ele>556.0</ele><time>2026-04-29T18:34:56Z</time></trkpt><trkpt lat="44.029141168164266" lon="2.4677568919006205"><ele>556.0</ele><time>2026-04-29T18:34:57Z</time></trkpt><trkpt lat="44.02915291685412" lon="2.467863464518768"><ele>555.4</ele><time>2026-04-29T18:34:58Z</time></trkpt><trkpt lat="44.02914416365223" lon="2.4679643676773035"><ele>554.8</ele><time>2026-04-29T18:34:59Z</time></trkpt><trkpt lat="44.02911453559269" lon="2.468062744484683"><ele>554.1999999999999</ele><time>2026-04-29T18:35:00Z</time></trkpt><trkpt lat="44.029061671640925" lon="2.468164685350738"><ele>553.6</ele><time>2026-04-29T18:35:01Z</time></trkpt><trkpt lat="44.02899882863291" lon="2.468279506912486"><ele>553.0</ele><time>2026-04-29T18:35:02Z</time></trkpt><trkpt lat="44.02892766345507" lon="2.4684091084987934"><ele>553.0</ele><time>2026-04-29T18:35:03Z</time></trkpt><trkpt lat="44.028844483249216" lon="2.4685573819300775"><ele>553.0</ele><time>2026-04-29T18:35:04Z</time></trkpt><trkpt lat="44.02875973000081" lon="2.4687225802037847"><ele>553.0</ele><time>2026-04-29T18:35:05Z</time></trkpt><trkpt lat="44.02867300858223" lon="2.4689020462021163"><ele>553.0</ele><time>2026-04-29T18:35:06Z</time></trkpt><trkpt lat="44.02859119453549" lon="2.4691011301116403"><ele>553.0</ele><time>2026-04-29T18:35:07Z</time></trkpt><trkpt lat="44.02851543516724" lon="2.4693131114252216"><ele>553.0</ele><time>2026-04-29T18:35:08Z</time></trkpt><trkpt lat="44.02845546293173" lon="2.4695215193149287"><ele>553.0</ele><time>2026-04-29T18:35:09Z</time></trkpt><trkpt lat="44.02840031099653" lon="2.469715704908417"><ele>553.0</ele><time>2026-04-29T18:35:10Z</time></trkpt><trkpt lat="44.02834942454301" lon="2.4699026668121586"><ele>553.0</ele><time>2026-04-29T18:35:11Z</time></trkpt><trkpt lat="44.02830179081608" lon="2.4700892725128427"><ele>553.0</ele><time>2026-04-29T18:35:12Z</time></trkpt><trkpt lat="44.02825928218171" lon="2.4702715344629085"><ele>553.0</ele><time>2026-04-29T18:35:13Z</time></trkpt><trkpt lat="44.02820927487965" lon="2.4704428687674547"><ele>549.1999999999999</ele><time>2026-04-29T18:35:14Z</time></trkpt><trkpt lat="44.028170031609676" lon="2.47060997142866"><ele>545.4</ele><time>2026-04-29T18:35:15Z</time></trkpt><trkpt lat="44.02814851906945" lon="2.4707557562096145"><ele>541.5999999999999</ele><time>2026-04-29T18:35:16Z</time></trkpt><trkpt lat="44.02812854771815" lon="2.4708816806689105"><ele>537.8</ele><time>2026-04-29T18:35:17Z</time></trkpt><trkpt lat="44.02811837546643" lon="2.470993485196645"><ele>534.0</ele><time>2026-04-29T18:35:18Z</time></trkpt><trkpt lat="44.02812617977637" lon="2.4710937438554557"><ele>534.0</ele><time>2026-04-29T18:35:19Z</time></trkpt><trkpt lat="44.0281582041057" lon="2.4711816187993727"><ele>534.0</ele><time>2026-04-29T18:35:20Z</time></trkpt><trkpt lat="44.02821527189951" lon="2.4712557900488266"><ele>534.0</ele><time>2026-04-29T18:35:21Z</time></trkpt><trkpt lat="44.02829629363873" lon="2.4713151141031036"><ele>534.0</ele><time>2026-04-29T18:35:22Z</time></trkpt><trkpt lat="44.02838939073449" lon="2.4713353131183755"><ele>534.0</ele><time>2026-04-29T18:35:23Z</time></trkpt><trkpt lat="44.02848587030458" lon="2.4713292622740375"><ele>534.0</ele><time>2026-04-29T18:35:24Z</time></trkpt><trkpt lat="44.028585672146725" lon="2.4713051056825064"><ele>534.8</ele><time>2026-04-29T18:35:25Z</time></trkpt><trkpt lat="44.02867978990425" lon="2.4712812872418857"><ele>535.5999999999999</ele><time>2026-04-29T18:35:26Z</time></trkpt><trkpt lat="44.02876587728348" lon="2.471282265812266"><ele>536.4</ele><time>2026-04-29T18:35:27Z</time></trkpt><trkpt lat="44.028869853058644" lon="2.4713253575889436"><ele>537.1999999999999</ele><time>2026-04-29T18:35:28Z</time></trkpt><trkpt lat="44.028951227041404" lon="2.4713644477944325"><ele>538.0</ele><time>2026-04-29T18:35:29Z</time></trkpt><trkpt lat="44.0290209831949" lon="2.471436317077905"><ele>538.0</ele><time>2026-04-29T18:35:30Z</time></trkpt><trkpt lat="44.02907171009141" lon="2.4715356705363054"><ele>538.0</ele><time>2026-04-29T18:35:31Z</time></trkpt><trkpt lat="44.02906940230124" lon="2.471660474663094"><ele>538.0</ele><time>2026-04-29T18:35:32Z</time></trkpt><trkpt lat="44.02905279541822" lon="2.471776749211238"><ele>538.0</ele><time>2026-04-29T18:35:33Z</time></trkpt><trkpt lat="44.029005455439275" lon="2.471896239966908"><ele>538.0</ele><time>2026-04-29T18:35:34Z</time></trkpt><trkpt lat="44.02894574257816" lon="2.472034039893124"><ele>536.75</ele><time>2026-04-29T18:35:35Z</time></trkpt><trkpt lat="44.028879121782126" lon="2.4721868879880033"><ele>535.5</ele><time>2026-04-29T18:35:36Z</time></trkpt><trkpt lat="44.02880199164634" lon="2.472342471864186"><ele>534.25</ele><time>2026-04-29T18:35:37Z</time></trkpt><trkpt lat="44.028731309279685" lon="2.472506658669802"><ele>533.0</ele><time>2026-04-29T18:35:38Z</time></trkpt><trkpt lat="44.02866396625721" lon="2.472671171481781"><ele>533.0</ele><time>2026-04-29T18:35:39Z</time></trkpt><trkpt lat="44.02859897753127" lon="2.4728266286095524"><ele>533.0</ele><time>2026-04-29T18:35:40Z</time></trkpt><trkpt lat="44.02854629042845" lon="2.4729705758231524"><ele>533.0</ele><time>2026-04-29T18:35:41Z</time></trkpt><trkpt lat="44.0284912924692" lon="2.4731047506789996"><ele>533.0</ele><time>2026-04-29T18:35:42Z</time></trkpt><trkpt lat="44.02844743529508" lon="2.473225673222278"><ele>532.1999999999999</ele><time>2026-04-29T18:35:43Z</time></trkpt><trkpt lat="44.028419564206814" lon="2.4733608313287574"><ele>531.4</ele><time>2026-04-29T18:35:44Z</time></trkpt><trkpt lat="44.028392606841344" lon="2.4734942095553354"><ele>530.5999999999999</ele><time>2026-04-29T18:35:45Z</time></trkpt><trkpt lat="44.02837175097931" lon="2.473618299777667"><ele>529.8</ele><time>2026-04-29T18:35:46Z</time></trkpt><trkpt lat="44.02834103222759" lon="2.473736165975152"><ele>529.0</ele><time>2026-04-29T18:35:47Z</time></trkpt><trkpt lat="44.02830946479242" lon="2.473843764794611"><ele>526.6</ele><time>2026-04-29T18:35:48Z</time></trkpt><trkpt lat="44.02826858029369" lon="2.4739334307287453"><ele>524.2</ele><time>2026-04-29T18:35:49Z</time></trkpt><trkpt lat="44.028216150096746" lon="2.474007493761769"><ele>521.8000000000001</ele><time>2026-04-29T18:35:50Z</time></trkpt><trkpt lat="44.02814769197426" lon="2.4740755763728974"><ele>519.4</ele><time>2026-04-29T18:35:51Z</time></trkpt><trkpt lat="44.028054415375934" lon="2.4741312490268315"><ele>517.0</ele><time>2026-04-29T18:35:52Z</time></trkpt><trkpt lat="44.027943414280095" lon="2.474186884713138"><ele>517.0</ele><time>2026-04-29T18:35:53Z</time></trkpt><trkpt lat="44.02781565472732" lon="2.4742590612540916"><ele>517.0</ele><time>2026-04-29T18:35:54Z</time></trkpt><trkpt lat="44.02768418296815" lon="2.4743427114208014"><ele>517.0</ele><time>2026-04-29T18:35:55Z</time></trkpt><trkpt lat="44.02754619359105" lon="2.4744433052274366"><ele>517.0</ele><time>2026-04-29T18:35:56Z</time></trkpt><trkpt lat="44.02740199723976" lon="2.4745524024735777"><ele>515.0</ele><time>2026-04-29T18:35:57Z</time></trkpt><trkpt lat="44.027246927909495" lon="2.4746740229889523"><ele>513.0</ele><time>2026-04-29T18:35:58Z</time></trkpt><trkpt lat="44.02709202160411" lon="2.4747974250620453"><ele>511.0</ele><time>2026-04-29T18:35:59Z</time></trkpt><trkpt lat="44.026931032889784" lon="2.474926226039348"><ele>511.0</ele><time>2026-04-29T18:36:00Z</time></trkpt><trkpt lat="44.02676522067101" lon="2.4750566533623477"><ele>511.0</ele><time>2026-04-29T18:36:01Z</time></trkpt><trkpt lat="44.02659693381919" lon="2.4751946339794113"><ele>511.0</ele><time>2026-04-29T18:36:02Z</time></trkpt><trkpt lat="44.0264268197298" lon="2.4753329727411995"><ele>509.0</ele><time>2026-04-29T18:36:03Z</time></trkpt><trkpt lat="44.026256278028086" lon="2.4754746471269504"><ele>507.0</ele><time>2026-04-29T18:36:04Z</time></trkpt><trkpt lat="44.026087001748316" lon="2.475613464933555"><ele>505.0</ele><time>2026-04-29T18:36:05Z</time></trkpt><trkpt lat="44.02591589440214" lon="2.475756137057346"><ele>503.6666666666667</ele><time>2026-04-29T18:36:06Z</time></trkpt><trkpt lat="44.02574696397768" lon="2.4758943269516958"><ele>502.33333333333337</ele><time>2026-04-29T18:36:07Z</time></trkpt><trkpt lat="44.02558616564732" lon="2.4760283468106428"><ele>501.0</ele><time>2026-04-29T18:36:08Z</time></trkpt><trkpt lat="44.02542866304167" lon="2.476152829571117"><ele>501.0</ele><time>2026-04-29T18:36:09Z</time></trkpt><trkpt lat="44.025275821653686" lon="2.4762681931982042"><ele>501.0</ele><time>2026-04-29T18:36:10Z</time></trkpt><trkpt lat="44.02511969314213" lon="2.4763645472795557"><ele>501.0</ele><time>2026-04-29T18:36:11Z</time></trkpt><trkpt lat="44.024955947993575" lon="2.4764380261838315"><ele>502.0</ele><time>2026-04-29T18:36:12Z</time></trkpt><trkpt lat="44.02479178306981" lon="2.476497082961905"><ele>503.0</ele><time>2026-04-29T18:36:13Z</time></trkpt><trkpt lat="44.02462837635676" lon="2.4765401309177446"><ele>504.0</ele><time>2026-04-29T18:36:14Z</time></trkpt><trkpt lat="44.02446512064896" lon="2.476575058129393"><ele>504.0</ele><time>2026-04-29T18:36:15Z</time></trkpt><trkpt lat="44.02430563467885" lon="2.476609667229709"><ele>504.0</ele><time>2026-04-29T18:36:16Z</time></trkpt><trkpt lat="44.02415264253938" lon="2.4766452185422367"><ele>504.0</ele><time>2026-04-29T18:36:17Z</time></trkpt><trkpt lat="44.024011252373064" lon="2.4766622908306264"><ele>503.75</ele><time>2026-04-29T18:36:18Z</time></trkpt><trkpt lat="44.023873131826214" lon="2.476659826029545"><ele>503.5</ele><time>2026-04-29T18:36:19Z</time></trkpt><trkpt lat="44.02373837450264" lon="2.476626891738097"><ele>503.25</ele><time>2026-04-29T18:36:20Z</time></trkpt><trkpt lat="44.02361404373149" lon="2.476535203000691"><ele>503.0</ele><time>2026-04-29T18:36:21Z</time></trkpt><trkpt lat="44.02348325789409" lon="2.476436888897123"><ele>503.0</ele><time>2026-04-29T18:36:22Z</time></trkpt><trkpt lat="44.02335004696851" lon="2.476338236298692"><ele>503.0</ele><time>2026-04-29T18:36:23Z</time></trkpt><trkpt lat="44.02320507260009" lon="2.476252996582491"><ele>503.0</ele><time>2026-04-29T18:36:24Z</time></trkpt><trkpt lat="44.02304749524424" lon="2.4761900289263186"><ele>502.0</ele><time>2026-04-29T18:36:25Z</time></trkpt><trkpt lat="44.02288527236931" lon="2.4761386899837783"><ele>501.0</ele><time>2026-04-29T18:36:26Z</time></trkpt><trkpt lat="44.02271145071265" lon="2.476100987671719"><ele>500.0</ele><time>2026-04-29T18:36:27Z</time></trkpt><trkpt lat="44.022534608672096" lon="2.476083006790083"><ele>499.66666666666663</ele><time>2026-04-29T18:36:28Z</time></trkpt><trkpt lat="44.02235615380937" lon="2.4760771334244165"><ele>499.33333333333337</ele><time>2026-04-29T18:36:29Z</time></trkpt><trkpt lat="44.0221715816659" lon="2.476074222413487"><ele>499.0</ele><time>2026-04-29T18:36:30Z</time></trkpt><trkpt lat="44.0219730421575" lon="2.4760721272781177"><ele>499.0</ele><time>2026-04-29T18:36:31Z</time></trkpt><trkpt lat="44.02176818714933" lon="2.4760737226926306"><ele>499.0</ele><time>2026-04-29T18:36:32Z</time></trkpt><trkpt lat="44.02156350321168" lon="2.4760761939746017"><ele>499.0</ele><time>2026-04-29T18:36:33Z</time></trkpt><trkpt lat="44.02135639197755" lon="2.4760786945663287"><ele>499.0</ele><time>2026-04-29T18:36:34Z</time></trkpt><trkpt lat="44.02114888128132" lon="2.4760793710545683"><ele>499.0</ele><time>2026-04-29T18:36:35Z</time></trkpt><trkpt lat="44.020947699888396" lon="2.4760992065786933"><ele>499.0</ele><time>2026-04-29T18:36:36Z</time></trkpt><trkpt lat="44.02075524329194" lon="2.4760972387867994"><ele>499.0</ele><time>2026-04-29T18:36:37Z</time></trkpt><trkpt lat="44.02056982063967" lon="2.476100415998758"><ele>499.0</ele><time>2026-04-29T18:36:38Z</time></trkpt><trkpt lat="44.0203955597637" lon="2.476108657232723"><ele>499.0</ele><time>2026-04-29T18:36:39Z</time></trkpt><trkpt lat="44.02022626080627" lon="2.4761295451512426"><ele>499.0</ele><time>2026-04-29T18:36:40Z</time></trkpt><trkpt lat="44.020060963956325" lon="2.4761496571213173"><ele>499.0</ele><time>2026-04-29T18:36:41Z</time></trkpt><trkpt lat="44.01989692277836" lon="2.47617853114543"><ele>499.0</ele><time>2026-04-29T18:36:42Z</time></trkpt><trkpt lat="44.0197409452099" lon="2.4762055312776416"><ele>499.75</ele><time>2026-04-29T18:36:43Z</time></trkpt><trkpt lat="44.01958803169268" lon="2.4761866227409"><ele>500.5</ele><time>2026-04-29T18:36:44Z</time></trkpt><trkpt lat="44.01944218773174" lon="2.4761750150969775"><ele>501.25</ele><time>2026-04-29T18:36:45Z</time></trkpt><trkpt lat="44.01931721465606" lon="2.4761640332620045"><ele>502.0</ele><time>2026-04-29T18:36:46Z</time></trkpt><trkpt lat="44.01919660151332" lon="2.476165922956728"><ele>502.0</ele><time>2026-04-29T18:36:47Z</time></trkpt><trkpt lat="44.01908546297517" lon="2.47613355873824"><ele>502.00000000000006</ele><time>2026-04-29T18:36:48Z</time></trkpt><trkpt lat="44.01898264952459" lon="2.4761009493939663"><ele>502.00000000000006</ele><time>2026-04-29T18:36:49Z</time></trkpt><trkpt lat="44.0188864187743" lon="2.4760691439225253"><ele>502.0</ele><time>2026-04-29T18:36:50Z</time></trkpt><trkpt lat="44.01880789961596" lon="2.4760343900115505"><ele>502.0</ele><time>2026-04-29T18:36:51Z</time></trkpt><trkpt lat="44.01874469876641" lon="2.4759974575224892"><ele>502.0</ele><time>2026-04-29T18:36:52Z</time></trkpt><trkpt lat="44.01864778599886" lon="2.475943432818664"><ele>502.0</ele><time>2026-04-29T18:36:54Z</time></trkpt><trkpt lat="44.018572416966805" lon="2.4758786996753708"><ele>502.0</ele><time>2026-04-29T18:36:56Z</time></trkpt><trkpt lat="44.018474189416565" lon="2.47605468493179"><ele>502.0</ele><time>2026-04-29T18:36:58Z</time></trkpt><trkpt lat="44.01841087059802" lon="2.4761945734127275"><ele>502.00000000000006</ele><time>2026-04-29T18:37:00Z</time></trkpt><trkpt lat="44.01836624473008" lon="2.4762656382648496"><ele>502.0</ele><time>2026-04-29T18:37:01Z</time></trkpt><trkpt lat="44.018312757842786" lon="2.4763344165437062"><ele>502.0</ele><time>2026-04-29T18:37:03Z</time></trkpt><trkpt lat="44.018278642567516" lon="2.4764124172639517"><ele>502.0</ele><time>2026-04-29T18:37:06Z</time></trkpt><trkpt lat="44.01823296727342" lon="2.4764849856192215"><ele>502.00000000000006</ele><time>2026-04-29T18:37:41Z</time></trkpt><trkpt lat="44.0181240024268" lon="2.4763448291271257"><ele>502.0</ele><time>2026-04-29T18:38:19Z</time></trkpt><trkpt lat="44.018075374675135" lon="2.476470366207646"><ele>495.0</ele><time>2026-04-29T18:39:43Z</time></trkpt></trkseg></trk></gpx>